<?xml version="1.0" encoding="UTF-8" standalone="no" ?>
<gpx xmlns="http://www.topografix.com/GPX/1/1" xmlns:xsi="http://www.w3.org/2001/XMLSchema-instance" xsi:schemaLocation="http://www.topografix.com/GPX/1/1 http://www.topografix.com/GPX/1/1/gpx.xsd" version="1.1" creator="VisuGPX - https://www.visugpx.com">
  <metadata>
    <name>Montée au refuge et lac d'Estom 1804m depuis la Fruitière</name>
    <desc><![CDATA[Ce sera la remontée de la vallée du utour, une classique du secteur de Cauterets  et au départ du parking de la Fruitiere.
Cette vallée est magnifique , de belles cascades et un torrent très impétueux.
Le lac d'Estom et le refuge seront le but de la randonnée qui s'achève dans un cadre très haute montagne.

[url=http://eal-rando.blogspot.fr/2014/06/le-lac-et-de-refuge-destom-1804m.html]voir rando[/url] ]]></desc>
  </metadata>
  <trk>
    <name><![CDATA[ESTOM N-14 02:51:31 PM]]></name>
    <trkseg>
      <trkpt lat="42.85087" lon="-0.0975">
        <ele>1348.87</ele>
        <time>2014-06-20T07:48:05Z</time>
      </trkpt>
      <trkpt lat="42.85084" lon="-0.09752">
        <ele>1349.35</ele>
        <time>2014-06-20T07:48:08Z</time>
      </trkpt>
      <trkpt lat="42.85073" lon="-0.09754">
        <ele>1350.79</ele>
        <time>2014-06-20T07:48:21Z</time>
      </trkpt>
      <trkpt lat="42.8507" lon="-0.09757">
        <ele>1350.79</ele>
        <time>2014-06-20T07:48:27Z</time>
      </trkpt>
      <trkpt lat="42.85067" lon="-0.09762">
        <ele>1351.27</ele>
        <time>2014-06-20T07:48:40Z</time>
      </trkpt>
      <trkpt lat="42.85065" lon="-0.09763">
        <ele>1351.27</ele>
        <time>2014-06-20T07:48:43Z</time>
      </trkpt>
      <trkpt lat="42.85061" lon="-0.09768">
        <ele>1352.23</ele>
        <time>2014-06-20T07:48:52Z</time>
      </trkpt>
      <trkpt lat="42.85057" lon="-0.09769">
        <ele>1352.23</ele>
        <time>2014-06-20T07:48:55Z</time>
      </trkpt>
      <trkpt lat="42.85045" lon="-0.09761">
        <ele>1353.67</ele>
        <time>2014-06-20T07:49:10Z</time>
      </trkpt>
      <trkpt lat="42.85033" lon="-0.09759">
        <ele>1353.67</ele>
        <time>2014-06-20T07:49:21Z</time>
      </trkpt>
      <trkpt lat="42.85025" lon="-0.09761">
        <ele>1354.15</ele>
        <time>2014-06-20T07:49:29Z</time>
      </trkpt>
      <trkpt lat="42.85018" lon="-0.09762">
        <ele>1355.12</ele>
        <time>2014-06-20T07:49:37Z</time>
      </trkpt>
      <trkpt lat="42.85008" lon="-0.09761">
        <ele>1356.08</ele>
        <time>2014-06-20T07:49:50Z</time>
      </trkpt>
      <trkpt lat="42.84996" lon="-0.09759">
        <ele>1356.56</ele>
        <time>2014-06-20T07:50:04Z</time>
      </trkpt>
      <trkpt lat="42.84995" lon="-0.09759">
        <ele>1357.04</ele>
        <time>2014-06-20T07:50:05Z</time>
      </trkpt>
      <trkpt lat="42.84981" lon="-0.09755">
        <ele>1356.56</ele>
        <time>2014-06-20T07:50:19Z</time>
      </trkpt>
      <trkpt lat="42.84974" lon="-0.09755">
        <ele>1358</ele>
        <time>2014-06-20T07:50:27Z</time>
      </trkpt>
      <trkpt lat="42.84962" lon="-0.09752">
        <ele>1358</ele>
        <time>2014-06-20T07:50:39Z</time>
      </trkpt>
      <trkpt lat="42.8495" lon="-0.09747">
        <ele>1358.96</ele>
        <time>2014-06-20T07:50:51Z</time>
      </trkpt>
      <trkpt lat="42.84937" lon="-0.0974">
        <ele>1360.4</ele>
        <time>2014-06-20T07:51:07Z</time>
      </trkpt>
      <trkpt lat="42.84931" lon="-0.09735">
        <ele>1360.4</ele>
        <time>2014-06-20T07:51:14Z</time>
      </trkpt>
      <trkpt lat="42.84927" lon="-0.09731">
        <ele>1360.88</ele>
        <time>2014-06-20T07:51:19Z</time>
      </trkpt>
      <trkpt lat="42.84916" lon="-0.09719">
        <ele>1360.4</ele>
        <time>2014-06-20T07:51:35Z</time>
      </trkpt>
      <trkpt lat="42.84903" lon="-0.09707">
        <ele>1358.96</ele>
        <time>2014-06-20T07:51:51Z</time>
      </trkpt>
      <trkpt lat="42.84899" lon="-0.09706">
        <ele>1359.44</ele>
        <time>2014-06-20T07:51:55Z</time>
      </trkpt>
      <trkpt lat="42.84895" lon="-0.09706">
        <ele>1359.44</ele>
        <time>2014-06-20T07:51:58Z</time>
      </trkpt>
      <trkpt lat="42.84885" lon="-0.09703">
        <ele>1359.92</ele>
        <time>2014-06-20T07:52:07Z</time>
      </trkpt>
      <trkpt lat="42.84875" lon="-0.09699">
        <ele>1361.36</ele>
        <time>2014-06-20T07:52:18Z</time>
      </trkpt>
      <trkpt lat="42.8486" lon="-0.09694">
        <ele>1361.84</ele>
        <time>2014-06-20T07:52:32Z</time>
      </trkpt>
      <trkpt lat="42.84856" lon="-0.09692">
        <ele>1361.84</ele>
        <time>2014-06-20T07:52:37Z</time>
      </trkpt>
      <trkpt lat="42.84841" lon="-0.09683">
        <ele>1362.33</ele>
        <time>2014-06-20T07:52:52Z</time>
      </trkpt>
      <trkpt lat="42.8484" lon="-0.09683">
        <ele>1362.33</ele>
        <time>2014-06-20T07:52:53Z</time>
      </trkpt>
      <trkpt lat="42.84838" lon="-0.09682">
        <ele>1362.81</ele>
        <time>2014-06-20T07:52:55Z</time>
      </trkpt>
      <trkpt lat="42.84831" lon="-0.0968">
        <ele>1362.81</ele>
        <time>2014-06-20T07:53:02Z</time>
      </trkpt>
      <trkpt lat="42.84826" lon="-0.09678">
        <ele>1363.77</ele>
        <time>2014-06-20T07:53:07Z</time>
      </trkpt>
      <trkpt lat="42.84822" lon="-0.09675">
        <ele>1364.73</ele>
        <time>2014-06-20T07:53:12Z</time>
      </trkpt>
      <trkpt lat="42.8481" lon="-0.09673">
        <ele>1365.69</ele>
        <time>2014-06-20T07:53:25Z</time>
      </trkpt>
      <trkpt lat="42.84807" lon="-0.09672">
        <ele>1365.69</ele>
        <time>2014-06-20T07:53:27Z</time>
      </trkpt>
      <trkpt lat="42.84795" lon="-0.09668">
        <ele>1367.61</ele>
        <time>2014-06-20T07:53:42Z</time>
      </trkpt>
      <trkpt lat="42.84787" lon="-0.09665">
        <ele>1367.13</ele>
        <time>2014-06-20T07:53:52Z</time>
      </trkpt>
      <trkpt lat="42.84777" lon="-0.09658">
        <ele>1367.61</ele>
        <time>2014-06-20T07:54:02Z</time>
      </trkpt>
      <trkpt lat="42.84773" lon="-0.09655">
        <ele>1368.09</ele>
        <time>2014-06-20T07:54:07Z</time>
      </trkpt>
      <trkpt lat="42.84759" lon="-0.09647">
        <ele>1368.57</ele>
        <time>2014-06-20T07:54:21Z</time>
      </trkpt>
      <trkpt lat="42.84753" lon="-0.09645">
        <ele>1369.05</ele>
        <time>2014-06-20T07:54:28Z</time>
      </trkpt>
      <trkpt lat="42.84736" lon="-0.09642">
        <ele>1370.5</ele>
        <time>2014-06-20T07:54:43Z</time>
      </trkpt>
      <trkpt lat="42.84726" lon="-0.09639">
        <ele>1371.46</ele>
        <time>2014-06-20T07:54:56Z</time>
      </trkpt>
      <trkpt lat="42.84716" lon="-0.09638">
        <ele>1372.42</ele>
        <time>2014-06-20T07:55:08Z</time>
      </trkpt>
      <trkpt lat="42.84702" lon="-0.09637">
        <ele>1373.86</ele>
        <time>2014-06-20T07:55:21Z</time>
      </trkpt>
      <trkpt lat="42.84698" lon="-0.09637">
        <ele>1374.82</ele>
        <time>2014-06-20T07:55:24Z</time>
      </trkpt>
      <trkpt lat="42.84692" lon="-0.09635">
        <ele>1374.82</ele>
        <time>2014-06-20T07:55:30Z</time>
      </trkpt>
      <trkpt lat="42.84685" lon="-0.09635">
        <ele>1375.3</ele>
        <time>2014-06-20T07:55:45Z</time>
      </trkpt>
      <trkpt lat="42.84681" lon="-0.09633">
        <ele>1375.78</ele>
        <time>2014-06-20T07:55:54Z</time>
      </trkpt>
      <trkpt lat="42.84673" lon="-0.0963">
        <ele>1376.26</ele>
        <time>2014-06-20T07:56:05Z</time>
      </trkpt>
      <trkpt lat="42.84667" lon="-0.0963">
        <ele>1376.26</ele>
        <time>2014-06-20T07:56:10Z</time>
      </trkpt>
      <trkpt lat="42.84662" lon="-0.09631">
        <ele>1376.26</ele>
        <time>2014-06-20T07:56:14Z</time>
      </trkpt>
      <trkpt lat="42.84645" lon="-0.09628">
        <ele>1376.75</ele>
        <time>2014-06-20T07:56:27Z</time>
      </trkpt>
      <trkpt lat="42.84625" lon="-0.09628">
        <ele>1377.71</ele>
        <time>2014-06-20T07:56:42Z</time>
      </trkpt>
      <trkpt lat="42.84616" lon="-0.09628">
        <ele>1378.19</ele>
        <time>2014-06-20T07:56:50Z</time>
      </trkpt>
      <trkpt lat="42.84603" lon="-0.09629">
        <ele>1379.63</ele>
        <time>2014-06-20T07:57:02Z</time>
      </trkpt>
      <trkpt lat="42.84587" lon="-0.09633">
        <ele>1381.55</ele>
        <time>2014-06-20T07:57:17Z</time>
      </trkpt>
      <trkpt lat="42.84577" lon="-0.09629">
        <ele>1383.96</ele>
        <time>2014-06-20T07:57:31Z</time>
      </trkpt>
      <trkpt lat="42.84566" lon="-0.09624">
        <ele>1383.96</ele>
        <time>2014-06-20T07:57:43Z</time>
      </trkpt>
      <trkpt lat="42.84558" lon="-0.0962">
        <ele>1384.44</ele>
        <time>2014-06-20T07:57:51Z</time>
      </trkpt>
      <trkpt lat="42.84549" lon="-0.09617">
        <ele>1385.4</ele>
        <time>2014-06-20T07:58:00Z</time>
      </trkpt>
      <trkpt lat="42.84543" lon="-0.09618">
        <ele>1385.88</ele>
        <time>2014-06-20T07:58:05Z</time>
      </trkpt>
      <trkpt lat="42.84535" lon="-0.09619">
        <ele>1386.84</ele>
        <time>2014-06-20T07:58:12Z</time>
      </trkpt>
      <trkpt lat="42.84525" lon="-0.09624">
        <ele>1388.28</ele>
        <time>2014-06-20T07:58:25Z</time>
      </trkpt>
      <trkpt lat="42.84519" lon="-0.09623">
        <ele>1389.24</ele>
        <time>2014-06-20T07:58:37Z</time>
      </trkpt>
      <trkpt lat="42.84516" lon="-0.09623">
        <ele>1388.76</ele>
        <time>2014-06-20T07:58:40Z</time>
      </trkpt>
      <trkpt lat="42.84505" lon="-0.09625">
        <ele>1390.2</ele>
        <time>2014-06-20T07:58:51Z</time>
      </trkpt>
      <trkpt lat="42.84502" lon="-0.09626">
        <ele>1390.68</ele>
        <time>2014-06-20T07:58:54Z</time>
      </trkpt>
      <trkpt lat="42.8449" lon="-0.0963">
        <ele>1392.13</ele>
        <time>2014-06-20T07:59:08Z</time>
      </trkpt>
      <trkpt lat="42.84481" lon="-0.09631">
        <ele>1395.49</ele>
        <time>2014-06-20T07:59:21Z</time>
      </trkpt>
      <trkpt lat="42.84473" lon="-0.09628">
        <ele>1396.45</ele>
        <time>2014-06-20T07:59:38Z</time>
      </trkpt>
      <trkpt lat="42.84472" lon="-0.09628">
        <ele>1396.93</ele>
        <time>2014-06-20T07:59:40Z</time>
      </trkpt>
      <trkpt lat="42.84461" lon="-0.0963">
        <ele>1400.78</ele>
        <time>2014-06-20T07:59:56Z</time>
      </trkpt>
      <trkpt lat="42.84451" lon="-0.09636">
        <ele>1403.18</ele>
        <time>2014-06-20T08:00:10Z</time>
      </trkpt>
      <trkpt lat="42.84441" lon="-0.0964">
        <ele>1405.1</ele>
        <time>2014-06-20T08:00:28Z</time>
      </trkpt>
      <trkpt lat="42.84435" lon="-0.09641">
        <ele>1407.03</ele>
        <time>2014-06-20T08:00:39Z</time>
      </trkpt>
      <trkpt lat="42.84424" lon="-0.09645">
        <ele>1409.91</ele>
        <time>2014-06-20T08:00:54Z</time>
      </trkpt>
      <trkpt lat="42.84414" lon="-0.09649">
        <ele>1412.31</ele>
        <time>2014-06-20T08:01:09Z</time>
      </trkpt>
      <trkpt lat="42.84403" lon="-0.09654">
        <ele>1414.24</ele>
        <time>2014-06-20T08:01:25Z</time>
      </trkpt>
      <trkpt lat="42.8439" lon="-0.09657">
        <ele>1415.68</ele>
        <time>2014-06-20T08:01:43Z</time>
      </trkpt>
      <trkpt lat="42.8438" lon="-0.09659">
        <ele>1417.12</ele>
        <time>2014-06-20T08:01:59Z</time>
      </trkpt>
      <trkpt lat="42.84368" lon="-0.09664">
        <ele>1417.6</ele>
        <time>2014-06-20T08:02:13Z</time>
      </trkpt>
      <trkpt lat="42.84363" lon="-0.09664">
        <ele>1418.08</ele>
        <time>2014-06-20T08:02:18Z</time>
      </trkpt>
      <trkpt lat="42.84357" lon="-0.09664">
        <ele>1418.56</ele>
        <time>2014-06-20T08:02:25Z</time>
      </trkpt>
      <trkpt lat="42.84344" lon="-0.09667">
        <ele>1419.04</ele>
        <time>2014-06-20T08:02:40Z</time>
      </trkpt>
      <trkpt lat="42.84331" lon="-0.09669">
        <ele>1420</ele>
        <time>2014-06-20T08:02:57Z</time>
      </trkpt>
      <trkpt lat="42.84323" lon="-0.09672">
        <ele>1420.49</ele>
        <time>2014-06-20T08:03:06Z</time>
      </trkpt>
      <trkpt lat="42.84318" lon="-0.0967">
        <ele>1421.45</ele>
        <time>2014-06-20T08:03:12Z</time>
      </trkpt>
      <trkpt lat="42.84304" lon="-0.09669">
        <ele>1422.41</ele>
        <time>2014-06-20T08:03:29Z</time>
      </trkpt>
      <trkpt lat="42.84297" lon="-0.09669">
        <ele>1422.41</ele>
        <time>2014-06-20T08:03:40Z</time>
      </trkpt>
      <trkpt lat="42.8429" lon="-0.09668">
        <ele>1421.45</ele>
        <time>2014-06-20T08:03:52Z</time>
      </trkpt>
      <trkpt lat="42.84284" lon="-0.09666">
        <ele>1420.97</ele>
        <time>2014-06-20T08:03:58Z</time>
      </trkpt>
      <trkpt lat="42.84277" lon="-0.09666">
        <ele>1420.97</ele>
        <time>2014-06-20T08:04:04Z</time>
      </trkpt>
      <trkpt lat="42.8426" lon="-0.09665">
        <ele>1422.41</ele>
        <time>2014-06-20T08:04:22Z</time>
      </trkpt>
      <trkpt lat="42.84243" lon="-0.09667">
        <ele>1422.41</ele>
        <time>2014-06-20T08:04:39Z</time>
      </trkpt>
      <trkpt lat="42.84241" lon="-0.09666">
        <ele>1422.89</ele>
        <time>2014-06-20T08:04:41Z</time>
      </trkpt>
      <trkpt lat="42.84237" lon="-0.09665">
        <ele>1422.89</ele>
        <time>2014-06-20T08:04:45Z</time>
      </trkpt>
      <trkpt lat="42.84219" lon="-0.09662">
        <ele>1422.89</ele>
        <time>2014-06-20T08:05:01Z</time>
      </trkpt>
      <trkpt lat="42.84203" lon="-0.09667">
        <ele>1424.33</ele>
        <time>2014-06-20T08:05:18Z</time>
      </trkpt>
      <trkpt lat="42.84196" lon="-0.09679">
        <ele>1425.77</ele>
        <time>2014-06-20T08:05:38Z</time>
      </trkpt>
      <trkpt lat="42.84194" lon="-0.09685">
        <ele>1427.21</ele>
        <time>2014-06-20T08:05:55Z</time>
      </trkpt>
      <trkpt lat="42.84188" lon="-0.09696">
        <ele>1428.66</ele>
        <time>2014-06-20T08:06:12Z</time>
      </trkpt>
      <trkpt lat="42.84173" lon="-0.09717">
        <ele>1429.62</ele>
        <time>2014-06-20T08:06:29Z</time>
      </trkpt>
      <trkpt lat="42.84153" lon="-0.09731">
        <ele>1430.58</ele>
        <time>2014-06-20T08:06:48Z</time>
      </trkpt>
      <trkpt lat="42.84141" lon="-0.09737">
        <ele>1431.54</ele>
        <time>2014-06-20T08:07:04Z</time>
      </trkpt>
      <trkpt lat="42.84131" lon="-0.09737">
        <ele>1433.46</ele>
        <time>2014-06-20T08:07:23Z</time>
      </trkpt>
      <trkpt lat="42.84126" lon="-0.09731">
        <ele>1435.39</ele>
        <time>2014-06-20T08:07:36Z</time>
      </trkpt>
      <trkpt lat="42.84124" lon="-0.09728">
        <ele>1436.83</ele>
        <time>2014-06-20T08:07:47Z</time>
      </trkpt>
      <trkpt lat="42.84117" lon="-0.09721">
        <ele>1438.75</ele>
        <time>2014-06-20T08:08:00Z</time>
      </trkpt>
      <trkpt lat="42.84113" lon="-0.09717">
        <ele>1440.67</ele>
        <time>2014-06-20T08:08:14Z</time>
      </trkpt>
      <trkpt lat="42.84107" lon="-0.09709">
        <ele>1443.56</ele>
        <time>2014-06-20T08:08:34Z</time>
      </trkpt>
      <trkpt lat="42.84097" lon="-0.09706">
        <ele>1443.56</ele>
        <time>2014-06-20T08:08:47Z</time>
      </trkpt>
      <trkpt lat="42.84093" lon="-0.09703">
        <ele>1443.08</ele>
        <time>2014-06-20T08:08:52Z</time>
      </trkpt>
      <trkpt lat="42.84087" lon="-0.09702">
        <ele>1443.08</ele>
        <time>2014-06-20T08:08:56Z</time>
      </trkpt>
      <trkpt lat="42.84075" lon="-0.09699">
        <ele>1442.11</ele>
        <time>2014-06-20T08:09:05Z</time>
      </trkpt>
      <trkpt lat="42.84065" lon="-0.09692">
        <ele>1442.6</ele>
        <time>2014-06-20T08:09:15Z</time>
      </trkpt>
      <trkpt lat="42.84046" lon="-0.09688">
        <ele>1442.11</ele>
        <time>2014-06-20T08:09:30Z</time>
      </trkpt>
      <trkpt lat="42.8403" lon="-0.09687">
        <ele>1443.08</ele>
        <time>2014-06-20T08:09:46Z</time>
      </trkpt>
      <trkpt lat="42.84019" lon="-0.09684">
        <ele>1443.56</ele>
        <time>2014-06-20T08:10:00Z</time>
      </trkpt>
      <trkpt lat="42.84012" lon="-0.09679">
        <ele>1444.04</ele>
        <time>2014-06-20T08:10:14Z</time>
      </trkpt>
      <trkpt lat="42.84006" lon="-0.09675">
        <ele>1445.48</ele>
        <time>2014-06-20T08:10:24Z</time>
      </trkpt>
      <trkpt lat="42.83998" lon="-0.09673">
        <ele>1445</ele>
        <time>2014-06-20T08:10:37Z</time>
      </trkpt>
      <trkpt lat="42.83992" lon="-0.09672">
        <ele>1445.96</ele>
        <time>2014-06-20T08:10:44Z</time>
      </trkpt>
      <trkpt lat="42.83975" lon="-0.09669">
        <ele>1445.96</ele>
        <time>2014-06-20T08:11:00Z</time>
      </trkpt>
      <trkpt lat="42.83973" lon="-0.09669">
        <ele>1445.96</ele>
        <time>2014-06-20T08:11:01Z</time>
      </trkpt>
      <trkpt lat="42.83964" lon="-0.09665">
        <ele>1446.92</ele>
        <time>2014-06-20T08:11:17Z</time>
      </trkpt>
      <trkpt lat="42.83958" lon="-0.09665">
        <ele>1447.4</ele>
        <time>2014-06-20T08:11:21Z</time>
      </trkpt>
      <trkpt lat="42.83953" lon="-0.09662">
        <ele>1446.92</ele>
        <time>2014-06-20T08:11:25Z</time>
      </trkpt>
      <trkpt lat="42.83945" lon="-0.09658">
        <ele>1446.92</ele>
        <time>2014-06-20T08:11:32Z</time>
      </trkpt>
      <trkpt lat="42.83939" lon="-0.09653">
        <ele>1446.92</ele>
        <time>2014-06-20T08:11:37Z</time>
      </trkpt>
      <trkpt lat="42.83927" lon="-0.09643">
        <ele>1448.36</ele>
        <time>2014-06-20T08:11:47Z</time>
      </trkpt>
      <trkpt lat="42.83907" lon="-0.09633">
        <ele>1448.84</ele>
        <time>2014-06-20T08:12:03Z</time>
      </trkpt>
      <trkpt lat="42.83904" lon="-0.09631">
        <ele>1448.36</ele>
        <time>2014-06-20T08:12:06Z</time>
      </trkpt>
      <trkpt lat="42.83889" lon="-0.09631">
        <ele>1449.32</ele>
        <time>2014-06-20T08:12:18Z</time>
      </trkpt>
      <trkpt lat="42.83877" lon="-0.09624">
        <ele>1448.84</ele>
        <time>2014-06-20T08:12:32Z</time>
      </trkpt>
      <trkpt lat="42.83867" lon="-0.09618">
        <ele>1450.29</ele>
        <time>2014-06-20T08:12:44Z</time>
      </trkpt>
      <trkpt lat="42.83856" lon="-0.09614">
        <ele>1450.77</ele>
        <time>2014-06-20T08:12:56Z</time>
      </trkpt>
      <trkpt lat="42.83854" lon="-0.09614">
        <ele>1451.25</ele>
        <time>2014-06-20T08:12:58Z</time>
      </trkpt>
      <trkpt lat="42.83835" lon="-0.09612">
        <ele>1451.25</ele>
        <time>2014-06-20T08:13:14Z</time>
      </trkpt>
      <trkpt lat="42.83826" lon="-0.09612">
        <ele>1451.73</ele>
        <time>2014-06-20T08:13:22Z</time>
      </trkpt>
      <trkpt lat="42.8381" lon="-0.09616">
        <ele>1452.21</ele>
        <time>2014-06-20T08:13:37Z</time>
      </trkpt>
      <trkpt lat="42.83802" lon="-0.09617">
        <ele>1452.69</ele>
        <time>2014-06-20T08:13:45Z</time>
      </trkpt>
      <trkpt lat="42.83782" lon="-0.09618">
        <ele>1453.17</ele>
        <time>2014-06-20T08:14:02Z</time>
      </trkpt>
      <trkpt lat="42.83764" lon="-0.09622">
        <ele>1454.13</ele>
        <time>2014-06-20T08:14:18Z</time>
      </trkpt>
      <trkpt lat="42.83744" lon="-0.09631">
        <ele>1455.57</ele>
        <time>2014-06-20T08:14:36Z</time>
      </trkpt>
      <trkpt lat="42.83742" lon="-0.09631">
        <ele>1455.57</ele>
        <time>2014-06-20T08:14:39Z</time>
      </trkpt>
      <trkpt lat="42.83731" lon="-0.09635">
        <ele>1455.57</ele>
        <time>2014-06-20T08:14:50Z</time>
      </trkpt>
      <trkpt lat="42.83716" lon="-0.09645">
        <ele>1456.05</ele>
        <time>2014-06-20T08:15:07Z</time>
      </trkpt>
      <trkpt lat="42.83706" lon="-0.09652">
        <ele>1456.05</ele>
        <time>2014-06-20T08:15:21Z</time>
      </trkpt>
      <trkpt lat="42.83691" lon="-0.09666">
        <ele>1457.02</ele>
        <time>2014-06-20T08:15:37Z</time>
      </trkpt>
      <trkpt lat="42.8368" lon="-0.09675">
        <ele>1457.98</ele>
        <time>2014-06-20T08:15:51Z</time>
      </trkpt>
      <trkpt lat="42.83675" lon="-0.09677">
        <ele>1457.98</ele>
        <time>2014-06-20T08:15:55Z</time>
      </trkpt>
      <trkpt lat="42.83667" lon="-0.0968">
        <ele>1457.98</ele>
        <time>2014-06-20T08:16:03Z</time>
      </trkpt>
      <trkpt lat="42.83659" lon="-0.09682">
        <ele>1458.46</ele>
        <time>2014-06-20T08:16:11Z</time>
      </trkpt>
      <trkpt lat="42.83645" lon="-0.09682">
        <ele>1459.42</ele>
        <time>2014-06-20T08:16:25Z</time>
      </trkpt>
      <trkpt lat="42.83639" lon="-0.09682">
        <ele>1459.42</ele>
        <time>2014-06-20T08:16:31Z</time>
      </trkpt>
      <trkpt lat="42.83633" lon="-0.09684">
        <ele>1459.9</ele>
        <time>2014-06-20T08:16:37Z</time>
      </trkpt>
      <trkpt lat="42.83627" lon="-0.09685">
        <ele>1460.38</ele>
        <time>2014-06-20T08:16:43Z</time>
      </trkpt>
      <trkpt lat="42.83609" lon="-0.09689">
        <ele>1460.38</ele>
        <time>2014-06-20T08:16:59Z</time>
      </trkpt>
      <trkpt lat="42.83603" lon="-0.09689">
        <ele>1460.38</ele>
        <time>2014-06-20T08:17:05Z</time>
      </trkpt>
      <trkpt lat="42.83584" lon="-0.09688">
        <ele>1460.86</ele>
        <time>2014-06-20T08:17:23Z</time>
      </trkpt>
      <trkpt lat="42.83578" lon="-0.09685">
        <ele>1461.82</ele>
        <time>2014-06-20T08:17:35Z</time>
      </trkpt>
      <trkpt lat="42.83567" lon="-0.09683">
        <ele>1462.78</ele>
        <time>2014-06-20T08:17:49Z</time>
      </trkpt>
      <trkpt lat="42.83553" lon="-0.09676">
        <ele>1463.74</ele>
        <time>2014-06-20T08:18:04Z</time>
      </trkpt>
      <trkpt lat="42.83534" lon="-0.09679">
        <ele>1464.23</ele>
        <time>2014-06-20T08:18:20Z</time>
      </trkpt>
      <trkpt lat="42.83519" lon="-0.09676">
        <ele>1465.19</ele>
        <time>2014-06-20T08:18:33Z</time>
      </trkpt>
      <trkpt lat="42.83505" lon="-0.09666">
        <ele>1465.19</ele>
        <time>2014-06-20T08:18:47Z</time>
      </trkpt>
      <trkpt lat="42.83498" lon="-0.09664">
        <ele>1466.63</ele>
        <time>2014-06-20T08:18:59Z</time>
      </trkpt>
      <trkpt lat="42.83493" lon="-0.09661">
        <ele>1467.59</ele>
        <time>2014-06-20T08:19:12Z</time>
      </trkpt>
      <trkpt lat="42.8348" lon="-0.09658">
        <ele>1467.11</ele>
        <time>2014-06-20T08:19:24Z</time>
      </trkpt>
      <trkpt lat="42.83469" lon="-0.09659">
        <ele>1467.59</ele>
        <time>2014-06-20T08:19:36Z</time>
      </trkpt>
      <trkpt lat="42.83464" lon="-0.09658">
        <ele>1468.07</ele>
        <time>2014-06-20T08:19:40Z</time>
      </trkpt>
      <trkpt lat="42.83444" lon="-0.09656">
        <ele>1468.07</ele>
        <time>2014-06-20T08:19:55Z</time>
      </trkpt>
      <trkpt lat="42.83434" lon="-0.09651">
        <ele>1468.55</ele>
        <time>2014-06-20T08:20:04Z</time>
      </trkpt>
      <trkpt lat="42.83421" lon="-0.09639">
        <ele>1469.51</ele>
        <time>2014-06-20T08:20:19Z</time>
      </trkpt>
      <trkpt lat="42.8342" lon="-0.09639">
        <ele>1469.03</ele>
        <time>2014-06-20T08:20:20Z</time>
      </trkpt>
      <trkpt lat="42.83405" lon="-0.09631">
        <ele>1469.99</ele>
        <time>2014-06-20T08:20:34Z</time>
      </trkpt>
      <trkpt lat="42.83394" lon="-0.0963">
        <ele>1469.51</ele>
        <time>2014-06-20T08:20:42Z</time>
      </trkpt>
      <trkpt lat="42.83391" lon="-0.09629">
        <ele>1470.47</ele>
        <time>2014-06-20T08:20:44Z</time>
      </trkpt>
      <trkpt lat="42.83384" lon="-0.09627">
        <ele>1470.95</ele>
        <time>2014-06-20T08:20:51Z</time>
      </trkpt>
      <trkpt lat="42.8337" lon="-0.0963">
        <ele>1470.47</ele>
        <time>2014-06-20T08:21:04Z</time>
      </trkpt>
      <trkpt lat="42.83364" lon="-0.09632">
        <ele>1470.95</ele>
        <time>2014-06-20T08:21:09Z</time>
      </trkpt>
      <trkpt lat="42.83349" lon="-0.0963">
        <ele>1472.4</ele>
        <time>2014-06-20T08:21:23Z</time>
      </trkpt>
      <trkpt lat="42.83346" lon="-0.0963">
        <ele>1471.92</ele>
        <time>2014-06-20T08:21:26Z</time>
      </trkpt>
      <trkpt lat="42.83326" lon="-0.09624">
        <ele>1472.4</ele>
        <time>2014-06-20T08:21:42Z</time>
      </trkpt>
      <trkpt lat="42.83315" lon="-0.09622">
        <ele>1472.88</ele>
        <time>2014-06-20T08:21:54Z</time>
      </trkpt>
      <trkpt lat="42.83306" lon="-0.09621">
        <ele>1473.36</ele>
        <time>2014-06-20T08:22:03Z</time>
      </trkpt>
      <trkpt lat="42.83297" lon="-0.09619">
        <ele>1474.32</ele>
        <time>2014-06-20T08:22:12Z</time>
      </trkpt>
      <trkpt lat="42.83279" lon="-0.09615">
        <ele>1475.76</ele>
        <time>2014-06-20T08:22:26Z</time>
      </trkpt>
      <trkpt lat="42.83266" lon="-0.0961">
        <ele>1476.24</ele>
        <time>2014-06-20T08:22:41Z</time>
      </trkpt>
      <trkpt lat="42.8326" lon="-0.09608">
        <ele>1477.68</ele>
        <time>2014-06-20T08:22:54Z</time>
      </trkpt>
      <trkpt lat="42.83255" lon="-0.09602">
        <ele>1479.61</ele>
        <time>2014-06-20T08:23:06Z</time>
      </trkpt>
      <trkpt lat="42.83252" lon="-0.09598">
        <ele>1482.01</ele>
        <time>2014-06-20T08:23:23Z</time>
      </trkpt>
      <trkpt lat="42.83247" lon="-0.09593">
        <ele>1484.89</ele>
        <time>2014-06-20T08:23:37Z</time>
      </trkpt>
      <trkpt lat="42.83237" lon="-0.09585">
        <ele>1487.78</ele>
        <time>2014-06-20T08:23:55Z</time>
      </trkpt>
      <trkpt lat="42.83224" lon="-0.09578">
        <ele>1489.22</ele>
        <time>2014-06-20T08:24:09Z</time>
      </trkpt>
      <trkpt lat="42.83211" lon="-0.09574">
        <ele>1490.18</ele>
        <time>2014-06-20T08:24:24Z</time>
      </trkpt>
      <trkpt lat="42.83194" lon="-0.09579">
        <ele>1492.1</ele>
        <time>2014-06-20T08:24:38Z</time>
      </trkpt>
      <trkpt lat="42.83182" lon="-0.09573">
        <ele>1494.03</ele>
        <time>2014-06-20T08:24:55Z</time>
      </trkpt>
      <trkpt lat="42.83171" lon="-0.09574">
        <ele>1495.47</ele>
        <time>2014-06-20T08:25:12Z</time>
      </trkpt>
      <trkpt lat="42.8316" lon="-0.09578">
        <ele>1497.39</ele>
        <time>2014-06-20T08:25:25Z</time>
      </trkpt>
      <trkpt lat="42.83148" lon="-0.0958">
        <ele>1499.79</ele>
        <time>2014-06-20T08:25:42Z</time>
      </trkpt>
      <trkpt lat="42.83135" lon="-0.0958">
        <ele>1500.76</ele>
        <time>2014-06-20T08:25:57Z</time>
      </trkpt>
      <trkpt lat="42.83123" lon="-0.09579">
        <ele>1502.2</ele>
        <time>2014-06-20T08:26:11Z</time>
      </trkpt>
      <trkpt lat="42.83107" lon="-0.09583">
        <ele>1502.2</ele>
        <time>2014-06-20T08:26:26Z</time>
      </trkpt>
      <trkpt lat="42.8309" lon="-0.09588">
        <ele>1503.16</ele>
        <time>2014-06-20T08:26:42Z</time>
      </trkpt>
      <trkpt lat="42.83077" lon="-0.09591">
        <ele>1503.64</ele>
        <time>2014-06-20T08:26:57Z</time>
      </trkpt>
      <trkpt lat="42.83059" lon="-0.09596">
        <ele>1503.64</ele>
        <time>2014-06-20T08:27:12Z</time>
      </trkpt>
      <trkpt lat="42.83045" lon="-0.09599">
        <ele>1504.12</ele>
        <time>2014-06-20T08:27:26Z</time>
      </trkpt>
      <trkpt lat="42.83033" lon="-0.09603">
        <ele>1505.56</ele>
        <time>2014-06-20T08:27:41Z</time>
      </trkpt>
      <trkpt lat="42.83026" lon="-0.09607">
        <ele>1505.08</ele>
        <time>2014-06-20T08:27:54Z</time>
      </trkpt>
      <trkpt lat="42.83017" lon="-0.09612">
        <ele>1505.08</ele>
        <time>2014-06-20T08:28:07Z</time>
      </trkpt>
      <trkpt lat="42.83013" lon="-0.09617">
        <ele>1504.12</ele>
        <time>2014-06-20T08:28:22Z</time>
      </trkpt>
      <trkpt lat="42.82999" lon="-0.09628">
        <ele>1504.12</ele>
        <time>2014-06-20T08:28:37Z</time>
      </trkpt>
      <trkpt lat="42.82985" lon="-0.09633">
        <ele>1504.6</ele>
        <time>2014-06-20T08:28:51Z</time>
      </trkpt>
      <trkpt lat="42.82978" lon="-0.09634">
        <ele>1504.12</ele>
        <time>2014-06-20T08:29:04Z</time>
      </trkpt>
      <trkpt lat="42.82976" lon="-0.09636">
        <ele>1504.6</ele>
        <time>2014-06-20T08:29:08Z</time>
      </trkpt>
      <trkpt lat="42.8297" lon="-0.09641">
        <ele>1504.6</ele>
        <time>2014-06-20T08:29:15Z</time>
      </trkpt>
      <trkpt lat="42.82963" lon="-0.09644">
        <ele>1505.56</ele>
        <time>2014-06-20T08:29:22Z</time>
      </trkpt>
      <trkpt lat="42.8296" lon="-0.09645">
        <ele>1505.56</ele>
        <time>2014-06-20T08:29:25Z</time>
      </trkpt>
      <trkpt lat="42.82946" lon="-0.09648">
        <ele>1507</ele>
        <time>2014-06-20T08:29:42Z</time>
      </trkpt>
      <trkpt lat="42.82937" lon="-0.0965">
        <ele>1507.97</ele>
        <time>2014-06-20T08:29:55Z</time>
      </trkpt>
      <trkpt lat="42.82934" lon="-0.09653">
        <ele>1507.97</ele>
        <time>2014-06-20T08:30:05Z</time>
      </trkpt>
      <trkpt lat="42.82931" lon="-0.09654">
        <ele>1507.48</ele>
        <time>2014-06-20T08:30:09Z</time>
      </trkpt>
      <trkpt lat="42.82917" lon="-0.09651">
        <ele>1508.45</ele>
        <time>2014-06-20T08:30:24Z</time>
      </trkpt>
      <trkpt lat="42.8291" lon="-0.09648">
        <ele>1509.41</ele>
        <time>2014-06-20T08:30:39Z</time>
      </trkpt>
      <trkpt lat="42.82906" lon="-0.09646">
        <ele>1509.41</ele>
        <time>2014-06-20T08:30:43Z</time>
      </trkpt>
      <trkpt lat="42.82904" lon="-0.09645">
        <ele>1509.89</ele>
        <time>2014-06-20T08:30:45Z</time>
      </trkpt>
      <trkpt lat="42.82901" lon="-0.09645">
        <ele>1509.41</ele>
        <time>2014-06-20T08:30:47Z</time>
      </trkpt>
      <trkpt lat="42.82886" lon="-0.09643">
        <ele>1509.89</ele>
        <time>2014-06-20T08:31:02Z</time>
      </trkpt>
      <trkpt lat="42.82877" lon="-0.0964">
        <ele>1509.89</ele>
        <time>2014-06-20T08:31:14Z</time>
      </trkpt>
      <trkpt lat="42.8286" lon="-0.09633">
        <ele>1511.81</ele>
        <time>2014-06-20T08:31:35Z</time>
      </trkpt>
      <trkpt lat="42.82848" lon="-0.09629">
        <ele>1514.21</ele>
        <time>2014-06-20T08:31:57Z</time>
      </trkpt>
      <trkpt lat="42.82836" lon="-0.09619">
        <ele>1515.66</ele>
        <time>2014-06-20T08:32:14Z</time>
      </trkpt>
      <trkpt lat="42.82817" lon="-0.09612">
        <ele>1517.58</ele>
        <time>2014-06-20T08:32:34Z</time>
      </trkpt>
      <trkpt lat="42.82801" lon="-0.09604">
        <ele>1517.58</ele>
        <time>2014-06-20T08:32:53Z</time>
      </trkpt>
      <trkpt lat="42.82798" lon="-0.09601">
        <ele>1519.02</ele>
        <time>2014-06-20T08:33:11Z</time>
      </trkpt>
      <trkpt lat="42.82781" lon="-0.09597">
        <ele>1520.46</ele>
        <time>2014-06-20T08:33:29Z</time>
      </trkpt>
      <trkpt lat="42.82759" lon="-0.09584">
        <ele>1521.42</ele>
        <time>2014-06-20T08:33:45Z</time>
      </trkpt>
      <trkpt lat="42.82748" lon="-0.09575">
        <ele>1522.87</ele>
        <time>2014-06-20T08:34:00Z</time>
      </trkpt>
      <trkpt lat="42.82734" lon="-0.09575">
        <ele>1523.83</ele>
        <time>2014-06-20T08:34:15Z</time>
      </trkpt>
      <trkpt lat="42.82719" lon="-0.09573">
        <ele>1524.31</ele>
        <time>2014-06-20T08:34:30Z</time>
      </trkpt>
      <trkpt lat="42.8271" lon="-0.09572">
        <ele>1526.23</ele>
        <time>2014-06-20T08:34:43Z</time>
      </trkpt>
      <trkpt lat="42.82703" lon="-0.09574">
        <ele>1526.71</ele>
        <time>2014-06-20T08:34:58Z</time>
      </trkpt>
      <trkpt lat="42.82703" lon="-0.09574">
        <ele>1526.71</ele>
        <time>2014-06-20T08:35:16Z</time>
      </trkpt>
      <trkpt lat="42.82703" lon="-0.09573">
        <ele>1527.67</ele>
        <time>2014-06-20T08:35:35Z</time>
      </trkpt>
      <trkpt lat="42.8269" lon="-0.09573">
        <ele>1528.63</ele>
        <time>2014-06-20T08:35:52Z</time>
      </trkpt>
      <trkpt lat="42.82676" lon="-0.0958">
        <ele>1530.56</ele>
        <time>2014-06-20T08:36:10Z</time>
      </trkpt>
      <trkpt lat="42.8266" lon="-0.09588">
        <ele>1530.08</ele>
        <time>2014-06-20T08:36:24Z</time>
      </trkpt>
      <trkpt lat="42.82652" lon="-0.09595">
        <ele>1531.52</ele>
        <time>2014-06-20T08:36:38Z</time>
      </trkpt>
      <trkpt lat="42.82637" lon="-0.09602">
        <ele>1532</ele>
        <time>2014-06-20T08:36:54Z</time>
      </trkpt>
      <trkpt lat="42.82622" lon="-0.09602">
        <ele>1532.48</ele>
        <time>2014-06-20T08:37:09Z</time>
      </trkpt>
      <trkpt lat="42.82606" lon="-0.09604">
        <ele>1533.92</ele>
        <time>2014-06-20T08:37:27Z</time>
      </trkpt>
      <trkpt lat="42.82592" lon="-0.0961">
        <ele>1533.92</ele>
        <time>2014-06-20T08:37:43Z</time>
      </trkpt>
      <trkpt lat="42.82577" lon="-0.09611">
        <ele>1534.4</ele>
        <time>2014-06-20T08:37:58Z</time>
      </trkpt>
      <trkpt lat="42.82567" lon="-0.0961">
        <ele>1535.36</ele>
        <time>2014-06-20T08:38:13Z</time>
      </trkpt>
      <trkpt lat="42.82551" lon="-0.09605">
        <ele>1535.36</ele>
        <time>2014-06-20T08:38:30Z</time>
      </trkpt>
      <trkpt lat="42.82539" lon="-0.09602">
        <ele>1533.92</ele>
        <time>2014-06-20T08:38:45Z</time>
      </trkpt>
      <trkpt lat="42.82529" lon="-0.09605">
        <ele>1533.92</ele>
        <time>2014-06-20T08:38:57Z</time>
      </trkpt>
      <trkpt lat="42.82513" lon="-0.09609">
        <ele>1532.48</ele>
        <time>2014-06-20T08:39:14Z</time>
      </trkpt>
      <trkpt lat="42.82498" lon="-0.09609">
        <ele>1533.92</ele>
        <time>2014-06-20T08:39:31Z</time>
      </trkpt>
      <trkpt lat="42.82487" lon="-0.09607">
        <ele>1535.36</ele>
        <time>2014-06-20T08:39:40Z</time>
      </trkpt>
      <trkpt lat="42.82476" lon="-0.09607">
        <ele>1535.84</ele>
        <time>2014-06-20T08:39:53Z</time>
      </trkpt>
      <trkpt lat="42.82465" lon="-0.09601">
        <ele>1535.84</ele>
        <time>2014-06-20T08:40:04Z</time>
      </trkpt>
      <trkpt lat="42.82453" lon="-0.09603">
        <ele>1536.8</ele>
        <time>2014-06-20T08:40:19Z</time>
      </trkpt>
      <trkpt lat="42.82445" lon="-0.09606">
        <ele>1537.29</ele>
        <time>2014-06-20T08:40:31Z</time>
      </trkpt>
      <trkpt lat="42.82432" lon="-0.09607">
        <ele>1537.29</ele>
        <time>2014-06-20T08:40:44Z</time>
      </trkpt>
      <trkpt lat="42.82427" lon="-0.09606">
        <ele>1537.29</ele>
        <time>2014-06-20T08:40:49Z</time>
      </trkpt>
      <trkpt lat="42.82421" lon="-0.09602">
        <ele>1538.25</ele>
        <time>2014-06-20T08:40:55Z</time>
      </trkpt>
      <trkpt lat="42.82418" lon="-0.09603">
        <ele>1537.77</ele>
        <time>2014-06-20T08:40:58Z</time>
      </trkpt>
      <trkpt lat="42.82402" lon="-0.09607">
        <ele>1539.21</ele>
        <time>2014-06-20T08:41:14Z</time>
      </trkpt>
      <trkpt lat="42.82392" lon="-0.09607">
        <ele>1539.69</ele>
        <time>2014-06-20T08:41:29Z</time>
      </trkpt>
      <trkpt lat="42.82389" lon="-0.0961">
        <ele>1539.69</ele>
        <time>2014-06-20T08:41:42Z</time>
      </trkpt>
      <trkpt lat="42.82384" lon="-0.09617">
        <ele>1538.73</ele>
        <time>2014-06-20T08:41:55Z</time>
      </trkpt>
      <trkpt lat="42.82383" lon="-0.09623">
        <ele>1539.69</ele>
        <time>2014-06-20T08:42:02Z</time>
      </trkpt>
      <trkpt lat="42.82382" lon="-0.0963">
        <ele>1539.69</ele>
        <time>2014-06-20T08:42:07Z</time>
      </trkpt>
      <trkpt lat="42.82378" lon="-0.09642">
        <ele>1540.65</ele>
        <time>2014-06-20T08:42:20Z</time>
      </trkpt>
      <trkpt lat="42.82373" lon="-0.09648">
        <ele>1541.61</ele>
        <time>2014-06-20T08:42:28Z</time>
      </trkpt>
      <trkpt lat="42.8236" lon="-0.09658">
        <ele>1542.09</ele>
        <time>2014-06-20T08:42:42Z</time>
      </trkpt>
      <trkpt lat="42.82348" lon="-0.0967">
        <ele>1544.01</ele>
        <time>2014-06-20T08:42:58Z</time>
      </trkpt>
      <trkpt lat="42.82345" lon="-0.09674">
        <ele>1544.98</ele>
        <time>2014-06-20T08:43:12Z</time>
      </trkpt>
      <trkpt lat="42.82342" lon="-0.0968">
        <ele>1545.94</ele>
        <time>2014-06-20T08:43:30Z</time>
      </trkpt>
      <trkpt lat="42.82336" lon="-0.09684">
        <ele>1544.98</ele>
        <time>2014-06-20T08:43:44Z</time>
      </trkpt>
      <trkpt lat="42.82323" lon="-0.09685">
        <ele>1543.53</ele>
        <time>2014-06-20T08:43:57Z</time>
      </trkpt>
      <trkpt lat="42.82318" lon="-0.09686">
        <ele>1544.01</ele>
        <time>2014-06-20T08:44:03Z</time>
      </trkpt>
      <trkpt lat="42.82307" lon="-0.09686">
        <ele>1544.5</ele>
        <time>2014-06-20T08:44:16Z</time>
      </trkpt>
      <trkpt lat="42.82298" lon="-0.09692">
        <ele>1545.46</ele>
        <time>2014-06-20T08:44:28Z</time>
      </trkpt>
      <trkpt lat="42.82296" lon="-0.09693">
        <ele>1545.46</ele>
        <time>2014-06-20T08:44:31Z</time>
      </trkpt>
      <trkpt lat="42.82293" lon="-0.09693">
        <ele>1545.46</ele>
        <time>2014-06-20T08:44:34Z</time>
      </trkpt>
      <trkpt lat="42.82283" lon="-0.09694">
        <ele>1545.94</ele>
        <time>2014-06-20T08:44:46Z</time>
      </trkpt>
      <trkpt lat="42.82275" lon="-0.09694">
        <ele>1547.38</ele>
        <time>2014-06-20T08:45:04Z</time>
      </trkpt>
      <trkpt lat="42.82274" lon="-0.09694">
        <ele>1547.38</ele>
        <time>2014-06-20T08:45:19Z</time>
      </trkpt>
      <trkpt lat="42.82274" lon="-0.09698">
        <ele>1547.38</ele>
        <time>2014-06-20T08:45:44Z</time>
      </trkpt>
      <trkpt lat="42.82272" lon="-0.09707">
        <ele>1547.38</ele>
        <time>2014-06-20T08:45:55Z</time>
      </trkpt>
      <trkpt lat="42.82262" lon="-0.09711">
        <ele>1548.34</ele>
        <time>2014-06-20T08:46:07Z</time>
      </trkpt>
      <trkpt lat="42.82245" lon="-0.0972">
        <ele>1549.3</ele>
        <time>2014-06-20T08:46:26Z</time>
      </trkpt>
      <trkpt lat="42.82231" lon="-0.09731">
        <ele>1550.74</ele>
        <time>2014-06-20T08:46:44Z</time>
      </trkpt>
      <trkpt lat="42.82219" lon="-0.0974">
        <ele>1552.67</ele>
        <time>2014-06-20T08:47:01Z</time>
      </trkpt>
      <trkpt lat="42.82206" lon="-0.09753">
        <ele>1554.11</ele>
        <time>2014-06-20T08:47:19Z</time>
      </trkpt>
      <trkpt lat="42.82195" lon="-0.09759">
        <ele>1556.03</ele>
        <time>2014-06-20T08:47:35Z</time>
      </trkpt>
      <trkpt lat="42.82185" lon="-0.0977">
        <ele>1557.47</ele>
        <time>2014-06-20T08:47:50Z</time>
      </trkpt>
      <trkpt lat="42.82168" lon="-0.0978">
        <ele>1558.43</ele>
        <time>2014-06-20T08:48:05Z</time>
      </trkpt>
      <trkpt lat="42.82159" lon="-0.09784">
        <ele>1560.36</ele>
        <time>2014-06-20T08:48:18Z</time>
      </trkpt>
      <trkpt lat="42.82151" lon="-0.09786">
        <ele>1561.32</ele>
        <time>2014-06-20T08:48:29Z</time>
      </trkpt>
      <trkpt lat="42.82149" lon="-0.09786">
        <ele>1561.8</ele>
        <time>2014-06-20T08:48:45Z</time>
      </trkpt>
      <trkpt lat="42.82146" lon="-0.09785">
        <ele>1561.32</ele>
        <time>2014-06-20T08:49:02Z</time>
      </trkpt>
      <trkpt lat="42.82146" lon="-0.09786">
        <ele>1556.03</ele>
        <time>2014-06-20T08:49:04Z</time>
      </trkpt>
      <trkpt lat="42.82146" lon="-0.09786">
        <ele>1562.28</ele>
        <time>2014-06-20T08:49:05Z</time>
      </trkpt>
      <trkpt lat="42.82145" lon="-0.09786">
        <ele>1561.8</ele>
        <time>2014-06-20T08:49:22Z</time>
      </trkpt>
      <trkpt lat="42.82145" lon="-0.09786">
        <ele>1561.8</ele>
        <time>2014-06-20T08:49:46Z</time>
      </trkpt>
      <trkpt lat="42.82144" lon="-0.09785">
        <ele>1562.28</ele>
        <time>2014-06-20T08:50:09Z</time>
      </trkpt>
      <trkpt lat="42.82143" lon="-0.09787">
        <ele>1561.8</ele>
        <time>2014-06-20T08:50:24Z</time>
      </trkpt>
      <trkpt lat="42.82142" lon="-0.09787">
        <ele>1562.28</ele>
        <time>2014-06-20T08:50:48Z</time>
      </trkpt>
      <trkpt lat="42.82138" lon="-0.09788">
        <ele>1563.24</ele>
        <time>2014-06-20T08:51:00Z</time>
      </trkpt>
      <trkpt lat="42.82137" lon="-0.0979">
        <ele>1563.72</ele>
        <time>2014-06-20T08:51:15Z</time>
      </trkpt>
      <trkpt lat="42.82134" lon="-0.09792">
        <ele>1563.72</ele>
        <time>2014-06-20T08:51:33Z</time>
      </trkpt>
      <trkpt lat="42.82133" lon="-0.09794">
        <ele>1563.72</ele>
        <time>2014-06-20T08:51:49Z</time>
      </trkpt>
      <trkpt lat="42.82133" lon="-0.09794">
        <ele>1564.2</ele>
        <time>2014-06-20T08:52:10Z</time>
      </trkpt>
      <trkpt lat="42.82129" lon="-0.09795">
        <ele>1563.72</ele>
        <time>2014-06-20T08:52:23Z</time>
      </trkpt>
      <trkpt lat="42.82126" lon="-0.09794">
        <ele>1563.72</ele>
        <time>2014-06-20T08:52:45Z</time>
      </trkpt>
      <trkpt lat="42.82127" lon="-0.09792">
        <ele>1564.2</ele>
        <time>2014-06-20T08:53:05Z</time>
      </trkpt>
      <trkpt lat="42.82127" lon="-0.09792">
        <ele>1563.72</ele>
        <time>2014-06-20T08:53:38Z</time>
      </trkpt>
      <trkpt lat="42.82127" lon="-0.09797">
        <ele>1563.72</ele>
        <time>2014-06-20T08:53:56Z</time>
      </trkpt>
      <trkpt lat="42.82127" lon="-0.09796">
        <ele>1564.2</ele>
        <time>2014-06-20T08:54:13Z</time>
      </trkpt>
      <trkpt lat="42.82116" lon="-0.09796">
        <ele>1565.16</ele>
        <time>2014-06-20T08:54:29Z</time>
      </trkpt>
      <trkpt lat="42.82103" lon="-0.09798">
        <ele>1566.61</ele>
        <time>2014-06-20T08:54:41Z</time>
      </trkpt>
      <trkpt lat="42.82087" lon="-0.09801">
        <ele>1567.09</ele>
        <time>2014-06-20T08:54:54Z</time>
      </trkpt>
      <trkpt lat="42.82075" lon="-0.09797">
        <ele>1568.53</ele>
        <time>2014-06-20T08:55:07Z</time>
      </trkpt>
      <trkpt lat="42.82066" lon="-0.09796">
        <ele>1569.97</ele>
        <time>2014-06-20T08:55:20Z</time>
      </trkpt>
      <trkpt lat="42.82058" lon="-0.09794">
        <ele>1570.93</ele>
        <time>2014-06-20T08:55:33Z</time>
      </trkpt>
      <trkpt lat="42.82048" lon="-0.09792">
        <ele>1572.85</ele>
        <time>2014-06-20T08:55:47Z</time>
      </trkpt>
      <trkpt lat="42.82043" lon="-0.09794">
        <ele>1574.3</ele>
        <time>2014-06-20T08:56:01Z</time>
      </trkpt>
      <trkpt lat="42.82029" lon="-0.09793">
        <ele>1575.26</ele>
        <time>2014-06-20T08:56:16Z</time>
      </trkpt>
      <trkpt lat="42.82022" lon="-0.09795">
        <ele>1576.7</ele>
        <time>2014-06-20T08:56:28Z</time>
      </trkpt>
      <trkpt lat="42.82022" lon="-0.09796">
        <ele>1579.1</ele>
        <time>2014-06-20T08:56:44Z</time>
      </trkpt>
      <trkpt lat="42.82021" lon="-0.09797">
        <ele>1581.03</ele>
        <time>2014-06-20T08:57:00Z</time>
      </trkpt>
      <trkpt lat="42.8202" lon="-0.09798">
        <ele>1583.43</ele>
        <time>2014-06-20T08:57:20Z</time>
      </trkpt>
      <trkpt lat="42.8201" lon="-0.09808">
        <ele>1585.35</ele>
        <time>2014-06-20T08:57:36Z</time>
      </trkpt>
      <trkpt lat="42.82003" lon="-0.09812">
        <ele>1584.87</ele>
        <time>2014-06-20T08:57:54Z</time>
      </trkpt>
      <trkpt lat="42.81989" lon="-0.0981">
        <ele>1584.39</ele>
        <time>2014-06-20T08:58:12Z</time>
      </trkpt>
      <trkpt lat="42.81959" lon="-0.09815">
        <ele>1586.31</ele>
        <time>2014-06-20T08:58:31Z</time>
      </trkpt>
      <trkpt lat="42.81937" lon="-0.09819">
        <ele>1586.31</ele>
        <time>2014-06-20T08:58:48Z</time>
      </trkpt>
      <trkpt lat="42.81918" lon="-0.09818">
        <ele>1585.83</ele>
        <time>2014-06-20T08:59:04Z</time>
      </trkpt>
      <trkpt lat="42.8189" lon="-0.09816">
        <ele>1588.24</ele>
        <time>2014-06-20T08:59:21Z</time>
      </trkpt>
      <trkpt lat="42.81876" lon="-0.09802">
        <ele>1589.2</ele>
        <time>2014-06-20T08:59:39Z</time>
      </trkpt>
      <trkpt lat="42.81866" lon="-0.0979">
        <ele>1588.72</ele>
        <time>2014-06-20T08:59:56Z</time>
      </trkpt>
      <trkpt lat="42.8186" lon="-0.09785">
        <ele>1591.12</ele>
        <time>2014-06-20T09:00:15Z</time>
      </trkpt>
      <trkpt lat="42.81847" lon="-0.09787">
        <ele>1592.56</ele>
        <time>2014-06-20T09:00:29Z</time>
      </trkpt>
      <trkpt lat="42.81843" lon="-0.09791">
        <ele>1594.48</ele>
        <time>2014-06-20T09:00:43Z</time>
      </trkpt>
      <trkpt lat="42.81824" lon="-0.09797">
        <ele>1594.96</ele>
        <time>2014-06-20T09:00:56Z</time>
      </trkpt>
      <trkpt lat="42.81822" lon="-0.09799">
        <ele>1595.93</ele>
        <time>2014-06-20T09:01:10Z</time>
      </trkpt>
      <trkpt lat="42.8182" lon="-0.09805">
        <ele>1596.41</ele>
        <time>2014-06-20T09:01:25Z</time>
      </trkpt>
      <trkpt lat="42.81807" lon="-0.09814">
        <ele>1597.85</ele>
        <time>2014-06-20T09:01:41Z</time>
      </trkpt>
      <trkpt lat="42.81799" lon="-0.09817">
        <ele>1599.29</ele>
        <time>2014-06-20T09:01:55Z</time>
      </trkpt>
      <trkpt lat="42.81788" lon="-0.09821">
        <ele>1599.77</ele>
        <time>2014-06-20T09:02:10Z</time>
      </trkpt>
      <trkpt lat="42.81779" lon="-0.09822">
        <ele>1601.21</ele>
        <time>2014-06-20T09:02:26Z</time>
      </trkpt>
      <trkpt lat="42.81767" lon="-0.09818">
        <ele>1602.17</ele>
        <time>2014-06-20T09:02:45Z</time>
      </trkpt>
      <trkpt lat="42.81754" lon="-0.09818">
        <ele>1603.62</ele>
        <time>2014-06-20T09:02:59Z</time>
      </trkpt>
      <trkpt lat="42.81732" lon="-0.0982">
        <ele>1604.58</ele>
        <time>2014-06-20T09:03:18Z</time>
      </trkpt>
      <trkpt lat="42.81721" lon="-0.09817">
        <ele>1605.54</ele>
        <time>2014-06-20T09:03:33Z</time>
      </trkpt>
      <trkpt lat="42.81709" lon="-0.09825">
        <ele>1606.5</ele>
        <time>2014-06-20T09:03:50Z</time>
      </trkpt>
      <trkpt lat="42.81685" lon="-0.09846">
        <ele>1608.42</ele>
        <time>2014-06-20T09:04:01Z</time>
      </trkpt>
      <trkpt lat="42.81673" lon="-0.09855">
        <ele>1610.35</ele>
        <time>2014-06-20T09:04:17Z</time>
      </trkpt>
      <trkpt lat="42.81668" lon="-0.09856">
        <ele>1612.27</ele>
        <time>2014-06-20T09:04:36Z</time>
      </trkpt>
      <trkpt lat="42.81662" lon="-0.09857">
        <ele>1613.23</ele>
        <time>2014-06-20T09:04:56Z</time>
      </trkpt>
      <trkpt lat="42.81655" lon="-0.09856">
        <ele>1614.67</ele>
        <time>2014-06-20T09:05:12Z</time>
      </trkpt>
      <trkpt lat="42.8165" lon="-0.09857">
        <ele>1615.63</ele>
        <time>2014-06-20T09:05:32Z</time>
      </trkpt>
      <trkpt lat="42.81639" lon="-0.09866">
        <ele>1618.04</ele>
        <time>2014-06-20T09:05:49Z</time>
      </trkpt>
      <trkpt lat="42.81608" lon="-0.09882">
        <ele>1619.96</ele>
        <time>2014-06-20T09:06:00Z</time>
      </trkpt>
      <trkpt lat="42.81605" lon="-0.09883">
        <ele>1621.88</ele>
        <time>2014-06-20T09:06:17Z</time>
      </trkpt>
      <trkpt lat="42.8159" lon="-0.09881">
        <ele>1623.32</ele>
        <time>2014-06-20T09:06:32Z</time>
      </trkpt>
      <trkpt lat="42.81582" lon="-0.09879">
        <ele>1625.25</ele>
        <time>2014-06-20T09:06:47Z</time>
      </trkpt>
      <trkpt lat="42.81569" lon="-0.09877">
        <ele>1626.69</ele>
        <time>2014-06-20T09:07:01Z</time>
      </trkpt>
      <trkpt lat="42.81556" lon="-0.09873">
        <ele>1627.65</ele>
        <time>2014-06-20T09:07:14Z</time>
      </trkpt>
      <trkpt lat="42.81549" lon="-0.09866">
        <ele>1629.57</ele>
        <time>2014-06-20T09:07:26Z</time>
      </trkpt>
      <trkpt lat="42.81543" lon="-0.09866">
        <ele>1631.01</ele>
        <time>2014-06-20T09:07:39Z</time>
      </trkpt>
      <trkpt lat="42.81535" lon="-0.09862">
        <ele>1631.49</ele>
        <time>2014-06-20T09:07:52Z</time>
      </trkpt>
      <trkpt lat="42.8153" lon="-0.09856">
        <ele>1633.42</ele>
        <time>2014-06-20T09:08:05Z</time>
      </trkpt>
      <trkpt lat="42.81521" lon="-0.09854">
        <ele>1635.34</ele>
        <time>2014-06-20T09:08:19Z</time>
      </trkpt>
      <trkpt lat="42.8152" lon="-0.09854">
        <ele>1637.26</ele>
        <time>2014-06-20T09:08:37Z</time>
      </trkpt>
      <trkpt lat="42.81514" lon="-0.09855">
        <ele>1639.19</ele>
        <time>2014-06-20T09:08:54Z</time>
      </trkpt>
      <trkpt lat="42.8151" lon="-0.09857">
        <ele>1641.59</ele>
        <time>2014-06-20T09:09:10Z</time>
      </trkpt>
      <trkpt lat="42.81512" lon="-0.09858">
        <ele>1643.51</ele>
        <time>2014-06-20T09:09:25Z</time>
      </trkpt>
      <trkpt lat="42.81504" lon="-0.09862">
        <ele>1645.43</ele>
        <time>2014-06-20T09:09:40Z</time>
      </trkpt>
      <trkpt lat="42.81495" lon="-0.09858">
        <ele>1646.4</ele>
        <time>2014-06-20T09:09:55Z</time>
      </trkpt>
      <trkpt lat="42.81487" lon="-0.09852">
        <ele>1647.84</ele>
        <time>2014-06-20T09:10:09Z</time>
      </trkpt>
      <trkpt lat="42.81484" lon="-0.09847">
        <ele>1650.24</ele>
        <time>2014-06-20T09:10:25Z</time>
      </trkpt>
      <trkpt lat="42.81482" lon="-0.09853">
        <ele>1651.68</ele>
        <time>2014-06-20T09:10:39Z</time>
      </trkpt>
      <trkpt lat="42.81481" lon="-0.09857">
        <ele>1653.12</ele>
        <time>2014-06-20T09:10:51Z</time>
      </trkpt>
      <trkpt lat="42.81482" lon="-0.0986">
        <ele>1655.05</ele>
        <time>2014-06-20T09:11:06Z</time>
      </trkpt>
      <trkpt lat="42.81483" lon="-0.09861">
        <ele>1656.97</ele>
        <time>2014-06-20T09:11:25Z</time>
      </trkpt>
      <trkpt lat="42.81471" lon="-0.09865">
        <ele>1658.89</ele>
        <time>2014-06-20T09:11:40Z</time>
      </trkpt>
      <trkpt lat="42.81466" lon="-0.09863">
        <ele>1660.33</ele>
        <time>2014-06-20T09:11:54Z</time>
      </trkpt>
      <trkpt lat="42.81463" lon="-0.09863">
        <ele>1661.78</ele>
        <time>2014-06-20T09:12:07Z</time>
      </trkpt>
      <trkpt lat="42.81462" lon="-0.09864">
        <ele>1663.7</ele>
        <time>2014-06-20T09:12:18Z</time>
      </trkpt>
      <trkpt lat="42.81456" lon="-0.09865">
        <ele>1666.1</ele>
        <time>2014-06-20T09:12:36Z</time>
      </trkpt>
      <trkpt lat="42.81451" lon="-0.0987">
        <ele>1667.54</ele>
        <time>2014-06-20T09:12:50Z</time>
      </trkpt>
      <trkpt lat="42.81445" lon="-0.09876">
        <ele>1670.43</ele>
        <time>2014-06-20T09:13:11Z</time>
      </trkpt>
      <trkpt lat="42.81438" lon="-0.09876">
        <ele>1672.35</ele>
        <time>2014-06-20T09:13:24Z</time>
      </trkpt>
      <trkpt lat="42.81434" lon="-0.09883">
        <ele>1674.75</ele>
        <time>2014-06-20T09:13:45Z</time>
      </trkpt>
      <trkpt lat="42.81427" lon="-0.09884">
        <ele>1675.72</ele>
        <time>2014-06-20T09:13:52Z</time>
      </trkpt>
      <trkpt lat="42.81424" lon="-0.09882">
        <ele>1678.12</ele>
        <time>2014-06-20T09:14:08Z</time>
      </trkpt>
      <trkpt lat="42.81423" lon="-0.09888">
        <ele>1679.56</ele>
        <time>2014-06-20T09:14:23Z</time>
      </trkpt>
      <trkpt lat="42.81416" lon="-0.0989">
        <ele>1682.44</ele>
        <time>2014-06-20T09:14:37Z</time>
      </trkpt>
      <trkpt lat="42.81412" lon="-0.09897">
        <ele>1687.73</ele>
        <time>2014-06-20T09:14:58Z</time>
      </trkpt>
      <trkpt lat="42.81412" lon="-0.09897">
        <ele>1683.41</ele>
        <time>2014-06-20T09:14:59Z</time>
      </trkpt>
      <trkpt lat="42.81412" lon="-0.09897">
        <ele>1680.04</ele>
        <time>2014-06-20T09:15:00Z</time>
      </trkpt>
      <trkpt lat="42.81412" lon="-0.09897">
        <ele>1682.93</ele>
        <time>2014-06-20T09:15:01Z</time>
      </trkpt>
      <trkpt lat="42.81411" lon="-0.09898">
        <ele>1684.37</ele>
        <time>2014-06-20T09:15:13Z</time>
      </trkpt>
      <trkpt lat="42.81403" lon="-0.09899">
        <ele>1686.77</ele>
        <time>2014-06-20T09:15:24Z</time>
      </trkpt>
      <trkpt lat="42.81392" lon="-0.09895">
        <ele>1687.25</ele>
        <time>2014-06-20T09:15:37Z</time>
      </trkpt>
      <trkpt lat="42.81382" lon="-0.0989">
        <ele>1686.77</ele>
        <time>2014-06-20T09:15:54Z</time>
      </trkpt>
      <trkpt lat="42.81371" lon="-0.09885">
        <ele>1687.25</ele>
        <time>2014-06-20T09:16:06Z</time>
      </trkpt>
      <trkpt lat="42.81359" lon="-0.09877">
        <ele>1686.77</ele>
        <time>2014-06-20T09:16:21Z</time>
      </trkpt>
      <trkpt lat="42.81344" lon="-0.09875">
        <ele>1689.17</ele>
        <time>2014-06-20T09:16:36Z</time>
      </trkpt>
      <trkpt lat="42.81342" lon="-0.09872">
        <ele>1688.69</ele>
        <time>2014-06-20T09:16:40Z</time>
      </trkpt>
      <trkpt lat="42.8134" lon="-0.0987">
        <ele>1689.65</ele>
        <time>2014-06-20T09:16:45Z</time>
      </trkpt>
      <trkpt lat="42.81333" lon="-0.09879">
        <ele>1691.58</ele>
        <time>2014-06-20T09:17:01Z</time>
      </trkpt>
      <trkpt lat="42.81323" lon="-0.09878">
        <ele>1692.06</ele>
        <time>2014-06-20T09:17:16Z</time>
      </trkpt>
      <trkpt lat="42.81316" lon="-0.0988">
        <ele>1692.54</ele>
        <time>2014-06-20T09:17:32Z</time>
      </trkpt>
      <trkpt lat="42.81309" lon="-0.09889">
        <ele>1694.46</ele>
        <time>2014-06-20T09:17:49Z</time>
      </trkpt>
      <trkpt lat="42.81307" lon="-0.09898">
        <ele>1695.42</ele>
        <time>2014-06-20T09:18:02Z</time>
      </trkpt>
      <trkpt lat="42.81302" lon="-0.099">
        <ele>1696.38</ele>
        <time>2014-06-20T09:18:17Z</time>
      </trkpt>
      <trkpt lat="42.81294" lon="-0.09904">
        <ele>1697.83</ele>
        <time>2014-06-20T09:18:35Z</time>
      </trkpt>
      <trkpt lat="42.81284" lon="-0.09901">
        <ele>1698.31</ele>
        <time>2014-06-20T09:18:52Z</time>
      </trkpt>
      <trkpt lat="42.81271" lon="-0.09898">
        <ele>1700.23</ele>
        <time>2014-06-20T09:19:07Z</time>
      </trkpt>
      <trkpt lat="42.8126" lon="-0.09904">
        <ele>1702.15</ele>
        <time>2014-06-20T09:19:19Z</time>
      </trkpt>
      <trkpt lat="42.81252" lon="-0.09902">
        <ele>1704.07</ele>
        <time>2014-06-20T09:19:32Z</time>
      </trkpt>
      <trkpt lat="42.81248" lon="-0.09904">
        <ele>1705.52</ele>
        <time>2014-06-20T09:19:47Z</time>
      </trkpt>
      <trkpt lat="42.81237" lon="-0.09907">
        <ele>1706</ele>
        <time>2014-06-20T09:20:03Z</time>
      </trkpt>
      <trkpt lat="42.81231" lon="-0.09904">
        <ele>1707.44</ele>
        <time>2014-06-20T09:20:17Z</time>
      </trkpt>
      <trkpt lat="42.81225" lon="-0.09903">
        <ele>1708.88</ele>
        <time>2014-06-20T09:20:32Z</time>
      </trkpt>
      <trkpt lat="42.81224" lon="-0.09903">
        <ele>1710.8</ele>
        <time>2014-06-20T09:20:47Z</time>
      </trkpt>
      <trkpt lat="42.81221" lon="-0.09906">
        <ele>1712.73</ele>
        <time>2014-06-20T09:21:02Z</time>
      </trkpt>
      <trkpt lat="42.81214" lon="-0.09916">
        <ele>1714.17</ele>
        <time>2014-06-20T09:21:10Z</time>
      </trkpt>
      <trkpt lat="42.81209" lon="-0.09925">
        <ele>1715.61</ele>
        <time>2014-06-20T09:21:25Z</time>
      </trkpt>
      <trkpt lat="42.81208" lon="-0.09929">
        <ele>1717.05</ele>
        <time>2014-06-20T09:21:40Z</time>
      </trkpt>
      <trkpt lat="42.81205" lon="-0.09931">
        <ele>1718.49</ele>
        <time>2014-06-20T09:22:00Z</time>
      </trkpt>
      <trkpt lat="42.81197" lon="-0.09936">
        <ele>1720.42</ele>
        <time>2014-06-20T09:22:17Z</time>
      </trkpt>
      <trkpt lat="42.81187" lon="-0.09944">
        <ele>1721.86</ele>
        <time>2014-06-20T09:22:35Z</time>
      </trkpt>
      <trkpt lat="42.81185" lon="-0.09946">
        <ele>1724.26</ele>
        <time>2014-06-20T09:22:56Z</time>
      </trkpt>
      <trkpt lat="42.81178" lon="-0.09948">
        <ele>1726.18</ele>
        <time>2014-06-20T09:23:13Z</time>
      </trkpt>
      <trkpt lat="42.81164" lon="-0.09953">
        <ele>1728.11</ele>
        <time>2014-06-20T09:23:29Z</time>
      </trkpt>
      <trkpt lat="42.81158" lon="-0.09954">
        <ele>1730.03</ele>
        <time>2014-06-20T09:23:45Z</time>
      </trkpt>
      <trkpt lat="42.81151" lon="-0.09958">
        <ele>1731.47</ele>
        <time>2014-06-20T09:23:57Z</time>
      </trkpt>
      <trkpt lat="42.81137" lon="-0.09963">
        <ele>1733.39</ele>
        <time>2014-06-20T09:24:12Z</time>
      </trkpt>
      <trkpt lat="42.81124" lon="-0.09964">
        <ele>1734.36</ele>
        <time>2014-06-20T09:24:26Z</time>
      </trkpt>
      <trkpt lat="42.81113" lon="-0.09957">
        <ele>1735.8</ele>
        <time>2014-06-20T09:24:43Z</time>
      </trkpt>
      <trkpt lat="42.81104" lon="-0.09953">
        <ele>1737.24</ele>
        <time>2014-06-20T09:24:56Z</time>
      </trkpt>
      <trkpt lat="42.81093" lon="-0.09951">
        <ele>1738.2</ele>
        <time>2014-06-20T09:25:11Z</time>
      </trkpt>
      <trkpt lat="42.81085" lon="-0.0995">
        <ele>1739.16</ele>
        <time>2014-06-20T09:25:22Z</time>
      </trkpt>
      <trkpt lat="42.81074" lon="-0.09953">
        <ele>1739.64</ele>
        <time>2014-06-20T09:25:33Z</time>
      </trkpt>
      <trkpt lat="42.8106" lon="-0.09955">
        <ele>1740.12</ele>
        <time>2014-06-20T09:25:48Z</time>
      </trkpt>
      <trkpt lat="42.81052" lon="-0.09955">
        <ele>1741.08</ele>
        <time>2014-06-20T09:25:57Z</time>
      </trkpt>
      <trkpt lat="42.81038" lon="-0.09956">
        <ele>1742.53</ele>
        <time>2014-06-20T09:26:14Z</time>
      </trkpt>
      <trkpt lat="42.81035" lon="-0.09959">
        <ele>1742.53</ele>
        <time>2014-06-20T09:26:20Z</time>
      </trkpt>
      <trkpt lat="42.81027" lon="-0.09962">
        <ele>1743.49</ele>
        <time>2014-06-20T09:26:38Z</time>
      </trkpt>
      <trkpt lat="42.81015" lon="-0.09962">
        <ele>1744.93</ele>
        <time>2014-06-20T09:26:51Z</time>
      </trkpt>
      <trkpt lat="42.81011" lon="-0.0996">
        <ele>1746.37</ele>
        <time>2014-06-20T09:27:08Z</time>
      </trkpt>
      <trkpt lat="42.81" lon="-0.0996">
        <ele>1747.81</ele>
        <time>2014-06-20T09:27:23Z</time>
      </trkpt>
      <trkpt lat="42.80994" lon="-0.09962">
        <ele>1747.81</ele>
        <time>2014-06-20T09:27:29Z</time>
      </trkpt>
      <trkpt lat="42.80983" lon="-0.09967">
        <ele>1750.22</ele>
        <time>2014-06-20T09:27:44Z</time>
      </trkpt>
      <trkpt lat="42.80978" lon="-0.09971">
        <ele>1750.22</ele>
        <time>2014-06-20T09:27:52Z</time>
      </trkpt>
      <trkpt lat="42.80969" lon="-0.0998">
        <ele>1753.1</ele>
        <time>2014-06-20T09:28:06Z</time>
      </trkpt>
      <trkpt lat="42.80965" lon="-0.09985">
        <ele>1755.5</ele>
        <time>2014-06-20T09:28:15Z</time>
      </trkpt>
      <trkpt lat="42.80961" lon="-0.09991">
        <ele>1756.47</ele>
        <time>2014-06-20T09:28:24Z</time>
      </trkpt>
      <trkpt lat="42.80958" lon="-0.09994">
        <ele>1756.95</ele>
        <time>2014-06-20T09:28:28Z</time>
      </trkpt>
      <trkpt lat="42.8095" lon="-0.09995">
        <ele>1758.39</ele>
        <time>2014-06-20T09:28:42Z</time>
      </trkpt>
      <trkpt lat="42.80945" lon="-0.09997">
        <ele>1759.83</ele>
        <time>2014-06-20T09:28:55Z</time>
      </trkpt>
      <trkpt lat="42.80945" lon="-0.10008">
        <ele>1761.27</ele>
        <time>2014-06-20T09:29:09Z</time>
      </trkpt>
      <trkpt lat="42.8094" lon="-0.10008">
        <ele>1762.71</ele>
        <time>2014-06-20T09:29:23Z</time>
      </trkpt>
      <trkpt lat="42.80937" lon="-0.10004">
        <ele>1764.16</ele>
        <time>2014-06-20T09:29:37Z</time>
      </trkpt>
      <trkpt lat="42.8093" lon="-0.10003">
        <ele>1764.64</ele>
        <time>2014-06-20T09:29:49Z</time>
      </trkpt>
      <trkpt lat="42.80928" lon="-0.10003">
        <ele>1764.16</ele>
        <time>2014-06-20T09:29:53Z</time>
      </trkpt>
      <trkpt lat="42.80915" lon="-0.10003">
        <ele>1765.6</ele>
        <time>2014-06-20T09:30:09Z</time>
      </trkpt>
      <trkpt lat="42.80911" lon="-0.10004">
        <ele>1766.08</ele>
        <time>2014-06-20T09:30:14Z</time>
      </trkpt>
      <trkpt lat="42.80897" lon="-0.10003">
        <ele>1767.52</ele>
        <time>2014-06-20T09:30:31Z</time>
      </trkpt>
      <trkpt lat="42.80889" lon="-0.09993">
        <ele>1768.48</ele>
        <time>2014-06-20T09:30:45Z</time>
      </trkpt>
      <trkpt lat="42.80889" lon="-0.09991">
        <ele>1768.96</ele>
        <time>2014-06-20T09:30:47Z</time>
      </trkpt>
      <trkpt lat="42.80886" lon="-0.09985">
        <ele>1768.96</ele>
        <time>2014-06-20T09:30:51Z</time>
      </trkpt>
      <trkpt lat="42.80879" lon="-0.09979">
        <ele>1768.96</ele>
        <time>2014-06-20T09:30:56Z</time>
      </trkpt>
      <trkpt lat="42.80867" lon="-0.09971">
        <ele>1768.48</ele>
        <time>2014-06-20T09:31:11Z</time>
      </trkpt>
      <trkpt lat="42.80867" lon="-0.09971">
        <ele>1768.48</ele>
        <time>2014-06-20T09:31:12Z</time>
      </trkpt>
      <trkpt lat="42.80856" lon="-0.09965">
        <ele>1769.92</ele>
        <time>2014-06-20T09:31:25Z</time>
      </trkpt>
      <trkpt lat="42.80847" lon="-0.0996">
        <ele>1770.41</ele>
        <time>2014-06-20T09:31:38Z</time>
      </trkpt>
      <trkpt lat="42.8084" lon="-0.09961">
        <ele>1772.81</ele>
        <time>2014-06-20T09:31:52Z</time>
      </trkpt>
      <trkpt lat="42.80832" lon="-0.09963">
        <ele>1774.25</ele>
        <time>2014-06-20T09:32:04Z</time>
      </trkpt>
      <trkpt lat="42.80823" lon="-0.09961">
        <ele>1776.17</ele>
        <time>2014-06-20T09:32:20Z</time>
      </trkpt>
      <trkpt lat="42.8082" lon="-0.0996">
        <ele>1777.13</ele>
        <time>2014-06-20T09:32:24Z</time>
      </trkpt>
      <trkpt lat="42.80812" lon="-0.09955">
        <ele>1779.06</ele>
        <time>2014-06-20T09:32:37Z</time>
      </trkpt>
      <trkpt lat="42.80809" lon="-0.09954">
        <ele>1779.54</ele>
        <time>2014-06-20T09:32:43Z</time>
      </trkpt>
      <trkpt lat="42.80806" lon="-0.09952">
        <ele>1780.02</ele>
        <time>2014-06-20T09:32:53Z</time>
      </trkpt>
      <trkpt lat="42.80806" lon="-0.09946">
        <ele>1781.94</ele>
        <time>2014-06-20T09:33:03Z</time>
      </trkpt>
      <trkpt lat="42.80802" lon="-0.09942">
        <ele>1782.42</ele>
        <time>2014-06-20T09:33:16Z</time>
      </trkpt>
      <trkpt lat="42.80797" lon="-0.09947">
        <ele>1783.86</ele>
        <time>2014-06-20T09:33:30Z</time>
      </trkpt>
      <trkpt lat="42.80796" lon="-0.09941">
        <ele>1783.38</ele>
        <time>2014-06-20T09:33:48Z</time>
      </trkpt>
      <trkpt lat="42.80789" lon="-0.09941">
        <ele>1784.82</ele>
        <time>2014-06-20T09:34:00Z</time>
      </trkpt>
      <trkpt lat="42.8078" lon="-0.09945">
        <ele>1785.79</ele>
        <time>2014-06-20T09:34:15Z</time>
      </trkpt>
      <trkpt lat="42.80779" lon="-0.09952">
        <ele>1788.19</ele>
        <time>2014-06-20T09:34:33Z</time>
      </trkpt>
      <trkpt lat="42.8078" lon="-0.09949">
        <ele>1788.19</ele>
        <time>2014-06-20T09:34:54Z</time>
      </trkpt>
      <trkpt lat="42.80777" lon="-0.09935">
        <ele>1786.75</ele>
        <time>2014-06-20T09:35:10Z</time>
      </trkpt>
      <trkpt lat="42.80767" lon="-0.09937">
        <ele>1786.75</ele>
        <time>2014-06-20T09:35:25Z</time>
      </trkpt>
      <trkpt lat="42.80758" lon="-0.09932">
        <ele>1787.23</ele>
        <time>2014-06-20T09:35:42Z</time>
      </trkpt>
      <trkpt lat="42.80758" lon="-0.09932">
        <ele>1787.71</ele>
        <time>2014-06-20T09:36:04Z</time>
      </trkpt>
      <trkpt lat="42.80758" lon="-0.09932">
        <ele>1787.71</ele>
        <time>2014-06-20T09:36:26Z</time>
      </trkpt>
      <trkpt lat="42.80758" lon="-0.09934">
        <ele>1788.19</ele>
        <time>2014-06-20T09:36:43Z</time>
      </trkpt>
      <trkpt lat="42.80751" lon="-0.0994">
        <ele>1788.67</ele>
        <time>2014-06-20T09:37:04Z</time>
      </trkpt>
      <trkpt lat="42.80754" lon="-0.0994">
        <ele>1788.19</ele>
        <time>2014-06-20T09:37:30Z</time>
      </trkpt>
      <trkpt lat="42.80754" lon="-0.09939">
        <ele>1789.15</ele>
        <time>2014-06-20T09:37:52Z</time>
      </trkpt>
      <trkpt lat="42.80754" lon="-0.09939">
        <ele>1789.15</ele>
        <time>2014-06-20T09:38:18Z</time>
      </trkpt>
      <trkpt lat="42.80755" lon="-0.09938">
        <ele>1788.67</ele>
        <time>2014-06-20T09:38:46Z</time>
      </trkpt>
      <trkpt lat="42.80755" lon="-0.09938">
        <ele>1789.15</ele>
        <time>2014-06-20T09:39:08Z</time>
      </trkpt>
      <trkpt lat="42.80755" lon="-0.09937">
        <ele>1789.63</ele>
        <time>2014-06-20T09:39:34Z</time>
      </trkpt>
      <trkpt lat="42.80754" lon="-0.09938">
        <ele>1790.11</ele>
        <time>2014-06-20T09:39:58Z</time>
      </trkpt>
      <trkpt lat="42.80758" lon="-0.09937">
        <ele>1790.59</ele>
        <time>2014-06-20T09:40:15Z</time>
      </trkpt>
      <trkpt lat="42.80765" lon="-0.09931">
        <ele>1790.59</ele>
        <time>2014-06-20T09:40:30Z</time>
      </trkpt>
      <trkpt lat="42.80766" lon="-0.09926">
        <ele>1791.07</ele>
        <time>2014-06-20T09:40:38Z</time>
      </trkpt>
      <trkpt lat="42.80769" lon="-0.09914">
        <ele>1792.03</ele>
        <time>2014-06-20T09:40:50Z</time>
      </trkpt>
      <trkpt lat="42.80777" lon="-0.09911">
        <ele>1792.03</ele>
        <time>2014-06-20T09:41:03Z</time>
      </trkpt>
      <trkpt lat="42.80781" lon="-0.09902">
        <ele>1792.52</ele>
        <time>2014-06-20T09:41:18Z</time>
      </trkpt>
      <trkpt lat="42.80786" lon="-0.09894">
        <ele>1792.03</ele>
        <time>2014-06-20T09:41:34Z</time>
      </trkpt>
      <trkpt lat="42.80788" lon="-0.09881">
        <ele>1790.59</ele>
        <time>2014-06-20T09:41:48Z</time>
      </trkpt>
      <trkpt lat="42.80781" lon="-0.09878">
        <ele>1791.07</ele>
        <time>2014-06-20T09:42:04Z</time>
      </trkpt>
      <trkpt lat="42.80778" lon="-0.0988">
        <ele>1790.59</ele>
        <time>2014-06-20T09:42:26Z</time>
      </trkpt>
      <trkpt lat="42.80778" lon="-0.0988">
        <ele>1790.59</ele>
        <time>2014-06-20T09:42:40Z</time>
      </trkpt>
      <trkpt lat="42.80777" lon="-0.09878">
        <ele>1791.55</ele>
        <time>2014-06-20T09:43:01Z</time>
      </trkpt>
      <trkpt lat="42.80777" lon="-0.09878">
        <ele>1791.07</ele>
        <time>2014-06-20T09:43:15Z</time>
      </trkpt>
      <trkpt lat="42.80777" lon="-0.09878">
        <ele>1791.55</ele>
        <time>2014-06-20T09:43:36Z</time>
      </trkpt>
      <trkpt lat="42.80777" lon="-0.0988">
        <ele>1791.55</ele>
        <time>2014-06-20T09:44:00Z</time>
      </trkpt>
      <trkpt lat="42.80774" lon="-0.0988">
        <ele>1791.55</ele>
        <time>2014-06-20T09:44:18Z</time>
      </trkpt>
      <trkpt lat="42.80774" lon="-0.0988">
        <ele>1791.55</ele>
        <time>2014-06-20T09:44:38Z</time>
      </trkpt>
      <trkpt lat="42.80772" lon="-0.0988">
        <ele>1791.55</ele>
        <time>2014-06-20T09:44:56Z</time>
      </trkpt>
      <trkpt lat="42.80771" lon="-0.09879">
        <ele>1792.03</ele>
        <time>2014-06-20T09:45:15Z</time>
      </trkpt>
      <trkpt lat="42.80771" lon="-0.09879">
        <ele>1792.52</ele>
        <time>2014-06-20T09:45:38Z</time>
      </trkpt>
      <trkpt lat="42.80771" lon="-0.09879">
        <ele>1792.52</ele>
        <time>2014-06-20T09:46:01Z</time>
      </trkpt>
      <trkpt lat="42.80771" lon="-0.09877">
        <ele>1793</ele>
        <time>2014-06-20T09:46:29Z</time>
      </trkpt>
      <trkpt lat="42.80771" lon="-0.09877">
        <ele>1793</ele>
        <time>2014-06-20T09:46:54Z</time>
      </trkpt>
      <trkpt lat="42.80772" lon="-0.09878">
        <ele>1793.96</ele>
        <time>2014-06-20T09:47:18Z</time>
      </trkpt>
      <trkpt lat="42.80771" lon="-0.09878">
        <ele>1793.48</ele>
        <time>2014-06-20T09:47:38Z</time>
      </trkpt>
      <trkpt lat="42.80772" lon="-0.09878">
        <ele>1793.96</ele>
        <time>2014-06-20T09:47:57Z</time>
      </trkpt>
      <trkpt lat="42.80772" lon="-0.09878">
        <ele>1793.96</ele>
        <time>2014-06-20T09:48:19Z</time>
      </trkpt>
      <trkpt lat="42.80772" lon="-0.09877">
        <ele>1793.96</ele>
        <time>2014-06-20T09:48:40Z</time>
      </trkpt>
      <trkpt lat="42.80772" lon="-0.09877">
        <ele>1794.44</ele>
        <time>2014-06-20T09:49:01Z</time>
      </trkpt>
      <trkpt lat="42.80772" lon="-0.09878">
        <ele>1794.44</ele>
        <time>2014-06-20T09:49:30Z</time>
      </trkpt>
      <trkpt lat="42.80772" lon="-0.09878">
        <ele>1794.44</ele>
        <time>2014-06-20T09:49:51Z</time>
      </trkpt>
      <trkpt lat="42.80772" lon="-0.09878">
        <ele>1794.44</ele>
        <time>2014-06-20T09:50:15Z</time>
      </trkpt>
      <trkpt lat="42.80771" lon="-0.09873">
        <ele>1794.92</ele>
        <time>2014-06-20T09:50:36Z</time>
      </trkpt>
      <trkpt lat="42.80768" lon="-0.09868">
        <ele>1794.92</ele>
        <time>2014-06-20T09:50:59Z</time>
      </trkpt>
      <trkpt lat="42.80768" lon="-0.09868">
        <ele>1794.92</ele>
        <time>2014-06-20T09:51:20Z</time>
      </trkpt>
      <trkpt lat="42.80769" lon="-0.0987">
        <ele>1795.4</ele>
        <time>2014-06-20T09:51:35Z</time>
      </trkpt>
      <trkpt lat="42.80769" lon="-0.0987">
        <ele>1795.88</ele>
        <time>2014-06-20T09:51:49Z</time>
      </trkpt>
      <trkpt lat="42.80768" lon="-0.09869">
        <ele>1795.88</ele>
        <time>2014-06-20T09:52:10Z</time>
      </trkpt>
      <trkpt lat="42.80768" lon="-0.09869">
        <ele>1795.4</ele>
        <time>2014-06-20T09:52:31Z</time>
      </trkpt>
      <trkpt lat="42.80768" lon="-0.0987">
        <ele>1795.4</ele>
        <time>2014-06-20T09:52:44Z</time>
      </trkpt>
      <trkpt lat="42.80768" lon="-0.0987">
        <ele>1795.4</ele>
        <time>2014-06-20T09:53:01Z</time>
      </trkpt>
      <trkpt lat="42.80768" lon="-0.0987">
        <ele>1796.84</ele>
        <time>2014-06-20T09:53:15Z</time>
      </trkpt>
      <trkpt lat="42.80768" lon="-0.0987">
        <ele>1796.84</ele>
        <time>2014-06-20T09:53:30Z</time>
      </trkpt>
      <trkpt lat="42.80768" lon="-0.0987">
        <ele>1796.36</ele>
        <time>2014-06-20T09:53:52Z</time>
      </trkpt>
      <trkpt lat="42.80767" lon="-0.0987">
        <ele>1796.84</ele>
        <time>2014-06-20T09:54:17Z</time>
      </trkpt>
      <trkpt lat="42.80767" lon="-0.0987">
        <ele>1796.84</ele>
        <time>2014-06-20T09:54:41Z</time>
      </trkpt>
      <trkpt lat="42.80766" lon="-0.09871">
        <ele>1796.84</ele>
        <time>2014-06-20T09:55:03Z</time>
      </trkpt>
      <trkpt lat="42.80768" lon="-0.09873">
        <ele>1797.32</ele>
        <time>2014-06-20T09:55:28Z</time>
      </trkpt>
      <trkpt lat="42.80768" lon="-0.09873">
        <ele>1796.36</ele>
        <time>2014-06-20T09:55:53Z</time>
      </trkpt>
      <trkpt lat="42.80767" lon="-0.09874">
        <ele>1797.32</ele>
        <time>2014-06-20T09:56:18Z</time>
      </trkpt>
      <trkpt lat="42.80767" lon="-0.09874">
        <ele>1796.84</ele>
        <time>2014-06-20T09:56:21Z</time>
      </trkpt>
      <trkpt lat="42.80766" lon="-0.09874">
        <ele>1796.36</ele>
        <time>2014-06-20T09:56:23Z</time>
      </trkpt>
      <trkpt lat="42.80755" lon="-0.09872">
        <ele>1796.84</ele>
        <time>2014-06-20T09:56:44Z</time>
      </trkpt>
      <trkpt lat="42.80755" lon="-0.09872">
        <ele>1797.32</ele>
        <time>2014-06-20T09:57:11Z</time>
      </trkpt>
      <trkpt lat="42.80759" lon="-0.09873">
        <ele>1797.32</ele>
        <time>2014-06-20T09:57:35Z</time>
      </trkpt>
      <trkpt lat="42.80763" lon="-0.09875">
        <ele>1796.84</ele>
        <time>2014-06-20T09:57:56Z</time>
      </trkpt>
      <trkpt lat="42.80763" lon="-0.09875">
        <ele>1797.32</ele>
        <time>2014-06-20T09:58:21Z</time>
      </trkpt>
      <trkpt lat="42.80761" lon="-0.09873">
        <ele>1797.8</ele>
        <time>2014-06-20T09:58:39Z</time>
      </trkpt>
      <trkpt lat="42.80761" lon="-0.09873">
        <ele>1797.8</ele>
        <time>2014-06-20T09:58:50Z</time>
      </trkpt>
      <trkpt lat="42.80761" lon="-0.09873">
        <ele>1797.8</ele>
        <time>2014-06-20T09:59:04Z</time>
      </trkpt>
      <trkpt lat="42.80762" lon="-0.09874">
        <ele>1798.28</ele>
        <time>2014-06-20T09:59:29Z</time>
      </trkpt>
      <trkpt lat="42.80762" lon="-0.09874">
        <ele>1798.28</ele>
        <time>2014-06-20T09:59:56Z</time>
      </trkpt>
      <trkpt lat="42.80764" lon="-0.09875">
        <ele>1798.28</ele>
        <time>2014-06-20T10:00:18Z</time>
      </trkpt>
      <trkpt lat="42.8077" lon="-0.09877">
        <ele>1798.76</ele>
        <time>2014-06-20T10:00:31Z</time>
      </trkpt>
      <trkpt lat="42.8077" lon="-0.09877">
        <ele>1798.76</ele>
        <time>2014-06-20T10:00:52Z</time>
      </trkpt>
      <trkpt lat="42.80769" lon="-0.09878">
        <ele>1798.76</ele>
        <time>2014-06-20T10:01:15Z</time>
      </trkpt>
      <trkpt lat="42.80769" lon="-0.09878">
        <ele>1798.76</ele>
        <time>2014-06-20T10:01:29Z</time>
      </trkpt>
      <trkpt lat="42.80782" lon="-0.09878">
        <ele>1799.24</ele>
        <time>2014-06-20T10:01:41Z</time>
      </trkpt>
      <trkpt lat="42.80782" lon="-0.09878">
        <ele>1797.8</ele>
        <time>2014-06-20T10:01:44Z</time>
      </trkpt>
      <trkpt lat="42.80788" lon="-0.09874">
        <ele>1798.28</ele>
        <time>2014-06-20T10:01:57Z</time>
      </trkpt>
      <trkpt lat="42.80788" lon="-0.09874">
        <ele>1798.28</ele>
        <time>2014-06-20T10:02:15Z</time>
      </trkpt>
      <trkpt lat="42.80791" lon="-0.09876">
        <ele>1798.76</ele>
        <time>2014-06-20T10:02:33Z</time>
      </trkpt>
      <trkpt lat="42.8079" lon="-0.09877">
        <ele>1799.24</ele>
        <time>2014-06-20T10:02:54Z</time>
      </trkpt>
      <trkpt lat="42.8078" lon="-0.09871">
        <ele>1798.76</ele>
        <time>2014-06-20T10:03:08Z</time>
      </trkpt>
      <trkpt lat="42.80776" lon="-0.09874">
        <ele>1799.24</ele>
        <time>2014-06-20T10:03:21Z</time>
      </trkpt>
      <trkpt lat="42.80776" lon="-0.09874">
        <ele>1799.24</ele>
        <time>2014-06-20T10:03:40Z</time>
      </trkpt>
      <trkpt lat="42.80773" lon="-0.09874">
        <ele>1798.76</ele>
        <time>2014-06-20T10:03:54Z</time>
      </trkpt>
      <trkpt lat="42.80773" lon="-0.09874">
        <ele>1799.24</ele>
        <time>2014-06-20T10:04:10Z</time>
      </trkpt>
      <trkpt lat="42.80773" lon="-0.09874">
        <ele>1799.73</ele>
        <time>2014-06-20T10:04:21Z</time>
      </trkpt>
      <trkpt lat="42.80772" lon="-0.09875">
        <ele>1799.24</ele>
        <time>2014-06-20T10:04:34Z</time>
      </trkpt>
      <trkpt lat="42.80772" lon="-0.09875">
        <ele>1799.24</ele>
        <time>2014-06-20T10:04:56Z</time>
      </trkpt>
      <trkpt lat="42.80772" lon="-0.09875">
        <ele>1799.24</ele>
        <time>2014-06-20T10:05:17Z</time>
      </trkpt>
      <trkpt lat="42.80772" lon="-0.09875">
        <ele>1799.73</ele>
        <time>2014-06-20T10:05:47Z</time>
      </trkpt>
      <trkpt lat="42.80772" lon="-0.09876">
        <ele>1799.73</ele>
        <time>2014-06-20T10:06:15Z</time>
      </trkpt>
      <trkpt lat="42.80772" lon="-0.09876">
        <ele>1800.21</ele>
        <time>2014-06-20T10:06:39Z</time>
      </trkpt>
      <trkpt lat="42.80772" lon="-0.09876">
        <ele>1800.21</ele>
        <time>2014-06-20T10:07:05Z</time>
      </trkpt>
      <trkpt lat="42.80772" lon="-0.09875">
        <ele>1800.69</ele>
        <time>2014-06-20T10:07:25Z</time>
      </trkpt>
      <trkpt lat="42.80772" lon="-0.09875">
        <ele>1800.21</ele>
        <time>2014-06-20T10:07:47Z</time>
      </trkpt>
      <trkpt lat="42.80772" lon="-0.09876">
        <ele>1800.21</ele>
        <time>2014-06-20T10:08:07Z</time>
      </trkpt>
      <trkpt lat="42.80772" lon="-0.09876">
        <ele>1800.21</ele>
        <time>2014-06-20T10:08:26Z</time>
      </trkpt>
      <trkpt lat="42.80772" lon="-0.09876">
        <ele>1800.21</ele>
        <time>2014-06-20T10:08:45Z</time>
      </trkpt>
      <trkpt lat="42.80772" lon="-0.09876">
        <ele>1799.73</ele>
        <time>2014-06-20T10:08:59Z</time>
      </trkpt>
      <trkpt lat="42.80772" lon="-0.09877">
        <ele>1800.69</ele>
        <time>2014-06-20T10:09:19Z</time>
      </trkpt>
      <trkpt lat="42.80772" lon="-0.09877">
        <ele>1800.21</ele>
        <time>2014-06-20T10:09:30Z</time>
      </trkpt>
      <trkpt lat="42.80772" lon="-0.09877">
        <ele>1799.73</ele>
        <time>2014-06-20T10:09:49Z</time>
      </trkpt>
      <trkpt lat="42.80773" lon="-0.09877">
        <ele>1799.73</ele>
        <time>2014-06-20T10:10:05Z</time>
      </trkpt>
      <trkpt lat="42.80773" lon="-0.09877">
        <ele>1800.21</ele>
        <time>2014-06-20T10:10:39Z</time>
      </trkpt>
      <trkpt lat="42.80773" lon="-0.09877">
        <ele>1800.21</ele>
        <time>2014-06-20T10:10:57Z</time>
      </trkpt>
      <trkpt lat="42.80773" lon="-0.09876">
        <ele>1800.21</ele>
        <time>2014-06-20T10:11:19Z</time>
      </trkpt>
      <trkpt lat="42.80773" lon="-0.09876">
        <ele>1800.69</ele>
        <time>2014-06-20T10:11:45Z</time>
      </trkpt>
      <trkpt lat="42.80773" lon="-0.09876">
        <ele>1800.69</ele>
        <time>2014-06-20T10:12:03Z</time>
      </trkpt>
      <trkpt lat="42.80773" lon="-0.09876">
        <ele>1800.21</ele>
        <time>2014-06-20T10:12:29Z</time>
      </trkpt>
      <trkpt lat="42.80773" lon="-0.09877">
        <ele>1800.69</ele>
        <time>2014-06-20T10:12:55Z</time>
      </trkpt>
      <trkpt lat="42.80773" lon="-0.09877">
        <ele>1800.69</ele>
        <time>2014-06-20T10:13:21Z</time>
      </trkpt>
      <trkpt lat="42.80773" lon="-0.09877">
        <ele>1801.17</ele>
        <time>2014-06-20T10:13:35Z</time>
      </trkpt>
      <trkpt lat="42.80773" lon="-0.09877">
        <ele>1800.69</ele>
        <time>2014-06-20T10:13:53Z</time>
      </trkpt>
      <trkpt lat="42.80774" lon="-0.09879">
        <ele>1801.17</ele>
        <time>2014-06-20T10:14:08Z</time>
      </trkpt>
      <trkpt lat="42.80773" lon="-0.09879">
        <ele>1801.17</ele>
        <time>2014-06-20T10:14:17Z</time>
      </trkpt>
      <trkpt lat="42.80773" lon="-0.09883">
        <ele>1800.69</ele>
        <time>2014-06-20T10:14:30Z</time>
      </trkpt>
      <trkpt lat="42.80773" lon="-0.09883">
        <ele>1801.17</ele>
        <time>2014-06-20T10:14:40Z</time>
      </trkpt>
      <trkpt lat="42.80772" lon="-0.09881">
        <ele>1801.17</ele>
        <time>2014-06-20T10:14:44Z</time>
      </trkpt>
      <trkpt lat="42.80772" lon="-0.0988">
        <ele>1800.69</ele>
        <time>2014-06-20T10:14:57Z</time>
      </trkpt>
      <trkpt lat="42.80772" lon="-0.0988">
        <ele>1800.69</ele>
        <time>2014-06-20T10:15:16Z</time>
      </trkpt>
      <trkpt lat="42.80772" lon="-0.0988">
        <ele>1800.69</ele>
        <time>2014-06-20T10:15:33Z</time>
      </trkpt>
      <trkpt lat="42.80772" lon="-0.0988">
        <ele>1800.69</ele>
        <time>2014-06-20T10:15:54Z</time>
      </trkpt>
      <trkpt lat="42.80772" lon="-0.0988">
        <ele>1801.17</ele>
        <time>2014-06-20T10:15:57Z</time>
      </trkpt>
      <trkpt lat="42.80773" lon="-0.09881">
        <ele>1801.17</ele>
        <time>2014-06-20T10:16:06Z</time>
      </trkpt>
      <trkpt lat="42.80775" lon="-0.09883">
        <ele>1801.17</ele>
        <time>2014-06-20T10:16:18Z</time>
      </trkpt>
      <trkpt lat="42.80775" lon="-0.09883">
        <ele>1800.69</ele>
        <time>2014-06-20T10:16:32Z</time>
      </trkpt>
      <trkpt lat="42.80776" lon="-0.09883">
        <ele>1800.69</ele>
        <time>2014-06-20T10:16:57Z</time>
      </trkpt>
      <trkpt lat="42.80776" lon="-0.09883">
        <ele>1801.17</ele>
        <time>2014-06-20T10:17:21Z</time>
      </trkpt>
      <trkpt lat="42.80775" lon="-0.09883">
        <ele>1801.65</ele>
        <time>2014-06-20T10:17:48Z</time>
      </trkpt>
      <trkpt lat="42.80775" lon="-0.09883">
        <ele>1801.65</ele>
        <time>2014-06-20T10:18:15Z</time>
      </trkpt>
      <trkpt lat="42.80771" lon="-0.09881">
        <ele>1801.65</ele>
        <time>2014-06-20T10:18:21Z</time>
      </trkpt>
      <trkpt lat="42.80765" lon="-0.09862">
        <ele>1801.17</ele>
        <time>2014-06-20T10:18:38Z</time>
      </trkpt>
      <trkpt lat="42.80765" lon="-0.09863">
        <ele>1801.17</ele>
        <time>2014-06-20T10:19:03Z</time>
      </trkpt>
      <trkpt lat="42.80765" lon="-0.09864">
        <ele>1801.65</ele>
        <time>2014-06-20T10:19:25Z</time>
      </trkpt>
      <trkpt lat="42.80765" lon="-0.09864">
        <ele>1800.69</ele>
        <time>2014-06-20T10:19:40Z</time>
      </trkpt>
      <trkpt lat="42.80766" lon="-0.09865">
        <ele>1801.65</ele>
        <time>2014-06-20T10:19:56Z</time>
      </trkpt>
      <trkpt lat="42.80766" lon="-0.09865">
        <ele>1801.17</ele>
        <time>2014-06-20T10:20:17Z</time>
      </trkpt>
      <trkpt lat="42.80766" lon="-0.09866">
        <ele>1801.17</ele>
        <time>2014-06-20T10:20:38Z</time>
      </trkpt>
      <trkpt lat="42.80766" lon="-0.09866">
        <ele>1801.17</ele>
        <time>2014-06-20T10:21:00Z</time>
      </trkpt>
      <trkpt lat="42.80767" lon="-0.09865">
        <ele>1801.65</ele>
        <time>2014-06-20T10:21:23Z</time>
      </trkpt>
      <trkpt lat="42.80767" lon="-0.09865">
        <ele>1801.17</ele>
        <time>2014-06-20T10:21:43Z</time>
      </trkpt>
      <trkpt lat="42.80768" lon="-0.09866">
        <ele>1801.65</ele>
        <time>2014-06-20T10:22:03Z</time>
      </trkpt>
      <trkpt lat="42.80768" lon="-0.09866">
        <ele>1801.17</ele>
        <time>2014-06-20T10:22:21Z</time>
      </trkpt>
      <trkpt lat="42.80768" lon="-0.09868">
        <ele>1801.65</ele>
        <time>2014-06-20T10:22:48Z</time>
      </trkpt>
      <trkpt lat="42.80768" lon="-0.09868">
        <ele>1801.65</ele>
        <time>2014-06-20T10:23:12Z</time>
      </trkpt>
      <trkpt lat="42.80768" lon="-0.09868">
        <ele>1802.13</ele>
        <time>2014-06-20T10:23:38Z</time>
      </trkpt>
      <trkpt lat="42.80768" lon="-0.09869">
        <ele>1802.13</ele>
        <time>2014-06-20T10:24:03Z</time>
      </trkpt>
      <trkpt lat="42.80768" lon="-0.09869">
        <ele>1802.13</ele>
        <time>2014-06-20T10:24:29Z</time>
      </trkpt>
      <trkpt lat="42.80768" lon="-0.09869">
        <ele>1802.13</ele>
        <time>2014-06-20T10:24:58Z</time>
      </trkpt>
      <trkpt lat="42.80768" lon="-0.0987">
        <ele>1802.61</ele>
        <time>2014-06-20T10:25:31Z</time>
      </trkpt>
      <trkpt lat="42.80769" lon="-0.09873">
        <ele>1802.61</ele>
        <time>2014-06-20T10:26:01Z</time>
      </trkpt>
      <trkpt lat="42.80769" lon="-0.09874">
        <ele>1803.09</ele>
        <time>2014-06-20T10:26:32Z</time>
      </trkpt>
      <trkpt lat="42.80769" lon="-0.09875">
        <ele>1802.61</ele>
        <time>2014-06-20T10:26:56Z</time>
      </trkpt>
      <trkpt lat="42.80769" lon="-0.09875">
        <ele>1803.09</ele>
        <time>2014-06-20T10:27:19Z</time>
      </trkpt>
      <trkpt lat="42.80769" lon="-0.09875">
        <ele>1803.09</ele>
        <time>2014-06-20T10:27:47Z</time>
      </trkpt>
      <trkpt lat="42.80769" lon="-0.09875">
        <ele>1802.61</ele>
        <time>2014-06-20T10:28:12Z</time>
      </trkpt>
      <trkpt lat="42.80769" lon="-0.09875">
        <ele>1803.09</ele>
        <time>2014-06-20T10:28:43Z</time>
      </trkpt>
      <trkpt lat="42.80769" lon="-0.09875">
        <ele>1803.09</ele>
        <time>2014-06-20T10:29:11Z</time>
      </trkpt>
      <trkpt lat="42.8077" lon="-0.09876">
        <ele>1803.09</ele>
        <time>2014-06-20T10:29:43Z</time>
      </trkpt>
      <trkpt lat="42.8077" lon="-0.09876">
        <ele>1803.09</ele>
        <time>2014-06-20T10:30:09Z</time>
      </trkpt>
      <trkpt lat="42.8077" lon="-0.09876">
        <ele>1806.45</ele>
        <time>2014-06-20T10:30:32Z</time>
      </trkpt>
      <trkpt lat="42.8077" lon="-0.09876">
        <ele>1797.32</ele>
        <time>2014-06-20T10:30:34Z</time>
      </trkpt>
      <trkpt lat="42.8077" lon="-0.09876">
        <ele>1804.05</ele>
        <time>2014-06-20T10:30:35Z</time>
      </trkpt>
      <trkpt lat="42.80773" lon="-0.09881">
        <ele>1803.09</ele>
        <time>2014-06-20T10:30:58Z</time>
      </trkpt>
      <trkpt lat="42.80773" lon="-0.09881">
        <ele>1803.09</ele>
        <time>2014-06-20T10:31:13Z</time>
      </trkpt>
      <trkpt lat="42.80775" lon="-0.09878">
        <ele>1803.57</ele>
        <time>2014-06-20T10:31:31Z</time>
      </trkpt>
      <trkpt lat="42.80775" lon="-0.09878">
        <ele>1803.57</ele>
        <time>2014-06-20T10:32:00Z</time>
      </trkpt>
      <trkpt lat="42.80776" lon="-0.09879">
        <ele>1803.57</ele>
        <time>2014-06-20T10:32:30Z</time>
      </trkpt>
      <trkpt lat="42.80776" lon="-0.09879">
        <ele>1803.57</ele>
        <time>2014-06-20T10:33:02Z</time>
      </trkpt>
      <trkpt lat="42.80776" lon="-0.09879">
        <ele>1803.57</ele>
        <time>2014-06-20T10:33:27Z</time>
      </trkpt>
      <trkpt lat="42.80778" lon="-0.09879">
        <ele>1803.57</ele>
        <time>2014-06-20T10:33:50Z</time>
      </trkpt>
      <trkpt lat="42.8078" lon="-0.09879">
        <ele>1804.05</ele>
        <time>2014-06-20T10:34:10Z</time>
      </trkpt>
      <trkpt lat="42.8078" lon="-0.09879">
        <ele>1803.57</ele>
        <time>2014-06-20T10:34:38Z</time>
      </trkpt>
      <trkpt lat="42.80779" lon="-0.09879">
        <ele>1804.05</ele>
        <time>2014-06-20T10:35:09Z</time>
      </trkpt>
      <trkpt lat="42.80777" lon="-0.09879">
        <ele>1803.57</ele>
        <time>2014-06-20T10:35:42Z</time>
      </trkpt>
      <trkpt lat="42.80778" lon="-0.09879">
        <ele>1803.57</ele>
        <time>2014-06-20T10:36:11Z</time>
      </trkpt>
      <trkpt lat="42.80778" lon="-0.09879">
        <ele>1804.53</ele>
        <time>2014-06-20T10:36:37Z</time>
      </trkpt>
      <trkpt lat="42.80778" lon="-0.09879">
        <ele>1804.53</ele>
        <time>2014-06-20T10:37:06Z</time>
      </trkpt>
      <trkpt lat="42.80777" lon="-0.09879">
        <ele>1804.05</ele>
        <time>2014-06-20T10:37:38Z</time>
      </trkpt>
      <trkpt lat="42.80774" lon="-0.09879">
        <ele>1804.53</ele>
        <time>2014-06-20T10:38:03Z</time>
      </trkpt>
      <trkpt lat="42.80776" lon="-0.09877">
        <ele>1804.05</ele>
        <time>2014-06-20T10:38:07Z</time>
      </trkpt>
      <trkpt lat="42.80782" lon="-0.09881">
        <ele>1805.01</ele>
        <time>2014-06-20T10:38:15Z</time>
      </trkpt>
      <trkpt lat="42.80785" lon="-0.0988">
        <ele>1803.57</ele>
        <time>2014-06-20T10:38:18Z</time>
      </trkpt>
      <trkpt lat="42.80795" lon="-0.09876">
        <ele>1803.57</ele>
        <time>2014-06-20T10:38:32Z</time>
      </trkpt>
      <trkpt lat="42.80796" lon="-0.09875">
        <ele>1803.57</ele>
        <time>2014-06-20T10:38:54Z</time>
      </trkpt>
      <trkpt lat="42.80796" lon="-0.09874">
        <ele>1803.09</ele>
        <time>2014-06-20T10:39:15Z</time>
      </trkpt>
      <trkpt lat="42.80796" lon="-0.09874">
        <ele>1804.05</ele>
        <time>2014-06-20T10:39:46Z</time>
      </trkpt>
      <trkpt lat="42.80796" lon="-0.09874">
        <ele>1803.57</ele>
        <time>2014-06-20T10:40:10Z</time>
      </trkpt>
      <trkpt lat="42.80796" lon="-0.09874">
        <ele>1803.57</ele>
        <time>2014-06-20T10:40:37Z</time>
      </trkpt>
      <trkpt lat="42.80796" lon="-0.09874">
        <ele>1803.57</ele>
        <time>2014-06-20T10:41:01Z</time>
      </trkpt>
      <trkpt lat="42.80796" lon="-0.09874">
        <ele>1804.05</ele>
        <time>2014-06-20T10:41:14Z</time>
      </trkpt>
      <trkpt lat="42.80796" lon="-0.09874">
        <ele>1804.05</ele>
        <time>2014-06-20T10:41:40Z</time>
      </trkpt>
      <trkpt lat="42.80796" lon="-0.09874">
        <ele>1804.05</ele>
        <time>2014-06-20T10:41:58Z</time>
      </trkpt>
      <trkpt lat="42.80797" lon="-0.09874">
        <ele>1803.57</ele>
        <time>2014-06-20T10:42:18Z</time>
      </trkpt>
      <trkpt lat="42.80797" lon="-0.09874">
        <ele>1804.05</ele>
        <time>2014-06-20T10:42:43Z</time>
      </trkpt>
      <trkpt lat="42.80797" lon="-0.09874">
        <ele>1804.05</ele>
        <time>2014-06-20T10:43:04Z</time>
      </trkpt>
      <trkpt lat="42.80798" lon="-0.09875">
        <ele>1803.57</ele>
        <time>2014-06-20T10:43:31Z</time>
      </trkpt>
      <trkpt lat="42.80798" lon="-0.09875">
        <ele>1804.05</ele>
        <time>2014-06-20T10:43:47Z</time>
      </trkpt>
      <trkpt lat="42.80799" lon="-0.09876">
        <ele>1804.05</ele>
        <time>2014-06-20T10:44:10Z</time>
      </trkpt>
      <trkpt lat="42.80799" lon="-0.09876">
        <ele>1804.05</ele>
        <time>2014-06-20T10:44:31Z</time>
      </trkpt>
      <trkpt lat="42.80798" lon="-0.09876">
        <ele>1803.09</ele>
        <time>2014-06-20T10:44:49Z</time>
      </trkpt>
      <trkpt lat="42.80798" lon="-0.09876">
        <ele>1803.57</ele>
        <time>2014-06-20T10:45:14Z</time>
      </trkpt>
      <trkpt lat="42.80798" lon="-0.09878">
        <ele>1803.57</ele>
        <time>2014-06-20T10:45:31Z</time>
      </trkpt>
      <trkpt lat="42.80797" lon="-0.09878">
        <ele>1803.57</ele>
        <time>2014-06-20T10:45:46Z</time>
      </trkpt>
      <trkpt lat="42.80797" lon="-0.09878">
        <ele>1804.53</ele>
        <time>2014-06-20T10:46:13Z</time>
      </trkpt>
      <trkpt lat="42.80797" lon="-0.09879">
        <ele>1803.57</ele>
        <time>2014-06-20T10:46:37Z</time>
      </trkpt>
      <trkpt lat="42.80797" lon="-0.09878">
        <ele>1804.05</ele>
        <time>2014-06-20T10:46:57Z</time>
      </trkpt>
      <trkpt lat="42.80797" lon="-0.09879">
        <ele>1803.09</ele>
        <time>2014-06-20T10:47:14Z</time>
      </trkpt>
      <trkpt lat="42.80797" lon="-0.09878">
        <ele>1803.09</ele>
        <time>2014-06-20T10:47:47Z</time>
      </trkpt>
      <trkpt lat="42.808" lon="-0.09873">
        <ele>1803.57</ele>
        <time>2014-06-20T10:48:13Z</time>
      </trkpt>
      <trkpt lat="42.80799" lon="-0.09875">
        <ele>1803.57</ele>
        <time>2014-06-20T10:48:39Z</time>
      </trkpt>
      <trkpt lat="42.80798" lon="-0.09878">
        <ele>1803.57</ele>
        <time>2014-06-20T10:49:05Z</time>
      </trkpt>
      <trkpt lat="42.80798" lon="-0.09878">
        <ele>1803.57</ele>
        <time>2014-06-20T10:49:27Z</time>
      </trkpt>
      <trkpt lat="42.80798" lon="-0.09878">
        <ele>1803.09</ele>
        <time>2014-06-20T10:49:55Z</time>
      </trkpt>
      <trkpt lat="42.80798" lon="-0.09878">
        <ele>1804.05</ele>
        <time>2014-06-20T10:50:25Z</time>
      </trkpt>
      <trkpt lat="42.80797" lon="-0.09878">
        <ele>1803.57</ele>
        <time>2014-06-20T10:50:49Z</time>
      </trkpt>
      <trkpt lat="42.80797" lon="-0.09878">
        <ele>1803.57</ele>
        <time>2014-06-20T10:51:12Z</time>
      </trkpt>
      <trkpt lat="42.80797" lon="-0.09878">
        <ele>1803.57</ele>
        <time>2014-06-20T10:51:42Z</time>
      </trkpt>
      <trkpt lat="42.80797" lon="-0.09878">
        <ele>1803.57</ele>
        <time>2014-06-20T10:52:16Z</time>
      </trkpt>
      <trkpt lat="42.80796" lon="-0.09879">
        <ele>1803.57</ele>
        <time>2014-06-20T10:52:51Z</time>
      </trkpt>
      <trkpt lat="42.80796" lon="-0.09879">
        <ele>1804.05</ele>
        <time>2014-06-20T10:53:19Z</time>
      </trkpt>
      <trkpt lat="42.80796" lon="-0.09879">
        <ele>1803.09</ele>
        <time>2014-06-20T10:53:53Z</time>
      </trkpt>
      <trkpt lat="42.80796" lon="-0.09879">
        <ele>1803.57</ele>
        <time>2014-06-20T10:54:21Z</time>
      </trkpt>
      <trkpt lat="42.80796" lon="-0.0988">
        <ele>1804.53</ele>
        <time>2014-06-20T10:54:35Z</time>
      </trkpt>
      <trkpt lat="42.80796" lon="-0.09879">
        <ele>1803.57</ele>
        <time>2014-06-20T10:54:54Z</time>
      </trkpt>
      <trkpt lat="42.80796" lon="-0.09881">
        <ele>1804.05</ele>
        <time>2014-06-20T10:55:11Z</time>
      </trkpt>
      <trkpt lat="42.80796" lon="-0.09881">
        <ele>1803.57</ele>
        <time>2014-06-20T10:55:38Z</time>
      </trkpt>
      <trkpt lat="42.80796" lon="-0.09881">
        <ele>1804.53</ele>
        <time>2014-06-20T10:56:01Z</time>
      </trkpt>
      <trkpt lat="42.80796" lon="-0.09882">
        <ele>1804.53</ele>
        <time>2014-06-20T10:56:24Z</time>
      </trkpt>
      <trkpt lat="42.80797" lon="-0.09881">
        <ele>1804.05</ele>
        <time>2014-06-20T10:56:49Z</time>
      </trkpt>
      <trkpt lat="42.80797" lon="-0.0988">
        <ele>1804.05</ele>
        <time>2014-06-20T10:57:07Z</time>
      </trkpt>
      <trkpt lat="42.80797" lon="-0.0988">
        <ele>1804.05</ele>
        <time>2014-06-20T10:57:28Z</time>
      </trkpt>
      <trkpt lat="42.80799" lon="-0.0988">
        <ele>1804.05</ele>
        <time>2014-06-20T10:57:44Z</time>
      </trkpt>
      <trkpt lat="42.80799" lon="-0.09879">
        <ele>1804.05</ele>
        <time>2014-06-20T10:58:01Z</time>
      </trkpt>
      <trkpt lat="42.80799" lon="-0.09879">
        <ele>1803.57</ele>
        <time>2014-06-20T10:58:21Z</time>
      </trkpt>
      <trkpt lat="42.80799" lon="-0.09879">
        <ele>1804.05</ele>
        <time>2014-06-20T10:58:42Z</time>
      </trkpt>
      <trkpt lat="42.80798" lon="-0.09881">
        <ele>1803.09</ele>
        <time>2014-06-20T10:58:54Z</time>
      </trkpt>
      <trkpt lat="42.80798" lon="-0.09882">
        <ele>1804.05</ele>
        <time>2014-06-20T10:59:14Z</time>
      </trkpt>
      <trkpt lat="42.80798" lon="-0.09881">
        <ele>1804.05</ele>
        <time>2014-06-20T10:59:36Z</time>
      </trkpt>
      <trkpt lat="42.80796" lon="-0.09883">
        <ele>1803.57</ele>
        <time>2014-06-20T10:59:59Z</time>
      </trkpt>
      <trkpt lat="42.80794" lon="-0.09882">
        <ele>1804.05</ele>
        <time>2014-06-20T11:00:18Z</time>
      </trkpt>
      <trkpt lat="42.808" lon="-0.09888">
        <ele>1804.05</ele>
        <time>2014-06-20T11:00:32Z</time>
      </trkpt>
      <trkpt lat="42.80809" lon="-0.09895">
        <ele>1804.05</ele>
        <time>2014-06-20T11:00:48Z</time>
      </trkpt>
      <trkpt lat="42.8081" lon="-0.09904">
        <ele>1803.09</ele>
        <time>2014-06-20T11:00:54Z</time>
      </trkpt>
      <trkpt lat="42.80808" lon="-0.09923">
        <ele>1803.09</ele>
        <time>2014-06-20T11:01:10Z</time>
      </trkpt>
      <trkpt lat="42.80807" lon="-0.09927">
        <ele>1803.09</ele>
        <time>2014-06-20T11:01:23Z</time>
      </trkpt>
      <trkpt lat="42.80806" lon="-0.0993">
        <ele>1803.09</ele>
        <time>2014-06-20T11:01:28Z</time>
      </trkpt>
      <trkpt lat="42.80807" lon="-0.09936">
        <ele>1803.09</ele>
        <time>2014-06-20T11:01:33Z</time>
      </trkpt>
      <trkpt lat="42.80806" lon="-0.09953">
        <ele>1801.65</ele>
        <time>2014-06-20T11:01:50Z</time>
      </trkpt>
      <trkpt lat="42.80811" lon="-0.09955">
        <ele>1799.73</ele>
        <time>2014-06-20T11:02:06Z</time>
      </trkpt>
      <trkpt lat="42.8082" lon="-0.0996">
        <ele>1798.28</ele>
        <time>2014-06-20T11:02:22Z</time>
      </trkpt>
      <trkpt lat="42.80827" lon="-0.09967">
        <ele>1796.84</ele>
        <time>2014-06-20T11:02:36Z</time>
      </trkpt>
      <trkpt lat="42.80835" lon="-0.09962">
        <ele>1794.92</ele>
        <time>2014-06-20T11:02:49Z</time>
      </trkpt>
      <trkpt lat="42.80839" lon="-0.09961">
        <ele>1794.44</ele>
        <time>2014-06-20T11:03:01Z</time>
      </trkpt>
      <trkpt lat="42.80844" lon="-0.0996">
        <ele>1792.03</ele>
        <time>2014-06-20T11:03:16Z</time>
      </trkpt>
      <trkpt lat="42.80853" lon="-0.09959">
        <ele>1791.55</ele>
        <time>2014-06-20T11:03:28Z</time>
      </trkpt>
      <trkpt lat="42.80864" lon="-0.09966">
        <ele>1790.59</ele>
        <time>2014-06-20T11:03:42Z</time>
      </trkpt>
      <trkpt lat="42.80865" lon="-0.09966">
        <ele>1790.59</ele>
        <time>2014-06-20T11:03:43Z</time>
      </trkpt>
      <trkpt lat="42.80881" lon="-0.09976">
        <ele>1791.07</ele>
        <time>2014-06-20T11:04:00Z</time>
      </trkpt>
      <trkpt lat="42.80884" lon="-0.09981">
        <ele>1790.59</ele>
        <time>2014-06-20T11:04:04Z</time>
      </trkpt>
      <trkpt lat="42.80886" lon="-0.09985">
        <ele>1790.59</ele>
        <time>2014-06-20T11:04:07Z</time>
      </trkpt>
      <trkpt lat="42.80885" lon="-0.09998">
        <ele>1789.15</ele>
        <time>2014-06-20T11:04:21Z</time>
      </trkpt>
      <trkpt lat="42.80893" lon="-0.10001">
        <ele>1788.19</ele>
        <time>2014-06-20T11:04:31Z</time>
      </trkpt>
      <trkpt lat="42.80904" lon="-0.10003">
        <ele>1787.23</ele>
        <time>2014-06-20T11:04:46Z</time>
      </trkpt>
      <trkpt lat="42.80925" lon="-0.09992">
        <ele>1786.27</ele>
        <time>2014-06-20T11:05:08Z</time>
      </trkpt>
      <trkpt lat="42.80937" lon="-0.10004">
        <ele>1785.31</ele>
        <time>2014-06-20T11:05:22Z</time>
      </trkpt>
      <trkpt lat="42.80944" lon="-0.10011">
        <ele>1783.86</ele>
        <time>2014-06-20T11:05:37Z</time>
      </trkpt>
      <trkpt lat="42.80945" lon="-0.10013">
        <ele>1782.9</ele>
        <time>2014-06-20T11:05:50Z</time>
      </trkpt>
      <trkpt lat="42.80945" lon="-0.10007">
        <ele>1781.46</ele>
        <time>2014-06-20T11:06:04Z</time>
      </trkpt>
      <trkpt lat="42.8095" lon="-0.09997">
        <ele>1779.54</ele>
        <time>2014-06-20T11:06:21Z</time>
      </trkpt>
      <trkpt lat="42.80956" lon="-0.09993">
        <ele>1778.1</ele>
        <time>2014-06-20T11:06:34Z</time>
      </trkpt>
      <trkpt lat="42.80963" lon="-0.09989">
        <ele>1776.65</ele>
        <time>2014-06-20T11:06:53Z</time>
      </trkpt>
      <trkpt lat="42.8097" lon="-0.09979">
        <ele>1774.25</ele>
        <time>2014-06-20T11:07:11Z</time>
      </trkpt>
      <trkpt lat="42.80975" lon="-0.09974">
        <ele>1772.33</ele>
        <time>2014-06-20T11:07:25Z</time>
      </trkpt>
      <trkpt lat="42.80989" lon="-0.0996">
        <ele>1770.89</ele>
        <time>2014-06-20T11:07:42Z</time>
      </trkpt>
      <trkpt lat="42.81002" lon="-0.09956">
        <ele>1769.44</ele>
        <time>2014-06-20T11:07:53Z</time>
      </trkpt>
      <trkpt lat="42.81018" lon="-0.09954">
        <ele>1767.04</ele>
        <time>2014-06-20T11:08:09Z</time>
      </trkpt>
      <trkpt lat="42.81029" lon="-0.09951">
        <ele>1766.56</ele>
        <time>2014-06-20T11:08:21Z</time>
      </trkpt>
      <trkpt lat="42.81039" lon="-0.09951">
        <ele>1765.6</ele>
        <time>2014-06-20T11:08:31Z</time>
      </trkpt>
      <trkpt lat="42.81055" lon="-0.09948">
        <ele>1764.16</ele>
        <time>2014-06-20T11:08:47Z</time>
      </trkpt>
      <trkpt lat="42.81064" lon="-0.09949">
        <ele>1762.71</ele>
        <time>2014-06-20T11:08:59Z</time>
      </trkpt>
      <trkpt lat="42.81079" lon="-0.09942">
        <ele>1761.75</ele>
        <time>2014-06-20T11:09:17Z</time>
      </trkpt>
      <trkpt lat="42.8109" lon="-0.09943">
        <ele>1760.31</ele>
        <time>2014-06-20T11:09:32Z</time>
      </trkpt>
      <trkpt lat="42.81106" lon="-0.09948">
        <ele>1759.83</ele>
        <time>2014-06-20T11:09:47Z</time>
      </trkpt>
      <trkpt lat="42.81117" lon="-0.09958">
        <ele>1758.39</ele>
        <time>2014-06-20T11:10:01Z</time>
      </trkpt>
      <trkpt lat="42.81123" lon="-0.0996">
        <ele>1757.43</ele>
        <time>2014-06-20T11:10:13Z</time>
      </trkpt>
      <trkpt lat="42.81131" lon="-0.09959">
        <ele>1755.99</ele>
        <time>2014-06-20T11:10:27Z</time>
      </trkpt>
      <trkpt lat="42.81137" lon="-0.09957">
        <ele>1753.58</ele>
        <time>2014-06-20T11:10:41Z</time>
      </trkpt>
      <trkpt lat="42.81141" lon="-0.09956">
        <ele>1752.14</ele>
        <time>2014-06-20T11:10:56Z</time>
      </trkpt>
      <trkpt lat="42.81146" lon="-0.09957">
        <ele>1750.22</ele>
        <time>2014-06-20T11:11:10Z</time>
      </trkpt>
      <trkpt lat="42.81147" lon="-0.09955">
        <ele>1749.26</ele>
        <time>2014-06-20T11:11:18Z</time>
      </trkpt>
      <trkpt lat="42.81155" lon="-0.09952">
        <ele>1748.29</ele>
        <time>2014-06-20T11:11:27Z</time>
      </trkpt>
      <trkpt lat="42.81161" lon="-0.09946">
        <ele>1746.37</ele>
        <time>2014-06-20T11:11:41Z</time>
      </trkpt>
      <trkpt lat="42.81164" lon="-0.09944">
        <ele>1743.49</ele>
        <time>2014-06-20T11:12:01Z</time>
      </trkpt>
      <trkpt lat="42.81171" lon="-0.09941">
        <ele>1742.05</ele>
        <time>2014-06-20T11:12:17Z</time>
      </trkpt>
      <trkpt lat="42.81175" lon="-0.09943">
        <ele>1740.12</ele>
        <time>2014-06-20T11:12:35Z</time>
      </trkpt>
      <trkpt lat="42.81176" lon="-0.09941">
        <ele>1738.2</ele>
        <time>2014-06-20T11:12:51Z</time>
      </trkpt>
      <trkpt lat="42.81191" lon="-0.09934">
        <ele>1735.32</ele>
        <time>2014-06-20T11:13:07Z</time>
      </trkpt>
      <trkpt lat="42.81198" lon="-0.0993">
        <ele>1733.39</ele>
        <time>2014-06-20T11:13:24Z</time>
      </trkpt>
      <trkpt lat="42.81209" lon="-0.09915">
        <ele>1730.99</ele>
        <time>2014-06-20T11:13:41Z</time>
      </trkpt>
      <trkpt lat="42.81213" lon="-0.0991">
        <ele>1728.59</ele>
        <time>2014-06-20T11:13:57Z</time>
      </trkpt>
      <trkpt lat="42.81216" lon="-0.09906">
        <ele>1727.63</ele>
        <time>2014-06-20T11:14:15Z</time>
      </trkpt>
      <trkpt lat="42.81224" lon="-0.09895">
        <ele>1725.7</ele>
        <time>2014-06-20T11:14:33Z</time>
      </trkpt>
      <trkpt lat="42.81248" lon="-0.09902">
        <ele>1723.3</ele>
        <time>2014-06-20T11:14:49Z</time>
      </trkpt>
      <trkpt lat="42.81263" lon="-0.09902">
        <ele>1721.38</ele>
        <time>2014-06-20T11:15:04Z</time>
      </trkpt>
      <trkpt lat="42.81281" lon="-0.09902">
        <ele>1719.94</ele>
        <time>2014-06-20T11:15:22Z</time>
      </trkpt>
      <trkpt lat="42.81292" lon="-0.09898">
        <ele>1719.46</ele>
        <time>2014-06-20T11:15:34Z</time>
      </trkpt>
      <trkpt lat="42.8131" lon="-0.09894">
        <ele>1718.97</ele>
        <time>2014-06-20T11:15:51Z</time>
      </trkpt>
      <trkpt lat="42.81318" lon="-0.09883">
        <ele>1717.05</ele>
        <time>2014-06-20T11:16:05Z</time>
      </trkpt>
      <trkpt lat="42.81317" lon="-0.09879">
        <ele>1717.05</ele>
        <time>2014-06-20T11:16:13Z</time>
      </trkpt>
      <trkpt lat="42.81317" lon="-0.09877">
        <ele>1716.09</ele>
        <time>2014-06-20T11:16:22Z</time>
      </trkpt>
      <trkpt lat="42.81319" lon="-0.09876">
        <ele>1715.61</ele>
        <time>2014-06-20T11:16:36Z</time>
      </trkpt>
      <trkpt lat="42.81324" lon="-0.09872">
        <ele>1715.13</ele>
        <time>2014-06-20T11:16:46Z</time>
      </trkpt>
      <trkpt lat="42.81335" lon="-0.0987">
        <ele>1713.69</ele>
        <time>2014-06-20T11:17:01Z</time>
      </trkpt>
      <trkpt lat="42.81341" lon="-0.09862">
        <ele>1711.76</ele>
        <time>2014-06-20T11:17:17Z</time>
      </trkpt>
      <trkpt lat="42.81351" lon="-0.09865">
        <ele>1709.36</ele>
        <time>2014-06-20T11:17:34Z</time>
      </trkpt>
      <trkpt lat="42.81366" lon="-0.09869">
        <ele>1709.36</ele>
        <time>2014-06-20T11:17:51Z</time>
      </trkpt>
      <trkpt lat="42.81381" lon="-0.09871">
        <ele>1710.32</ele>
        <time>2014-06-20T11:18:09Z</time>
      </trkpt>
      <trkpt lat="42.81392" lon="-0.09876">
        <ele>1707.92</ele>
        <time>2014-06-20T11:18:28Z</time>
      </trkpt>
      <trkpt lat="42.81395" lon="-0.09883">
        <ele>1706</ele>
        <time>2014-06-20T11:18:43Z</time>
      </trkpt>
      <trkpt lat="42.81417" lon="-0.09888">
        <ele>1703.59</ele>
        <time>2014-06-20T11:18:59Z</time>
      </trkpt>
      <trkpt lat="42.8143" lon="-0.09883">
        <ele>1702.15</ele>
        <time>2014-06-20T11:19:15Z</time>
      </trkpt>
      <trkpt lat="42.81433" lon="-0.09885">
        <ele>1699.75</ele>
        <time>2014-06-20T11:19:34Z</time>
      </trkpt>
      <trkpt lat="42.81434" lon="-0.09885">
        <ele>1696.86</ele>
        <time>2014-06-20T11:19:51Z</time>
      </trkpt>
      <trkpt lat="42.8144" lon="-0.09874">
        <ele>1694.94</ele>
        <time>2014-06-20T11:20:09Z</time>
      </trkpt>
      <trkpt lat="42.8144" lon="-0.09873">
        <ele>1692.54</ele>
        <time>2014-06-20T11:20:24Z</time>
      </trkpt>
      <trkpt lat="42.81442" lon="-0.09876">
        <ele>1690.14</ele>
        <time>2014-06-20T11:20:40Z</time>
      </trkpt>
      <trkpt lat="42.81447" lon="-0.09878">
        <ele>1686.77</ele>
        <time>2014-06-20T11:21:00Z</time>
      </trkpt>
      <trkpt lat="42.81451" lon="-0.09869">
        <ele>1685.81</ele>
        <time>2014-06-20T11:21:12Z</time>
      </trkpt>
      <trkpt lat="42.81448" lon="-0.09861">
        <ele>1683.41</ele>
        <time>2014-06-20T11:21:31Z</time>
      </trkpt>
      <trkpt lat="42.81452" lon="-0.09859">
        <ele>1680.04</ele>
        <time>2014-06-20T11:21:50Z</time>
      </trkpt>
      <trkpt lat="42.81456" lon="-0.09854">
        <ele>1678.12</ele>
        <time>2014-06-20T11:22:06Z</time>
      </trkpt>
      <trkpt lat="42.81457" lon="-0.09852">
        <ele>1678.12</ele>
        <time>2014-06-20T11:22:07Z</time>
      </trkpt>
      <trkpt lat="42.81463" lon="-0.09853">
        <ele>1676.68</ele>
        <time>2014-06-20T11:22:19Z</time>
      </trkpt>
      <trkpt lat="42.8147" lon="-0.09852">
        <ele>1674.27</ele>
        <time>2014-06-20T11:22:35Z</time>
      </trkpt>
      <trkpt lat="42.81475" lon="-0.0986">
        <ele>1672.35</ele>
        <time>2014-06-20T11:22:47Z</time>
      </trkpt>
      <trkpt lat="42.81477" lon="-0.09858">
        <ele>1670.43</ele>
        <time>2014-06-20T11:23:04Z</time>
      </trkpt>
      <trkpt lat="42.81478" lon="-0.09855">
        <ele>1668.02</ele>
        <time>2014-06-20T11:23:19Z</time>
      </trkpt>
      <trkpt lat="42.81485" lon="-0.09846">
        <ele>1666.1</ele>
        <time>2014-06-20T11:23:29Z</time>
      </trkpt>
      <trkpt lat="42.81486" lon="-0.09836">
        <ele>1664.66</ele>
        <time>2014-06-20T11:23:44Z</time>
      </trkpt>
      <trkpt lat="42.81489" lon="-0.09837">
        <ele>1663.22</ele>
        <time>2014-06-20T11:23:54Z</time>
      </trkpt>
      <trkpt lat="42.81492" lon="-0.09841">
        <ele>1662.74</ele>
        <time>2014-06-20T11:24:00Z</time>
      </trkpt>
      <trkpt lat="42.81498" lon="-0.09846">
        <ele>1660.81</ele>
        <time>2014-06-20T11:24:17Z</time>
      </trkpt>
      <trkpt lat="42.81496" lon="-0.09855">
        <ele>1659.37</ele>
        <time>2014-06-20T11:24:36Z</time>
      </trkpt>
      <trkpt lat="42.81496" lon="-0.09859">
        <ele>1656.97</ele>
        <time>2014-06-20T11:24:51Z</time>
      </trkpt>
      <trkpt lat="42.81498" lon="-0.09855">
        <ele>1655.53</ele>
        <time>2014-06-20T11:25:05Z</time>
      </trkpt>
      <trkpt lat="42.81501" lon="-0.0985">
        <ele>1654.09</ele>
        <time>2014-06-20T11:25:21Z</time>
      </trkpt>
      <trkpt lat="42.8151" lon="-0.09848">
        <ele>1651.68</ele>
        <time>2014-06-20T11:25:37Z</time>
      </trkpt>
      <trkpt lat="42.81511" lon="-0.09848">
        <ele>1649.76</ele>
        <time>2014-06-20T11:25:51Z</time>
      </trkpt>
      <trkpt lat="42.81518" lon="-0.09843">
        <ele>1647.36</ele>
        <time>2014-06-20T11:26:10Z</time>
      </trkpt>
      <trkpt lat="42.81528" lon="-0.09843">
        <ele>1645.43</ele>
        <time>2014-06-20T11:26:26Z</time>
      </trkpt>
      <trkpt lat="42.81532" lon="-0.09847">
        <ele>1643.51</ele>
        <time>2014-06-20T11:26:45Z</time>
      </trkpt>
      <trkpt lat="42.81542" lon="-0.09853">
        <ele>1641.59</ele>
        <time>2014-06-20T11:26:58Z</time>
      </trkpt>
      <trkpt lat="42.81552" lon="-0.09856">
        <ele>1640.15</ele>
        <time>2014-06-20T11:27:17Z</time>
      </trkpt>
      <trkpt lat="42.81562" lon="-0.09863">
        <ele>1637.26</ele>
        <time>2014-06-20T11:27:33Z</time>
      </trkpt>
      <trkpt lat="42.81567" lon="-0.09862">
        <ele>1635.82</ele>
        <time>2014-06-20T11:27:49Z</time>
      </trkpt>
      <trkpt lat="42.8158" lon="-0.09866">
        <ele>1633.9</ele>
        <time>2014-06-20T11:28:04Z</time>
      </trkpt>
      <trkpt lat="42.81584" lon="-0.09874">
        <ele>1631.98</ele>
        <time>2014-06-20T11:28:19Z</time>
      </trkpt>
      <trkpt lat="42.81585" lon="-0.09876">
        <ele>1631.01</ele>
        <time>2014-06-20T11:28:26Z</time>
      </trkpt>
      <trkpt lat="42.81596" lon="-0.09868">
        <ele>1629.57</ele>
        <time>2014-06-20T11:28:39Z</time>
      </trkpt>
      <trkpt lat="42.81603" lon="-0.09862">
        <ele>1628.13</ele>
        <time>2014-06-20T11:28:53Z</time>
      </trkpt>
      <trkpt lat="42.81616" lon="-0.09859">
        <ele>1626.69</ele>
        <time>2014-06-20T11:29:06Z</time>
      </trkpt>
      <trkpt lat="42.81619" lon="-0.09859">
        <ele>1625.73</ele>
        <time>2014-06-20T11:29:08Z</time>
      </trkpt>
      <trkpt lat="42.81631" lon="-0.09859">
        <ele>1625.25</ele>
        <time>2014-06-20T11:29:22Z</time>
      </trkpt>
      <trkpt lat="42.81646" lon="-0.0986">
        <ele>1624.28</ele>
        <time>2014-06-20T11:29:36Z</time>
      </trkpt>
      <trkpt lat="42.8165" lon="-0.09853">
        <ele>1622.36</ele>
        <time>2014-06-20T11:29:50Z</time>
      </trkpt>
      <trkpt lat="42.81652" lon="-0.09849">
        <ele>1620.92</ele>
        <time>2014-06-20T11:30:00Z</time>
      </trkpt>
      <trkpt lat="42.81658" lon="-0.09845">
        <ele>1619.48</ele>
        <time>2014-06-20T11:30:09Z</time>
      </trkpt>
      <trkpt lat="42.81674" lon="-0.09836">
        <ele>1618.52</ele>
        <time>2014-06-20T11:30:26Z</time>
      </trkpt>
      <trkpt lat="42.81692" lon="-0.09834">
        <ele>1618.04</ele>
        <time>2014-06-20T11:30:39Z</time>
      </trkpt>
      <trkpt lat="42.81704" lon="-0.09831">
        <ele>1617.07</ele>
        <time>2014-06-20T11:30:52Z</time>
      </trkpt>
      <trkpt lat="42.81717" lon="-0.0983">
        <ele>1615.63</ele>
        <time>2014-06-20T11:31:07Z</time>
      </trkpt>
      <trkpt lat="42.8173" lon="-0.09831">
        <ele>1614.67</ele>
        <time>2014-06-20T11:31:25Z</time>
      </trkpt>
      <trkpt lat="42.81735" lon="-0.09828">
        <ele>1613.23</ele>
        <time>2014-06-20T11:31:38Z</time>
      </trkpt>
      <trkpt lat="42.81752" lon="-0.09827">
        <ele>1612.27</ele>
        <time>2014-06-20T11:31:52Z</time>
      </trkpt>
      <trkpt lat="42.8177" lon="-0.09823">
        <ele>1610.35</ele>
        <time>2014-06-20T11:32:09Z</time>
      </trkpt>
      <trkpt lat="42.81782" lon="-0.09812">
        <ele>1609.38</ele>
        <time>2014-06-20T11:32:26Z</time>
      </trkpt>
      <trkpt lat="42.81798" lon="-0.09801">
        <ele>1608.42</ele>
        <time>2014-06-20T11:32:42Z</time>
      </trkpt>
      <trkpt lat="42.81806" lon="-0.09797">
        <ele>1607.46</ele>
        <time>2014-06-20T11:32:56Z</time>
      </trkpt>
      <trkpt lat="42.8181" lon="-0.09794">
        <ele>1607.46</ele>
        <time>2014-06-20T11:33:14Z</time>
      </trkpt>
      <trkpt lat="42.81819" lon="-0.09788">
        <ele>1606.5</ele>
        <time>2014-06-20T11:33:28Z</time>
      </trkpt>
      <trkpt lat="42.81831" lon="-0.09784">
        <ele>1604.1</ele>
        <time>2014-06-20T11:33:43Z</time>
      </trkpt>
      <trkpt lat="42.81837" lon="-0.09778">
        <ele>1603.14</ele>
        <time>2014-06-20T11:33:55Z</time>
      </trkpt>
      <trkpt lat="42.81842" lon="-0.09776">
        <ele>1602.66</ele>
        <time>2014-06-20T11:34:00Z</time>
      </trkpt>
      <trkpt lat="42.81856" lon="-0.09776">
        <ele>1601.21</ele>
        <time>2014-06-20T11:34:17Z</time>
      </trkpt>
      <trkpt lat="42.81862" lon="-0.09779">
        <ele>1600.73</ele>
        <time>2014-06-20T11:34:31Z</time>
      </trkpt>
      <trkpt lat="42.81869" lon="-0.09789">
        <ele>1600.25</ele>
        <time>2014-06-20T11:34:44Z</time>
      </trkpt>
      <trkpt lat="42.81872" lon="-0.09793">
        <ele>1600.25</ele>
        <time>2014-06-20T11:34:50Z</time>
      </trkpt>
      <trkpt lat="42.81879" lon="-0.09795">
        <ele>1598.33</ele>
        <time>2014-06-20T11:35:02Z</time>
      </trkpt>
      <trkpt lat="42.81886" lon="-0.09805">
        <ele>1597.37</ele>
        <time>2014-06-20T11:35:09Z</time>
      </trkpt>
      <trkpt lat="42.81896" lon="-0.0981">
        <ele>1597.37</ele>
        <time>2014-06-20T11:35:24Z</time>
      </trkpt>
      <trkpt lat="42.81899" lon="-0.09811">
        <ele>1597.37</ele>
        <time>2014-06-20T11:35:27Z</time>
      </trkpt>
      <trkpt lat="42.81904" lon="-0.09812">
        <ele>1597.37</ele>
        <time>2014-06-20T11:35:32Z</time>
      </trkpt>
      <trkpt lat="42.81913" lon="-0.0981">
        <ele>1597.85</ele>
        <time>2014-06-20T11:35:44Z</time>
      </trkpt>
      <trkpt lat="42.81915" lon="-0.09811">
        <ele>1597.85</ele>
        <time>2014-06-20T11:35:46Z</time>
      </trkpt>
      <trkpt lat="42.81931" lon="-0.0981">
        <ele>1596.41</ele>
        <time>2014-06-20T11:35:59Z</time>
      </trkpt>
      <trkpt lat="42.81946" lon="-0.09809">
        <ele>1595.93</ele>
        <time>2014-06-20T11:36:15Z</time>
      </trkpt>
      <trkpt lat="42.81952" lon="-0.0981">
        <ele>1595.93</ele>
        <time>2014-06-20T11:36:29Z</time>
      </trkpt>
      <trkpt lat="42.81956" lon="-0.09811">
        <ele>1594.96</ele>
        <time>2014-06-20T11:36:43Z</time>
      </trkpt>
      <trkpt lat="42.81962" lon="-0.09809">
        <ele>1594</ele>
        <time>2014-06-20T11:36:46Z</time>
      </trkpt>
      <trkpt lat="42.81977" lon="-0.09803">
        <ele>1591.6</ele>
        <time>2014-06-20T11:37:02Z</time>
      </trkpt>
      <trkpt lat="42.81979" lon="-0.09803">
        <ele>1592.08</ele>
        <time>2014-06-20T11:37:04Z</time>
      </trkpt>
      <trkpt lat="42.81986" lon="-0.09801">
        <ele>1590.64</ele>
        <time>2014-06-20T11:37:11Z</time>
      </trkpt>
      <trkpt lat="42.81989" lon="-0.09799">
        <ele>1588.72</ele>
        <time>2014-06-20T11:37:25Z</time>
      </trkpt>
      <trkpt lat="42.81991" lon="-0.09798">
        <ele>1588.72</ele>
        <time>2014-06-20T11:37:28Z</time>
      </trkpt>
      <trkpt lat="42.81999" lon="-0.09793">
        <ele>1586.79</ele>
        <time>2014-06-20T11:37:42Z</time>
      </trkpt>
      <trkpt lat="42.82" lon="-0.09791">
        <ele>1585.35</ele>
        <time>2014-06-20T11:37:52Z</time>
      </trkpt>
      <trkpt lat="42.82016" lon="-0.09789">
        <ele>1584.39</ele>
        <time>2014-06-20T11:38:07Z</time>
      </trkpt>
      <trkpt lat="42.82025" lon="-0.09786">
        <ele>1581.99</ele>
        <time>2014-06-20T11:38:20Z</time>
      </trkpt>
      <trkpt lat="42.8203" lon="-0.09786">
        <ele>1581.99</ele>
        <time>2014-06-20T11:38:24Z</time>
      </trkpt>
      <trkpt lat="42.82038" lon="-0.09787">
        <ele>1580.54</ele>
        <time>2014-06-20T11:38:33Z</time>
      </trkpt>
      <trkpt lat="42.8205" lon="-0.09789">
        <ele>1579.58</ele>
        <time>2014-06-20T11:38:46Z</time>
      </trkpt>
      <trkpt lat="42.82058" lon="-0.09787">
        <ele>1578.14</ele>
        <time>2014-06-20T11:38:59Z</time>
      </trkpt>
      <trkpt lat="42.82071" lon="-0.09789">
        <ele>1577.18</ele>
        <time>2014-06-20T11:39:14Z</time>
      </trkpt>
      <trkpt lat="42.8208" lon="-0.09792">
        <ele>1576.22</ele>
        <time>2014-06-20T11:39:29Z</time>
      </trkpt>
      <trkpt lat="42.82081" lon="-0.09793">
        <ele>1575.74</ele>
        <time>2014-06-20T11:39:32Z</time>
      </trkpt>
      <trkpt lat="42.82086" lon="-0.09794">
        <ele>1575.26</ele>
        <time>2014-06-20T11:39:37Z</time>
      </trkpt>
      <trkpt lat="42.82098" lon="-0.09795">
        <ele>1573.82</ele>
        <time>2014-06-20T11:39:51Z</time>
      </trkpt>
      <trkpt lat="42.82106" lon="-0.09799">
        <ele>1573.82</ele>
        <time>2014-06-20T11:40:02Z</time>
      </trkpt>
      <trkpt lat="42.82121" lon="-0.09796">
        <ele>1573.33</ele>
        <time>2014-06-20T11:40:16Z</time>
      </trkpt>
      <trkpt lat="42.82124" lon="-0.09791">
        <ele>1572.85</ele>
        <time>2014-06-20T11:40:23Z</time>
      </trkpt>
      <trkpt lat="42.82141" lon="-0.09787">
        <ele>1571.41</ele>
        <time>2014-06-20T11:40:40Z</time>
      </trkpt>
      <trkpt lat="42.82147" lon="-0.09786">
        <ele>1570.45</ele>
        <time>2014-06-20T11:40:57Z</time>
      </trkpt>
      <trkpt lat="42.82149" lon="-0.09784">
        <ele>1571.41</ele>
        <time>2014-06-20T11:41:11Z</time>
      </trkpt>
      <trkpt lat="42.82151" lon="-0.09784">
        <ele>1570.93</ele>
        <time>2014-06-20T11:41:21Z</time>
      </trkpt>
      <trkpt lat="42.82156" lon="-0.0978">
        <ele>1570.93</ele>
        <time>2014-06-20T11:41:38Z</time>
      </trkpt>
      <trkpt lat="42.82157" lon="-0.09781">
        <ele>1569.97</ele>
        <time>2014-06-20T11:41:56Z</time>
      </trkpt>
      <trkpt lat="42.82157" lon="-0.09782">
        <ele>1569.49</ele>
        <time>2014-06-20T11:42:10Z</time>
      </trkpt>
      <trkpt lat="42.82158" lon="-0.09781">
        <ele>1569.97</ele>
        <time>2014-06-20T11:42:20Z</time>
      </trkpt>
      <trkpt lat="42.82163" lon="-0.0978">
        <ele>1569.01</ele>
        <time>2014-06-20T11:42:33Z</time>
      </trkpt>
      <trkpt lat="42.82163" lon="-0.0978">
        <ele>1569.49</ele>
        <time>2014-06-20T11:42:57Z</time>
      </trkpt>
      <trkpt lat="42.82162" lon="-0.09782">
        <ele>1569.49</ele>
        <time>2014-06-20T11:43:19Z</time>
      </trkpt>
      <trkpt lat="42.82166" lon="-0.0978">
        <ele>1569.01</ele>
        <time>2014-06-20T11:43:32Z</time>
      </trkpt>
      <trkpt lat="42.82178" lon="-0.09776">
        <ele>1567.09</ele>
        <time>2014-06-20T11:43:45Z</time>
      </trkpt>
      <trkpt lat="42.8218" lon="-0.09775">
        <ele>1567.09</ele>
        <time>2014-06-20T11:43:47Z</time>
      </trkpt>
      <trkpt lat="42.82191" lon="-0.09766">
        <ele>1565.64</ele>
        <time>2014-06-20T11:44:00Z</time>
      </trkpt>
      <trkpt lat="42.8219" lon="-0.09762">
        <ele>1563.72</ele>
        <time>2014-06-20T11:44:10Z</time>
      </trkpt>
      <trkpt lat="42.82206" lon="-0.09751">
        <ele>1562.28</ele>
        <time>2014-06-20T11:44:23Z</time>
      </trkpt>
      <trkpt lat="42.82221" lon="-0.09739">
        <ele>1561.32</ele>
        <time>2014-06-20T11:44:38Z</time>
      </trkpt>
      <trkpt lat="42.82227" lon="-0.09735">
        <ele>1560.36</ele>
        <time>2014-06-20T11:44:44Z</time>
      </trkpt>
      <trkpt lat="42.82241" lon="-0.09726">
        <ele>1558.92</ele>
        <time>2014-06-20T11:44:58Z</time>
      </trkpt>
      <trkpt lat="42.82247" lon="-0.09723">
        <ele>1558.92</ele>
        <time>2014-06-20T11:45:04Z</time>
      </trkpt>
      <trkpt lat="42.82272" lon="-0.09717">
        <ele>1556.99</ele>
        <time>2014-06-20T11:45:22Z</time>
      </trkpt>
      <trkpt lat="42.82289" lon="-0.09717">
        <ele>1556.03</ele>
        <time>2014-06-20T11:45:37Z</time>
      </trkpt>
      <trkpt lat="42.82298" lon="-0.09716">
        <ele>1555.07</ele>
        <time>2014-06-20T11:45:48Z</time>
      </trkpt>
      <trkpt lat="42.82302" lon="-0.09711">
        <ele>1555.55</ele>
        <time>2014-06-20T11:45:54Z</time>
      </trkpt>
      <trkpt lat="42.82311" lon="-0.09712">
        <ele>1554.11</ele>
        <time>2014-06-20T11:46:00Z</time>
      </trkpt>
      <trkpt lat="42.82316" lon="-0.0971">
        <ele>1554.59</ele>
        <time>2014-06-20T11:46:05Z</time>
      </trkpt>
      <trkpt lat="42.82321" lon="-0.0971">
        <ele>1554.11</ele>
        <time>2014-06-20T11:46:10Z</time>
      </trkpt>
      <trkpt lat="42.82332" lon="-0.09708">
        <ele>1555.07</ele>
        <time>2014-06-20T11:46:22Z</time>
      </trkpt>
      <trkpt lat="42.82339" lon="-0.09704">
        <ele>1555.07</ele>
        <time>2014-06-20T11:46:31Z</time>
      </trkpt>
      <trkpt lat="42.82352" lon="-0.09694">
        <ele>1553.63</ele>
        <time>2014-06-20T11:46:48Z</time>
      </trkpt>
      <trkpt lat="42.82366" lon="-0.09687">
        <ele>1553.15</ele>
        <time>2014-06-20T11:47:06Z</time>
      </trkpt>
      <trkpt lat="42.82373" lon="-0.0968">
        <ele>1552.19</ele>
        <time>2014-06-20T11:47:21Z</time>
      </trkpt>
      <trkpt lat="42.82382" lon="-0.0967">
        <ele>1551.71</ele>
        <time>2014-06-20T11:47:37Z</time>
      </trkpt>
      <trkpt lat="42.82388" lon="-0.09662">
        <ele>1549.78</ele>
        <time>2014-06-20T11:47:49Z</time>
      </trkpt>
      <trkpt lat="42.8239" lon="-0.09658">
        <ele>1550.26</ele>
        <time>2014-06-20T11:48:05Z</time>
      </trkpt>
      <trkpt lat="42.82389" lon="-0.09656">
        <ele>1550.26</ele>
        <time>2014-06-20T11:48:22Z</time>
      </trkpt>
      <trkpt lat="42.82389" lon="-0.09656">
        <ele>1549.78</ele>
        <time>2014-06-20T11:48:46Z</time>
      </trkpt>
      <trkpt lat="42.82387" lon="-0.09647">
        <ele>1549.78</ele>
        <time>2014-06-20T11:48:59Z</time>
      </trkpt>
      <trkpt lat="42.82391" lon="-0.09643">
        <ele>1548.82</ele>
        <time>2014-06-20T11:49:07Z</time>
      </trkpt>
      <trkpt lat="42.82397" lon="-0.0964">
        <ele>1549.3</ele>
        <time>2014-06-20T11:49:24Z</time>
      </trkpt>
      <trkpt lat="42.824" lon="-0.09638">
        <ele>1549.3</ele>
        <time>2014-06-20T11:49:54Z</time>
      </trkpt>
      <trkpt lat="42.8241" lon="-0.09631">
        <ele>1549.3</ele>
        <time>2014-06-20T11:50:13Z</time>
      </trkpt>
      <trkpt lat="42.82412" lon="-0.09634">
        <ele>1548.82</ele>
        <time>2014-06-20T11:50:18Z</time>
      </trkpt>
      <trkpt lat="42.82417" lon="-0.09632">
        <ele>1548.82</ele>
        <time>2014-06-20T11:50:23Z</time>
      </trkpt>
      <trkpt lat="42.82426" lon="-0.09628">
        <ele>1548.82</ele>
        <time>2014-06-20T11:50:34Z</time>
      </trkpt>
      <trkpt lat="42.82438" lon="-0.0963">
        <ele>1547.86</ele>
        <time>2014-06-20T11:50:46Z</time>
      </trkpt>
      <trkpt lat="42.82445" lon="-0.09623">
        <ele>1547.86</ele>
        <time>2014-06-20T11:50:57Z</time>
      </trkpt>
      <trkpt lat="42.82449" lon="-0.09622">
        <ele>1547.86</ele>
        <time>2014-06-20T11:51:00Z</time>
      </trkpt>
      <trkpt lat="42.82462" lon="-0.09619">
        <ele>1546.9</ele>
        <time>2014-06-20T11:51:14Z</time>
      </trkpt>
      <trkpt lat="42.82474" lon="-0.09623">
        <ele>1546.42</ele>
        <time>2014-06-20T11:51:25Z</time>
      </trkpt>
      <trkpt lat="42.82488" lon="-0.0962">
        <ele>1545.94</ele>
        <time>2014-06-20T11:51:40Z</time>
      </trkpt>
      <trkpt lat="42.82497" lon="-0.09624">
        <ele>1545.46</ele>
        <time>2014-06-20T11:51:51Z</time>
      </trkpt>
      <trkpt lat="42.82506" lon="-0.09624">
        <ele>1544.5</ele>
        <time>2014-06-20T11:52:04Z</time>
      </trkpt>
      <trkpt lat="42.82516" lon="-0.09621">
        <ele>1544.5</ele>
        <time>2014-06-20T11:52:17Z</time>
      </trkpt>
      <trkpt lat="42.82518" lon="-0.09619">
        <ele>1544.5</ele>
        <time>2014-06-20T11:52:20Z</time>
      </trkpt>
      <trkpt lat="42.8253" lon="-0.09617">
        <ele>1545.46</ele>
        <time>2014-06-20T11:52:32Z</time>
      </trkpt>
      <trkpt lat="42.82534" lon="-0.09616">
        <ele>1545.46</ele>
        <time>2014-06-20T11:52:36Z</time>
      </trkpt>
      <trkpt lat="42.82536" lon="-0.09617">
        <ele>1546.42</ele>
        <time>2014-06-20T11:52:45Z</time>
      </trkpt>
      <trkpt lat="42.82544" lon="-0.09616">
        <ele>1547.38</ele>
        <time>2014-06-20T11:53:00Z</time>
      </trkpt>
      <trkpt lat="42.82546" lon="-0.09616">
        <ele>1547.38</ele>
        <time>2014-06-20T11:53:09Z</time>
      </trkpt>
      <trkpt lat="42.82561" lon="-0.09618">
        <ele>1546.42</ele>
        <time>2014-06-20T11:53:26Z</time>
      </trkpt>
      <trkpt lat="42.82564" lon="-0.09619">
        <ele>1546.42</ele>
        <time>2014-06-20T11:53:33Z</time>
      </trkpt>
      <trkpt lat="42.82577" lon="-0.09621">
        <ele>1545.46</ele>
        <time>2014-06-20T11:53:46Z</time>
      </trkpt>
      <trkpt lat="42.82587" lon="-0.0962">
        <ele>1544.98</ele>
        <time>2014-06-20T11:53:58Z</time>
      </trkpt>
      <trkpt lat="42.82589" lon="-0.09621">
        <ele>1544.98</ele>
        <time>2014-06-20T11:54:00Z</time>
      </trkpt>
      <trkpt lat="42.82601" lon="-0.09615">
        <ele>1544.01</ele>
        <time>2014-06-20T11:54:12Z</time>
      </trkpt>
      <trkpt lat="42.82604" lon="-0.09616">
        <ele>1544.01</ele>
        <time>2014-06-20T11:54:15Z</time>
      </trkpt>
      <trkpt lat="42.82614" lon="-0.09615">
        <ele>1543.53</ele>
        <time>2014-06-20T11:54:25Z</time>
      </trkpt>
      <trkpt lat="42.82622" lon="-0.09614">
        <ele>1542.09</ele>
        <time>2014-06-20T11:54:31Z</time>
      </trkpt>
      <trkpt lat="42.82636" lon="-0.09612">
        <ele>1542.57</ele>
        <time>2014-06-20T11:54:45Z</time>
      </trkpt>
      <trkpt lat="42.8264" lon="-0.09611">
        <ele>1542.09</ele>
        <time>2014-06-20T11:54:49Z</time>
      </trkpt>
      <trkpt lat="42.8265" lon="-0.09607">
        <ele>1542.09</ele>
        <time>2014-06-20T11:55:03Z</time>
      </trkpt>
      <trkpt lat="42.82656" lon="-0.09605">
        <ele>1540.65</ele>
        <time>2014-06-20T11:55:11Z</time>
      </trkpt>
      <trkpt lat="42.82661" lon="-0.09599">
        <ele>1540.65</ele>
        <time>2014-06-20T11:55:22Z</time>
      </trkpt>
      <trkpt lat="42.82667" lon="-0.09593">
        <ele>1540.17</ele>
        <time>2014-06-20T11:55:33Z</time>
      </trkpt>
      <trkpt lat="42.82671" lon="-0.0959">
        <ele>1539.21</ele>
        <time>2014-06-20T11:55:46Z</time>
      </trkpt>
      <trkpt lat="42.82675" lon="-0.09584">
        <ele>1537.77</ele>
        <time>2014-06-20T11:56:00Z</time>
      </trkpt>
      <trkpt lat="42.82686" lon="-0.09577">
        <ele>1536.8</ele>
        <time>2014-06-20T11:56:16Z</time>
      </trkpt>
      <trkpt lat="42.82689" lon="-0.09573">
        <ele>1535.84</ele>
        <time>2014-06-20T11:56:29Z</time>
      </trkpt>
      <trkpt lat="42.82696" lon="-0.09568">
        <ele>1534.88</ele>
        <time>2014-06-20T11:56:42Z</time>
      </trkpt>
      <trkpt lat="42.82703" lon="-0.09567">
        <ele>1534.4</ele>
        <time>2014-06-20T11:56:45Z</time>
      </trkpt>
      <trkpt lat="42.82711" lon="-0.09565">
        <ele>1533.92</ele>
        <time>2014-06-20T11:56:50Z</time>
      </trkpt>
      <trkpt lat="42.82723" lon="-0.09568">
        <ele>1533.44</ele>
        <time>2014-06-20T11:57:04Z</time>
      </trkpt>
      <trkpt lat="42.82739" lon="-0.09572">
        <ele>1532</ele>
        <time>2014-06-20T11:57:20Z</time>
      </trkpt>
      <trkpt lat="42.8275" lon="-0.09574">
        <ele>1530.56</ele>
        <time>2014-06-20T11:57:30Z</time>
      </trkpt>
      <trkpt lat="42.82756" lon="-0.09578">
        <ele>1530.56</ele>
        <time>2014-06-20T11:57:35Z</time>
      </trkpt>
      <trkpt lat="42.82774" lon="-0.09588">
        <ele>1529.11</ele>
        <time>2014-06-20T11:57:49Z</time>
      </trkpt>
      <trkpt lat="42.8278" lon="-0.09591">
        <ele>1528.15</ele>
        <time>2014-06-20T11:57:59Z</time>
      </trkpt>
      <trkpt lat="42.82794" lon="-0.096">
        <ele>1528.63</ele>
        <time>2014-06-20T11:58:11Z</time>
      </trkpt>
      <trkpt lat="42.82804" lon="-0.09606">
        <ele>1527.19</ele>
        <time>2014-06-20T11:58:26Z</time>
      </trkpt>
      <trkpt lat="42.82806" lon="-0.09607">
        <ele>1526.23</ele>
        <time>2014-06-20T11:58:35Z</time>
      </trkpt>
      <trkpt lat="42.82816" lon="-0.0961">
        <ele>1525.75</ele>
        <time>2014-06-20T11:58:43Z</time>
      </trkpt>
      <trkpt lat="42.82825" lon="-0.09615">
        <ele>1524.31</ele>
        <time>2014-06-20T11:58:55Z</time>
      </trkpt>
      <trkpt lat="42.82833" lon="-0.0962">
        <ele>1523.35</ele>
        <time>2014-06-20T11:59:06Z</time>
      </trkpt>
      <trkpt lat="42.82846" lon="-0.09625">
        <ele>1521.9</ele>
        <time>2014-06-20T11:59:17Z</time>
      </trkpt>
      <trkpt lat="42.82856" lon="-0.09634">
        <ele>1521.42</ele>
        <time>2014-06-20T11:59:23Z</time>
      </trkpt>
      <trkpt lat="42.82862" lon="-0.09637">
        <ele>1520.94</ele>
        <time>2014-06-20T11:59:28Z</time>
      </trkpt>
      <trkpt lat="42.82871" lon="-0.0964">
        <ele>1520.94</ele>
        <time>2014-06-20T11:59:36Z</time>
      </trkpt>
      <trkpt lat="42.82874" lon="-0.09641">
        <ele>1520.46</ele>
        <time>2014-06-20T11:59:38Z</time>
      </trkpt>
      <trkpt lat="42.82891" lon="-0.09643">
        <ele>1521.42</ele>
        <time>2014-06-20T11:59:49Z</time>
      </trkpt>
      <trkpt lat="42.829" lon="-0.09643">
        <ele>1520.94</ele>
        <time>2014-06-20T11:59:57Z</time>
      </trkpt>
      <trkpt lat="42.82904" lon="-0.09642">
        <ele>1519.98</ele>
        <time>2014-06-20T12:00:02Z</time>
      </trkpt>
      <trkpt lat="42.82919" lon="-0.09646">
        <ele>1519.98</ele>
        <time>2014-06-20T12:00:15Z</time>
      </trkpt>
      <trkpt lat="42.82926" lon="-0.0965">
        <ele>1519.5</ele>
        <time>2014-06-20T12:00:23Z</time>
      </trkpt>
      <trkpt lat="42.82929" lon="-0.09654">
        <ele>1519.02</ele>
        <time>2014-06-20T12:00:29Z</time>
      </trkpt>
      <trkpt lat="42.82938" lon="-0.09647">
        <ele>1518.54</ele>
        <time>2014-06-20T12:00:39Z</time>
      </trkpt>
      <trkpt lat="42.82939" lon="-0.09648">
        <ele>1519.02</ele>
        <time>2014-06-20T12:00:41Z</time>
      </trkpt>
      <trkpt lat="42.82949" lon="-0.09647">
        <ele>1517.1</ele>
        <time>2014-06-20T12:00:54Z</time>
      </trkpt>
      <trkpt lat="42.82959" lon="-0.09648">
        <ele>1516.62</ele>
        <time>2014-06-20T12:01:07Z</time>
      </trkpt>
      <trkpt lat="42.82959" lon="-0.09647">
        <ele>1517.1</ele>
        <time>2014-06-20T12:01:26Z</time>
      </trkpt>
      <trkpt lat="42.82958" lon="-0.09647">
        <ele>1517.1</ele>
        <time>2014-06-20T12:01:47Z</time>
      </trkpt>
      <trkpt lat="42.82959" lon="-0.09647">
        <ele>1517.1</ele>
        <time>2014-06-20T12:02:07Z</time>
      </trkpt>
      <trkpt lat="42.82963" lon="-0.09646">
        <ele>1516.62</ele>
        <time>2014-06-20T12:02:24Z</time>
      </trkpt>
      <trkpt lat="42.82968" lon="-0.09642">
        <ele>1516.14</ele>
        <time>2014-06-20T12:02:35Z</time>
      </trkpt>
      <trkpt lat="42.82977" lon="-0.09645">
        <ele>1516.62</ele>
        <time>2014-06-20T12:02:43Z</time>
      </trkpt>
      <trkpt lat="42.82986" lon="-0.0965">
        <ele>1516.14</ele>
        <time>2014-06-20T12:02:54Z</time>
      </trkpt>
      <trkpt lat="42.82993" lon="-0.09652">
        <ele>1515.18</ele>
        <time>2014-06-20T12:03:00Z</time>
      </trkpt>
      <trkpt lat="42.82997" lon="-0.09653">
        <ele>1515.66</ele>
        <time>2014-06-20T12:03:03Z</time>
      </trkpt>
      <trkpt lat="42.83009" lon="-0.09653">
        <ele>1515.18</ele>
        <time>2014-06-20T12:03:16Z</time>
      </trkpt>
      <trkpt lat="42.8301" lon="-0.09651">
        <ele>1515.66</ele>
        <time>2014-06-20T12:03:19Z</time>
      </trkpt>
      <trkpt lat="42.83018" lon="-0.09639">
        <ele>1517.58</ele>
        <time>2014-06-20T12:03:34Z</time>
      </trkpt>
      <trkpt lat="42.83025" lon="-0.09633">
        <ele>1516.62</ele>
        <time>2014-06-20T12:03:46Z</time>
      </trkpt>
      <trkpt lat="42.83033" lon="-0.09624">
        <ele>1517.1</ele>
        <time>2014-06-20T12:03:58Z</time>
      </trkpt>
      <trkpt lat="42.83035" lon="-0.09622">
        <ele>1516.62</ele>
        <time>2014-06-20T12:04:02Z</time>
      </trkpt>
      <trkpt lat="42.83041" lon="-0.0962">
        <ele>1516.14</ele>
        <time>2014-06-20T12:04:14Z</time>
      </trkpt>
      <trkpt lat="42.8305" lon="-0.09619">
        <ele>1515.66</ele>
        <time>2014-06-20T12:04:22Z</time>
      </trkpt>
      <trkpt lat="42.83055" lon="-0.09617">
        <ele>1515.66</ele>
        <time>2014-06-20T12:04:26Z</time>
      </trkpt>
      <trkpt lat="42.83065" lon="-0.09613">
        <ele>1515.66</ele>
        <time>2014-06-20T12:04:39Z</time>
      </trkpt>
      <trkpt lat="42.83077" lon="-0.09606">
        <ele>1514.69</ele>
        <time>2014-06-20T12:04:54Z</time>
      </trkpt>
      <trkpt lat="42.83088" lon="-0.09605">
        <ele>1514.21</ele>
        <time>2014-06-20T12:05:03Z</time>
      </trkpt>
      <trkpt lat="42.83093" lon="-0.09602">
        <ele>1514.21</ele>
        <time>2014-06-20T12:05:11Z</time>
      </trkpt>
      <trkpt lat="42.83104" lon="-0.09598">
        <ele>1514.21</ele>
        <time>2014-06-20T12:05:22Z</time>
      </trkpt>
      <trkpt lat="42.83105" lon="-0.09597">
        <ele>1513.73</ele>
        <time>2014-06-20T12:05:23Z</time>
      </trkpt>
      <trkpt lat="42.83116" lon="-0.09595">
        <ele>1513.25</ele>
        <time>2014-06-20T12:05:33Z</time>
      </trkpt>
      <trkpt lat="42.83122" lon="-0.09594">
        <ele>1513.25</ele>
        <time>2014-06-20T12:05:39Z</time>
      </trkpt>
      <trkpt lat="42.83134" lon="-0.09589">
        <ele>1511.81</ele>
        <time>2014-06-20T12:05:50Z</time>
      </trkpt>
      <trkpt lat="42.83137" lon="-0.09587">
        <ele>1511.81</ele>
        <time>2014-06-20T12:05:53Z</time>
      </trkpt>
      <trkpt lat="42.83144" lon="-0.09585">
        <ele>1511.33</ele>
        <time>2014-06-20T12:05:58Z</time>
      </trkpt>
      <trkpt lat="42.83149" lon="-0.09581">
        <ele>1510.37</ele>
        <time>2014-06-20T12:06:03Z</time>
      </trkpt>
      <trkpt lat="42.83158" lon="-0.09577">
        <ele>1508.45</ele>
        <time>2014-06-20T12:06:15Z</time>
      </trkpt>
      <trkpt lat="42.83166" lon="-0.09576">
        <ele>1507</ele>
        <time>2014-06-20T12:06:28Z</time>
      </trkpt>
      <trkpt lat="42.8317" lon="-0.09577">
        <ele>1506.04</ele>
        <time>2014-06-20T12:06:40Z</time>
      </trkpt>
      <trkpt lat="42.83178" lon="-0.09577">
        <ele>1504.6</ele>
        <time>2014-06-20T12:06:50Z</time>
      </trkpt>
      <trkpt lat="42.83182" lon="-0.09576">
        <ele>1504.12</ele>
        <time>2014-06-20T12:06:52Z</time>
      </trkpt>
      <trkpt lat="42.83199" lon="-0.09573">
        <ele>1502.2</ele>
        <time>2014-06-20T12:07:07Z</time>
      </trkpt>
      <trkpt lat="42.83207" lon="-0.09575">
        <ele>1500.27</ele>
        <time>2014-06-20T12:07:22Z</time>
      </trkpt>
      <trkpt lat="42.83209" lon="-0.09576">
        <ele>1497.87</ele>
        <time>2014-06-20T12:07:38Z</time>
      </trkpt>
      <trkpt lat="42.83211" lon="-0.09576">
        <ele>1496.91</ele>
        <time>2014-06-20T12:07:42Z</time>
      </trkpt>
      <trkpt lat="42.83225" lon="-0.09579">
        <ele>1494.99</ele>
        <time>2014-06-20T12:07:55Z</time>
      </trkpt>
      <trkpt lat="42.83232" lon="-0.09585">
        <ele>1493.55</ele>
        <time>2014-06-20T12:08:03Z</time>
      </trkpt>
      <trkpt lat="42.83242" lon="-0.09593">
        <ele>1491.14</ele>
        <time>2014-06-20T12:08:14Z</time>
      </trkpt>
      <trkpt lat="42.83263" lon="-0.09598">
        <ele>1489.7</ele>
        <time>2014-06-20T12:08:28Z</time>
      </trkpt>
      <trkpt lat="42.8327" lon="-0.09597">
        <ele>1489.22</ele>
        <time>2014-06-20T12:08:34Z</time>
      </trkpt>
      <trkpt lat="42.83291" lon="-0.09603">
        <ele>1488.26</ele>
        <time>2014-06-20T12:08:48Z</time>
      </trkpt>
      <trkpt lat="42.83298" lon="-0.09602">
        <ele>1487.78</ele>
        <time>2014-06-20T12:08:53Z</time>
      </trkpt>
      <trkpt lat="42.83305" lon="-0.09604">
        <ele>1487.3</ele>
        <time>2014-06-20T12:08:57Z</time>
      </trkpt>
      <trkpt lat="42.83318" lon="-0.09605">
        <ele>1473.36</ele>
        <time>2014-06-20T12:09:06Z</time>
      </trkpt>
      <trkpt lat="42.83319" lon="-0.09604">
        <ele>1488.74</ele>
        <time>2014-06-20T12:09:07Z</time>
      </trkpt>
      <trkpt lat="42.8332" lon="-0.09604">
        <ele>1487.3</ele>
        <time>2014-06-20T12:09:08Z</time>
      </trkpt>
      <trkpt lat="42.83328" lon="-0.09601">
        <ele>1486.34</ele>
        <time>2014-06-20T12:09:14Z</time>
      </trkpt>
      <trkpt lat="42.83336" lon="-0.09601">
        <ele>1486.82</ele>
        <time>2014-06-20T12:09:21Z</time>
      </trkpt>
      <trkpt lat="42.8335" lon="-0.09599">
        <ele>1485.37</ele>
        <time>2014-06-20T12:09:34Z</time>
      </trkpt>
      <trkpt lat="42.83356" lon="-0.09598">
        <ele>1485.37</ele>
        <time>2014-06-20T12:09:41Z</time>
      </trkpt>
      <trkpt lat="42.83358" lon="-0.09598">
        <ele>1485.37</ele>
        <time>2014-06-20T12:09:42Z</time>
      </trkpt>
      <trkpt lat="42.83362" lon="-0.09598">
        <ele>1485.37</ele>
        <time>2014-06-20T12:09:45Z</time>
      </trkpt>
      <trkpt lat="42.83377" lon="-0.09591">
        <ele>1484.41</ele>
        <time>2014-06-20T12:09:57Z</time>
      </trkpt>
      <trkpt lat="42.83377" lon="-0.09591">
        <ele>1483.93</ele>
        <time>2014-06-20T12:09:58Z</time>
      </trkpt>
      <trkpt lat="42.8339" lon="-0.09595">
        <ele>1483.45</ele>
        <time>2014-06-20T12:10:11Z</time>
      </trkpt>
      <trkpt lat="42.83392" lon="-0.09597">
        <ele>1483.45</ele>
        <time>2014-06-20T12:10:12Z</time>
      </trkpt>
      <trkpt lat="42.83397" lon="-0.096">
        <ele>1483.45</ele>
        <time>2014-06-20T12:10:16Z</time>
      </trkpt>
      <trkpt lat="42.83399" lon="-0.09601">
        <ele>1483.45</ele>
        <time>2014-06-20T12:10:17Z</time>
      </trkpt>
      <trkpt lat="42.83417" lon="-0.09598">
        <ele>1483.45</ele>
        <time>2014-06-20T12:10:28Z</time>
      </trkpt>
      <trkpt lat="42.83436" lon="-0.09598">
        <ele>1482.97</ele>
        <time>2014-06-20T12:10:37Z</time>
      </trkpt>
      <trkpt lat="42.83439" lon="-0.09599">
        <ele>1483.45</ele>
        <time>2014-06-20T12:10:41Z</time>
      </trkpt>
      <trkpt lat="42.8344" lon="-0.09599">
        <ele>1482.97</ele>
        <time>2014-06-20T12:10:42Z</time>
      </trkpt>
      <trkpt lat="42.83441" lon="-0.09599">
        <ele>1482.97</ele>
        <time>2014-06-20T12:10:43Z</time>
      </trkpt>
      <trkpt lat="42.83454" lon="-0.0961">
        <ele>1482.97</ele>
        <time>2014-06-20T12:10:56Z</time>
      </trkpt>
      <trkpt lat="42.83461" lon="-0.09614">
        <ele>1483.45</ele>
        <time>2014-06-20T12:11:08Z</time>
      </trkpt>
      <trkpt lat="42.83469" lon="-0.09621">
        <ele>1481.53</ele>
        <time>2014-06-20T12:11:20Z</time>
      </trkpt>
      <trkpt lat="42.83475" lon="-0.09625">
        <ele>1480.57</ele>
        <time>2014-06-20T12:11:30Z</time>
      </trkpt>
      <trkpt lat="42.83481" lon="-0.09631">
        <ele>1480.09</ele>
        <time>2014-06-20T12:11:34Z</time>
      </trkpt>
      <trkpt lat="42.83493" lon="-0.09638">
        <ele>1480.09</ele>
        <time>2014-06-20T12:11:41Z</time>
      </trkpt>
      <trkpt lat="42.83508" lon="-0.09643">
        <ele>1479.61</ele>
        <time>2014-06-20T12:11:51Z</time>
      </trkpt>
      <trkpt lat="42.83516" lon="-0.09645">
        <ele>1480.09</ele>
        <time>2014-06-20T12:11:56Z</time>
      </trkpt>
      <trkpt lat="42.83524" lon="-0.09649">
        <ele>1479.13</ele>
        <time>2014-06-20T12:12:03Z</time>
      </trkpt>
      <trkpt lat="42.8354" lon="-0.09658">
        <ele>1478.16</ele>
        <time>2014-06-20T12:12:17Z</time>
      </trkpt>
      <trkpt lat="42.83547" lon="-0.09661">
        <ele>1477.68</ele>
        <time>2014-06-20T12:12:24Z</time>
      </trkpt>
      <trkpt lat="42.83561" lon="-0.09671">
        <ele>1476.72</ele>
        <time>2014-06-20T12:12:34Z</time>
      </trkpt>
      <trkpt lat="42.83572" lon="-0.09673">
        <ele>1476.72</ele>
        <time>2014-06-20T12:12:42Z</time>
      </trkpt>
      <trkpt lat="42.83588" lon="-0.09672">
        <ele>1475.76</ele>
        <time>2014-06-20T12:12:58Z</time>
      </trkpt>
      <trkpt lat="42.83591" lon="-0.09671">
        <ele>1475.28</ele>
        <time>2014-06-20T12:13:02Z</time>
      </trkpt>
      <trkpt lat="42.83605" lon="-0.09669">
        <ele>1475.76</ele>
        <time>2014-06-20T12:13:12Z</time>
      </trkpt>
      <trkpt lat="42.83609" lon="-0.09667">
        <ele>1475.28</ele>
        <time>2014-06-20T12:13:15Z</time>
      </trkpt>
      <trkpt lat="42.83613" lon="-0.09666">
        <ele>1474.8</ele>
        <time>2014-06-20T12:13:18Z</time>
      </trkpt>
      <trkpt lat="42.8362" lon="-0.09665">
        <ele>1475.28</ele>
        <time>2014-06-20T12:13:25Z</time>
      </trkpt>
      <trkpt lat="42.83633" lon="-0.09665">
        <ele>1474.32</ele>
        <time>2014-06-20T12:13:36Z</time>
      </trkpt>
      <trkpt lat="42.83637" lon="-0.09668">
        <ele>1474.32</ele>
        <time>2014-06-20T12:13:41Z</time>
      </trkpt>
      <trkpt lat="42.83643" lon="-0.09669">
        <ele>1473.84</ele>
        <time>2014-06-20T12:13:45Z</time>
      </trkpt>
      <trkpt lat="42.83649" lon="-0.09669">
        <ele>1472.88</ele>
        <time>2014-06-20T12:13:51Z</time>
      </trkpt>
      <trkpt lat="42.83661" lon="-0.09671">
        <ele>1472.88</ele>
        <time>2014-06-20T12:14:02Z</time>
      </trkpt>
      <trkpt lat="42.8367" lon="-0.09669">
        <ele>1472.4</ele>
        <time>2014-06-20T12:14:10Z</time>
      </trkpt>
      <trkpt lat="42.83673" lon="-0.09667">
        <ele>1472.88</ele>
        <time>2014-06-20T12:14:12Z</time>
      </trkpt>
      <trkpt lat="42.83688" lon="-0.09661">
        <ele>1471.92</ele>
        <time>2014-06-20T12:14:23Z</time>
      </trkpt>
      <trkpt lat="42.83689" lon="-0.0966">
        <ele>1471.44</ele>
        <time>2014-06-20T12:14:24Z</time>
      </trkpt>
      <trkpt lat="42.83696" lon="-0.09656">
        <ele>1471.44</ele>
        <time>2014-06-20T12:14:29Z</time>
      </trkpt>
      <trkpt lat="42.83704" lon="-0.09649">
        <ele>1471.44</ele>
        <time>2014-06-20T12:14:37Z</time>
      </trkpt>
      <trkpt lat="42.83715" lon="-0.09645">
        <ele>1471.44</ele>
        <time>2014-06-20T12:14:48Z</time>
      </trkpt>
      <trkpt lat="42.83729" lon="-0.09635">
        <ele>1470.95</ele>
        <time>2014-06-20T12:15:01Z</time>
      </trkpt>
      <trkpt lat="42.83734" lon="-0.09634">
        <ele>1470.95</ele>
        <time>2014-06-20T12:15:04Z</time>
      </trkpt>
      <trkpt lat="42.83743" lon="-0.09633">
        <ele>1470.95</ele>
        <time>2014-06-20T12:15:11Z</time>
      </trkpt>
      <trkpt lat="42.83747" lon="-0.09632">
        <ele>1470.47</ele>
        <time>2014-06-20T12:15:15Z</time>
      </trkpt>
      <trkpt lat="42.83764" lon="-0.09623">
        <ele>1469.99</ele>
        <time>2014-06-20T12:15:28Z</time>
      </trkpt>
      <trkpt lat="42.83778" lon="-0.09615">
        <ele>1469.51</ele>
        <time>2014-06-20T12:15:43Z</time>
      </trkpt>
      <trkpt lat="42.83794" lon="-0.09608">
        <ele>1469.03</ele>
        <time>2014-06-20T12:15:55Z</time>
      </trkpt>
      <trkpt lat="42.83806" lon="-0.09603">
        <ele>1468.55</ele>
        <time>2014-06-20T12:16:09Z</time>
      </trkpt>
      <trkpt lat="42.83809" lon="-0.09602">
        <ele>1468.55</ele>
        <time>2014-06-20T12:16:13Z</time>
      </trkpt>
      <trkpt lat="42.83815" lon="-0.09601">
        <ele>1468.55</ele>
        <time>2014-06-20T12:16:17Z</time>
      </trkpt>
      <trkpt lat="42.83818" lon="-0.09601">
        <ele>1468.55</ele>
        <time>2014-06-20T12:16:20Z</time>
      </trkpt>
      <trkpt lat="42.8383" lon="-0.096">
        <ele>1468.55</ele>
        <time>2014-06-20T12:16:31Z</time>
      </trkpt>
      <trkpt lat="42.83836" lon="-0.096">
        <ele>1468.55</ele>
        <time>2014-06-20T12:16:38Z</time>
      </trkpt>
      <trkpt lat="42.83839" lon="-0.09603">
        <ele>1468.07</ele>
        <time>2014-06-20T12:16:41Z</time>
      </trkpt>
      <trkpt lat="42.83845" lon="-0.09604">
        <ele>1468.07</ele>
        <time>2014-06-20T12:16:45Z</time>
      </trkpt>
      <trkpt lat="42.83854" lon="-0.09606">
        <ele>1468.07</ele>
        <time>2014-06-20T12:16:52Z</time>
      </trkpt>
      <trkpt lat="42.83859" lon="-0.09609">
        <ele>1467.11</ele>
        <time>2014-06-20T12:16:56Z</time>
      </trkpt>
      <trkpt lat="42.83865" lon="-0.09611">
        <ele>1467.11</ele>
        <time>2014-06-20T12:17:02Z</time>
      </trkpt>
      <trkpt lat="42.83871" lon="-0.09612">
        <ele>1467.59</ele>
        <time>2014-06-20T12:17:07Z</time>
      </trkpt>
      <trkpt lat="42.83875" lon="-0.09616">
        <ele>1468.07</ele>
        <time>2014-06-20T12:17:10Z</time>
      </trkpt>
      <trkpt lat="42.83878" lon="-0.09617">
        <ele>1467.11</ele>
        <time>2014-06-20T12:17:12Z</time>
      </trkpt>
      <trkpt lat="42.8388" lon="-0.09615">
        <ele>1467.59</ele>
        <time>2014-06-20T12:17:14Z</time>
      </trkpt>
      <trkpt lat="42.83901" lon="-0.09617">
        <ele>1466.63</ele>
        <time>2014-06-20T12:17:28Z</time>
      </trkpt>
      <trkpt lat="42.83917" lon="-0.09619">
        <ele>1466.15</ele>
        <time>2014-06-20T12:17:39Z</time>
      </trkpt>
      <trkpt lat="42.83922" lon="-0.09622">
        <ele>1466.15</ele>
        <time>2014-06-20T12:17:44Z</time>
      </trkpt>
      <trkpt lat="42.83926" lon="-0.09622">
        <ele>1466.15</ele>
        <time>2014-06-20T12:17:47Z</time>
      </trkpt>
      <trkpt lat="42.83938" lon="-0.09623">
        <ele>1466.15</ele>
        <time>2014-06-20T12:18:00Z</time>
      </trkpt>
      <trkpt lat="42.83942" lon="-0.09622">
        <ele>1465.67</ele>
        <time>2014-06-20T12:18:04Z</time>
      </trkpt>
      <trkpt lat="42.83957" lon="-0.09624">
        <ele>1465.19</ele>
        <time>2014-06-20T12:18:17Z</time>
      </trkpt>
      <trkpt lat="42.83969" lon="-0.09625">
        <ele>1465.67</ele>
        <time>2014-06-20T12:18:29Z</time>
      </trkpt>
      <trkpt lat="42.8397" lon="-0.09625">
        <ele>1465.19</ele>
        <time>2014-06-20T12:18:31Z</time>
      </trkpt>
      <trkpt lat="42.83973" lon="-0.09626">
        <ele>1465.19</ele>
        <time>2014-06-20T12:18:34Z</time>
      </trkpt>
      <trkpt lat="42.83978" lon="-0.09634">
        <ele>1465.19</ele>
        <time>2014-06-20T12:18:45Z</time>
      </trkpt>
      <trkpt lat="42.83987" lon="-0.0964">
        <ele>1464.23</ele>
        <time>2014-06-20T12:18:55Z</time>
      </trkpt>
      <trkpt lat="42.83996" lon="-0.0965">
        <ele>1463.74</ele>
        <time>2014-06-20T12:19:08Z</time>
      </trkpt>
      <trkpt lat="42.84004" lon="-0.09655">
        <ele>1463.74</ele>
        <time>2014-06-20T12:19:19Z</time>
      </trkpt>
      <trkpt lat="42.84007" lon="-0.09654">
        <ele>1463.26</ele>
        <time>2014-06-20T12:19:22Z</time>
      </trkpt>
      <trkpt lat="42.84008" lon="-0.09653">
        <ele>1462.78</ele>
        <time>2014-06-20T12:19:23Z</time>
      </trkpt>
      <trkpt lat="42.84015" lon="-0.09654">
        <ele>1463.26</ele>
        <time>2014-06-20T12:19:25Z</time>
      </trkpt>
      <trkpt lat="42.84017" lon="-0.09652">
        <ele>1463.26</ele>
        <time>2014-06-20T12:19:27Z</time>
      </trkpt>
      <trkpt lat="42.84039" lon="-0.09657">
        <ele>1462.78</ele>
        <time>2014-06-20T12:19:40Z</time>
      </trkpt>
      <trkpt lat="42.84045" lon="-0.09659">
        <ele>1462.78</ele>
        <time>2014-06-20T12:19:51Z</time>
      </trkpt>
      <trkpt lat="42.8406" lon="-0.09661">
        <ele>1462.78</ele>
        <time>2014-06-20T12:20:04Z</time>
      </trkpt>
      <trkpt lat="42.84064" lon="-0.09662">
        <ele>1463.74</ele>
        <time>2014-06-20T12:20:08Z</time>
      </trkpt>
      <trkpt lat="42.84077" lon="-0.09672">
        <ele>1463.74</ele>
        <time>2014-06-20T12:20:23Z</time>
      </trkpt>
      <trkpt lat="42.84083" lon="-0.09681">
        <ele>1460.86</ele>
        <time>2014-06-20T12:20:39Z</time>
      </trkpt>
      <trkpt lat="42.84088" lon="-0.09687">
        <ele>1459.42</ele>
        <time>2014-06-20T12:20:51Z</time>
      </trkpt>
      <trkpt lat="42.84096" lon="-0.09694">
        <ele>1457.98</ele>
        <time>2014-06-20T12:21:06Z</time>
      </trkpt>
      <trkpt lat="42.84106" lon="-0.09705">
        <ele>1456.05</ele>
        <time>2014-06-20T12:21:18Z</time>
      </trkpt>
      <trkpt lat="42.8412" lon="-0.09716">
        <ele>1453.17</ele>
        <time>2014-06-20T12:21:35Z</time>
      </trkpt>
      <trkpt lat="42.84131" lon="-0.09721">
        <ele>1451.73</ele>
        <time>2014-06-20T12:21:45Z</time>
      </trkpt>
      <trkpt lat="42.84143" lon="-0.0973">
        <ele>1451.73</ele>
        <time>2014-06-20T12:21:54Z</time>
      </trkpt>
      <trkpt lat="42.84151" lon="-0.09732">
        <ele>1450.29</ele>
        <time>2014-06-20T12:22:00Z</time>
      </trkpt>
      <trkpt lat="42.84168" lon="-0.09731">
        <ele>1448.84</ele>
        <time>2014-06-20T12:22:14Z</time>
      </trkpt>
      <trkpt lat="42.84174" lon="-0.09727">
        <ele>1448.36</ele>
        <time>2014-06-20T12:22:22Z</time>
      </trkpt>
      <trkpt lat="42.84186" lon="-0.09716">
        <ele>1447.4</ele>
        <time>2014-06-20T12:22:37Z</time>
      </trkpt>
      <trkpt lat="42.84189" lon="-0.09705">
        <ele>1446.44</ele>
        <time>2014-06-20T12:22:48Z</time>
      </trkpt>
      <trkpt lat="42.8419" lon="-0.09703">
        <ele>1445.96</ele>
        <time>2014-06-20T12:22:50Z</time>
      </trkpt>
      <trkpt lat="42.8419" lon="-0.09698">
        <ele>1445.96</ele>
        <time>2014-06-20T12:22:53Z</time>
      </trkpt>
      <trkpt lat="42.84194" lon="-0.09686">
        <ele>1444.52</ele>
        <time>2014-06-20T12:23:02Z</time>
      </trkpt>
      <trkpt lat="42.84195" lon="-0.0968">
        <ele>1444.04</ele>
        <time>2014-06-20T12:23:06Z</time>
      </trkpt>
      <trkpt lat="42.84195" lon="-0.09676">
        <ele>1443.56</ele>
        <time>2014-06-20T12:23:08Z</time>
      </trkpt>
      <trkpt lat="42.84197" lon="-0.09666">
        <ele>1444.52</ele>
        <time>2014-06-20T12:23:13Z</time>
      </trkpt>
      <trkpt lat="42.8421" lon="-0.09653">
        <ele>1442.6</ele>
        <time>2014-06-20T12:23:26Z</time>
      </trkpt>
      <trkpt lat="42.84221" lon="-0.0965">
        <ele>1442.6</ele>
        <time>2014-06-20T12:23:37Z</time>
      </trkpt>
      <trkpt lat="42.84229" lon="-0.0965">
        <ele>1443.08</ele>
        <time>2014-06-20T12:23:43Z</time>
      </trkpt>
      <trkpt lat="42.84238" lon="-0.09649">
        <ele>1442.6</ele>
        <time>2014-06-20T12:23:52Z</time>
      </trkpt>
      <trkpt lat="42.84241" lon="-0.09649">
        <ele>1442.6</ele>
        <time>2014-06-20T12:23:54Z</time>
      </trkpt>
      <trkpt lat="42.84256" lon="-0.0965">
        <ele>1442.6</ele>
        <time>2014-06-20T12:24:09Z</time>
      </trkpt>
      <trkpt lat="42.84261" lon="-0.0965">
        <ele>1441.63</ele>
        <time>2014-06-20T12:24:16Z</time>
      </trkpt>
      <trkpt lat="42.84263" lon="-0.09649">
        <ele>1441.15</ele>
        <time>2014-06-20T12:24:18Z</time>
      </trkpt>
      <trkpt lat="42.84273" lon="-0.09651">
        <ele>1442.11</ele>
        <time>2014-06-20T12:24:28Z</time>
      </trkpt>
      <trkpt lat="42.84288" lon="-0.09657">
        <ele>1443.08</ele>
        <time>2014-06-20T12:24:40Z</time>
      </trkpt>
      <trkpt lat="42.8429" lon="-0.09658">
        <ele>1443.08</ele>
        <time>2014-06-20T12:24:42Z</time>
      </trkpt>
      <trkpt lat="42.84302" lon="-0.09659">
        <ele>1443.08</ele>
        <time>2014-06-20T12:24:55Z</time>
      </trkpt>
      <trkpt lat="42.84314" lon="-0.09658">
        <ele>1441.63</ele>
        <time>2014-06-20T12:25:09Z</time>
      </trkpt>
      <trkpt lat="42.84316" lon="-0.09658">
        <ele>1441.63</ele>
        <time>2014-06-20T12:25:11Z</time>
      </trkpt>
      <trkpt lat="42.84329" lon="-0.09656">
        <ele>1440.19</ele>
        <time>2014-06-20T12:25:27Z</time>
      </trkpt>
      <trkpt lat="42.84339" lon="-0.09658">
        <ele>1439.23</ele>
        <time>2014-06-20T12:25:41Z</time>
      </trkpt>
      <trkpt lat="42.84353" lon="-0.09656">
        <ele>1438.75</ele>
        <time>2014-06-20T12:25:56Z</time>
      </trkpt>
      <trkpt lat="42.84365" lon="-0.09656">
        <ele>1437.31</ele>
        <time>2014-06-20T12:26:10Z</time>
      </trkpt>
      <trkpt lat="42.84384" lon="-0.09658">
        <ele>1435.39</ele>
        <time>2014-06-20T12:26:24Z</time>
      </trkpt>
      <trkpt lat="42.84411" lon="-0.09658">
        <ele>1434.91</ele>
        <time>2014-06-20T12:26:39Z</time>
      </trkpt>
      <trkpt lat="42.84423" lon="-0.09654">
        <ele>1431.54</ele>
        <time>2014-06-20T12:26:50Z</time>
      </trkpt>
      <trkpt lat="42.84433" lon="-0.09651">
        <ele>1430.1</ele>
        <time>2014-06-20T12:27:00Z</time>
      </trkpt>
      <trkpt lat="42.84443" lon="-0.09646">
        <ele>1427.7</ele>
        <time>2014-06-20T12:27:17Z</time>
      </trkpt>
      <trkpt lat="42.84452" lon="-0.09642">
        <ele>1425.29</ele>
        <time>2014-06-20T12:27:31Z</time>
      </trkpt>
      <trkpt lat="42.84454" lon="-0.09643">
        <ele>1425.77</ele>
        <time>2014-06-20T12:27:45Z</time>
      </trkpt>
      <trkpt lat="42.84462" lon="-0.0964">
        <ele>1422.89</ele>
        <time>2014-06-20T12:28:00Z</time>
      </trkpt>
      <trkpt lat="42.84467" lon="-0.09638">
        <ele>1420.97</ele>
        <time>2014-06-20T12:28:07Z</time>
      </trkpt>
      <trkpt lat="42.84481" lon="-0.09633">
        <ele>1418.08</ele>
        <time>2014-06-20T12:28:25Z</time>
      </trkpt>
      <trkpt lat="42.8449" lon="-0.0963">
        <ele>1416.64</ele>
        <time>2014-06-20T12:28:35Z</time>
      </trkpt>
      <trkpt lat="42.84494" lon="-0.0963">
        <ele>1415.68</ele>
        <time>2014-06-20T12:28:37Z</time>
      </trkpt>
      <trkpt lat="42.84497" lon="-0.09629">
        <ele>1415.68</ele>
        <time>2014-06-20T12:28:40Z</time>
      </trkpt>
      <trkpt lat="42.845" lon="-0.09627">
        <ele>1415.2</ele>
        <time>2014-06-20T12:28:43Z</time>
      </trkpt>
      <trkpt lat="42.84502" lon="-0.09627">
        <ele>1415.2</ele>
        <time>2014-06-20T12:28:45Z</time>
      </trkpt>
      <trkpt lat="42.84519" lon="-0.09616">
        <ele>1413.76</ele>
        <time>2014-06-20T12:29:00Z</time>
      </trkpt>
      <trkpt lat="42.84526" lon="-0.09615">
        <ele>1413.28</ele>
        <time>2014-06-20T12:29:07Z</time>
      </trkpt>
      <trkpt lat="42.8453" lon="-0.09615">
        <ele>1413.28</ele>
        <time>2014-06-20T12:29:10Z</time>
      </trkpt>
      <trkpt lat="42.84536" lon="-0.09613">
        <ele>1412.31</ele>
        <time>2014-06-20T12:29:17Z</time>
      </trkpt>
      <trkpt lat="42.8455" lon="-0.09615">
        <ele>1410.87</ele>
        <time>2014-06-20T12:29:29Z</time>
      </trkpt>
      <trkpt lat="42.84567" lon="-0.0962">
        <ele>1410.39</ele>
        <time>2014-06-20T12:29:45Z</time>
      </trkpt>
      <trkpt lat="42.84577" lon="-0.09627">
        <ele>1409.43</ele>
        <time>2014-06-20T12:29:58Z</time>
      </trkpt>
      <trkpt lat="42.84581" lon="-0.09625">
        <ele>1408.47</ele>
        <time>2014-06-20T12:30:06Z</time>
      </trkpt>
      <trkpt lat="42.84586" lon="-0.09624">
        <ele>1407.51</ele>
        <time>2014-06-20T12:30:09Z</time>
      </trkpt>
      <trkpt lat="42.84606" lon="-0.09618">
        <ele>1406.07</ele>
        <time>2014-06-20T12:30:28Z</time>
      </trkpt>
      <trkpt lat="42.84614" lon="-0.09617">
        <ele>1405.1</ele>
        <time>2014-06-20T12:30:36Z</time>
      </trkpt>
      <trkpt lat="42.8463" lon="-0.09613">
        <ele>1404.14</ele>
        <time>2014-06-20T12:30:51Z</time>
      </trkpt>
      <trkpt lat="42.84632" lon="-0.09613">
        <ele>1404.14</ele>
        <time>2014-06-20T12:30:53Z</time>
      </trkpt>
      <trkpt lat="42.84649" lon="-0.09617">
        <ele>1404.14</ele>
        <time>2014-06-20T12:31:09Z</time>
      </trkpt>
      <trkpt lat="42.84659" lon="-0.09617">
        <ele>1403.66</ele>
        <time>2014-06-20T12:31:22Z</time>
      </trkpt>
      <trkpt lat="42.84668" lon="-0.09621">
        <ele>1403.18</ele>
        <time>2014-06-20T12:31:34Z</time>
      </trkpt>
      <trkpt lat="42.84677" lon="-0.09619">
        <ele>1403.66</ele>
        <time>2014-06-20T12:31:47Z</time>
      </trkpt>
      <trkpt lat="42.84682" lon="-0.09618">
        <ele>1402.7</ele>
        <time>2014-06-20T12:31:59Z</time>
      </trkpt>
      <trkpt lat="42.84688" lon="-0.09617">
        <ele>1401.26</ele>
        <time>2014-06-20T12:32:14Z</time>
      </trkpt>
      <trkpt lat="42.847" lon="-0.09619">
        <ele>1399.82</ele>
        <time>2014-06-20T12:32:27Z</time>
      </trkpt>
      <trkpt lat="42.84719" lon="-0.09623">
        <ele>1398.37</ele>
        <time>2014-06-20T12:32:42Z</time>
      </trkpt>
      <trkpt lat="42.8473" lon="-0.09626">
        <ele>1398.37</ele>
        <time>2014-06-20T12:32:53Z</time>
      </trkpt>
      <trkpt lat="42.84753" lon="-0.09641">
        <ele>1397.41</ele>
        <time>2014-06-20T12:33:11Z</time>
      </trkpt>
      <trkpt lat="42.84754" lon="-0.09641">
        <ele>1397.41</ele>
        <time>2014-06-20T12:33:12Z</time>
      </trkpt>
      <trkpt lat="42.84775" lon="-0.09652">
        <ele>1396.93</ele>
        <time>2014-06-20T12:33:26Z</time>
      </trkpt>
      <trkpt lat="42.8479" lon="-0.09653">
        <ele>1395.49</ele>
        <time>2014-06-20T12:33:38Z</time>
      </trkpt>
      <trkpt lat="42.84801" lon="-0.09658">
        <ele>1394.53</ele>
        <time>2014-06-20T12:33:51Z</time>
      </trkpt>
      <trkpt lat="42.84815" lon="-0.09662">
        <ele>1392.61</ele>
        <time>2014-06-20T12:34:05Z</time>
      </trkpt>
      <trkpt lat="42.84821" lon="-0.09666">
        <ele>1392.61</ele>
        <time>2014-06-20T12:34:11Z</time>
      </trkpt>
      <trkpt lat="42.84836" lon="-0.09677">
        <ele>1391.17</ele>
        <time>2014-06-20T12:34:25Z</time>
      </trkpt>
      <trkpt lat="42.84854" lon="-0.09684">
        <ele>1390.68</ele>
        <time>2014-06-20T12:34:41Z</time>
      </trkpt>
      <trkpt lat="42.84869" lon="-0.09689">
        <ele>1389.72</ele>
        <time>2014-06-20T12:34:55Z</time>
      </trkpt>
      <trkpt lat="42.84883" lon="-0.097">
        <ele>1389.24</ele>
        <time>2014-06-20T12:35:10Z</time>
      </trkpt>
      <trkpt lat="42.84894" lon="-0.09706">
        <ele>1389.24</ele>
        <time>2014-06-20T12:35:19Z</time>
      </trkpt>
      <trkpt lat="42.84912" lon="-0.09722">
        <ele>1390.2</ele>
        <time>2014-06-20T12:35:34Z</time>
      </trkpt>
      <trkpt lat="42.84925" lon="-0.09735">
        <ele>1390.2</ele>
        <time>2014-06-20T12:35:48Z</time>
      </trkpt>
      <trkpt lat="42.84939" lon="-0.09742">
        <ele>1388.28</ele>
        <time>2014-06-20T12:36:02Z</time>
      </trkpt>
      <trkpt lat="42.84956" lon="-0.09751">
        <ele>1388.28</ele>
        <time>2014-06-20T12:36:19Z</time>
      </trkpt>
      <trkpt lat="42.84971" lon="-0.09755">
        <ele>1387.32</ele>
        <time>2014-06-20T12:36:33Z</time>
      </trkpt>
      <trkpt lat="42.84983" lon="-0.09758">
        <ele>1386.36</ele>
        <time>2014-06-20T12:36:46Z</time>
      </trkpt>
      <trkpt lat="42.84984" lon="-0.09758">
        <ele>1386.36</ele>
        <time>2014-06-20T12:36:47Z</time>
      </trkpt>
      <trkpt lat="42.85004" lon="-0.09761">
        <ele>1385.4</ele>
        <time>2014-06-20T12:37:04Z</time>
      </trkpt>
      <trkpt lat="42.8501" lon="-0.09767">
        <ele>1385.4</ele>
        <time>2014-06-20T12:37:12Z</time>
      </trkpt>
      <trkpt lat="42.85025" lon="-0.0977">
        <ele>1383.47</ele>
        <time>2014-06-20T12:37:27Z</time>
      </trkpt>
      <trkpt lat="42.85044" lon="-0.09775">
        <ele>1383.47</ele>
        <time>2014-06-20T12:37:42Z</time>
      </trkpt>
      <trkpt lat="42.85066" lon="-0.09779">
        <ele>1381.55</ele>
        <time>2014-06-20T12:37:58Z</time>
      </trkpt>
      <trkpt lat="42.85081" lon="-0.0978">
        <ele>1381.07</ele>
        <time>2014-06-20T12:38:14Z</time>
      </trkpt>
      <trkpt lat="42.85082" lon="-0.09779">
        <ele>1381.07</ele>
        <time>2014-06-20T12:38:15Z</time>
      </trkpt>
      <trkpt lat="42.85101" lon="-0.09779">
        <ele>1379.63</ele>
        <time>2014-06-20T12:38:32Z</time>
      </trkpt>
      <trkpt lat="42.8511" lon="-0.09778">
        <ele>1379.63</ele>
        <time>2014-06-20T12:38:42Z</time>
      </trkpt>
      <trkpt lat="42.85118" lon="-0.09772">
        <ele>1379.63</ele>
        <time>2014-06-20T12:39:00Z</time>
      </trkpt>
      <trkpt lat="42.85125" lon="-0.09775">
        <ele>1379.15</ele>
        <time>2014-06-20T12:39:21Z</time>
      </trkpt>
      <trkpt lat="42.85129" lon="-0.09779">
        <ele>1378.67</ele>
        <time>2014-06-20T12:39:27Z</time>
      </trkpt>
      <trkpt lat="42.8515" lon="-0.09776">
        <ele>1378.19</ele>
        <time>2014-06-20T12:39:47Z</time>
      </trkpt>
      <trkpt lat="42.85168" lon="-0.09774">
        <ele>1376.75</ele>
        <time>2014-06-20T12:40:05Z</time>
      </trkpt>
      <trkpt lat="42.85182" lon="-0.09774">
        <ele>1376.75</ele>
        <time>2014-06-20T12:40:19Z</time>
      </trkpt>
      <trkpt lat="42.85197" lon="-0.09779">
        <ele>1375.3</ele>
        <time>2014-06-20T12:40:33Z</time>
      </trkpt>
      <trkpt lat="42.85208" lon="-0.09782">
        <ele>1375.3</ele>
        <time>2014-06-20T12:40:41Z</time>
      </trkpt>
      <trkpt lat="42.85224" lon="-0.09786">
        <ele>1375.3</ele>
        <time>2014-06-20T12:40:56Z</time>
      </trkpt>
      <trkpt lat="42.85225" lon="-0.09788">
        <ele>1374.82</ele>
        <time>2014-06-20T12:40:58Z</time>
      </trkpt>
      <trkpt lat="42.85237" lon="-0.09804">
        <ele>1374.82</ele>
        <time>2014-06-20T12:41:13Z</time>
      </trkpt>
      <trkpt lat="42.85248" lon="-0.09807">
        <ele>1374.82</ele>
        <time>2014-06-20T12:41:25Z</time>
      </trkpt>
      <trkpt lat="42.85257" lon="-0.09812">
        <ele>1374.34</ele>
        <time>2014-06-20T12:41:39Z</time>
      </trkpt>
      <trkpt lat="42.85269" lon="-0.0982">
        <ele>1373.86</ele>
        <time>2014-06-20T12:41:55Z</time>
      </trkpt>
      <trkpt lat="42.85277" lon="-0.09813">
        <ele>1374.34</ele>
        <time>2014-06-20T12:42:08Z</time>
      </trkpt>
      <trkpt lat="42.85283" lon="-0.09814">
        <ele>1373.86</ele>
        <time>2014-06-20T12:42:19Z</time>
      </trkpt>
      <trkpt lat="42.85282" lon="-0.09812">
        <ele>1373.86</ele>
        <time>2014-06-20T12:42:21Z</time>
      </trkpt>
      <trkpt lat="42.85285" lon="-0.09808">
        <ele>1373.38</ele>
        <time>2014-06-20T12:42:36Z</time>
      </trkpt>
      <trkpt lat="42.85286" lon="-0.09798">
        <ele>1373.86</ele>
        <time>2014-06-20T12:42:53Z</time>
      </trkpt>
      <trkpt lat="42.85285" lon="-0.09799">
        <ele>1373.86</ele>
        <time>2014-06-20T12:43:12Z</time>
      </trkpt>
      <trkpt lat="42.85286" lon="-0.09797">
        <ele>1373.38</ele>
        <time>2014-06-20T12:43:24Z</time>
      </trkpt>
      <trkpt lat="42.85285" lon="-0.09798">
        <ele>1373.38</ele>
        <time>2014-06-20T12:43:31Z</time>
      </trkpt>
      <trkpt lat="42.85284" lon="-0.09796">
        <ele>1373.38</ele>
        <time>2014-06-20T12:43:43Z</time>
      </trkpt>
      <trkpt lat="42.85283" lon="-0.09808">
        <ele>1374.34</ele>
        <time>2014-06-20T12:43:56Z</time>
      </trkpt>
      <trkpt lat="42.85284" lon="-0.09809">
        <ele>1374.34</ele>
        <time>2014-06-20T12:43:58Z</time>
      </trkpt>
      <trkpt lat="42.85292" lon="-0.09811">
        <ele>1373.38</ele>
        <time>2014-06-20T12:44:08Z</time>
      </trkpt>
      <trkpt lat="42.85299" lon="-0.0981">
        <ele>1373.38</ele>
        <time>2014-06-20T12:44:15Z</time>
      </trkpt>
      <trkpt lat="42.85317" lon="-0.09806">
        <ele>1372.42</ele>
        <time>2014-06-20T12:44:32Z</time>
      </trkpt>
      <trkpt lat="42.8532" lon="-0.098">
        <ele>1372.9</ele>
        <time>2014-06-20T12:44:45Z</time>
      </trkpt>
      <trkpt lat="42.8532" lon="-0.098">
        <ele>1372.9</ele>
        <time>2014-06-20T12:45:12Z</time>
      </trkpt>
      <trkpt lat="42.85321" lon="-0.09801">
        <ele>1372.9</ele>
        <time>2014-06-20T12:45:30Z</time>
      </trkpt>
      <trkpt lat="42.85322" lon="-0.09802">
        <ele>1372.42</ele>
        <time>2014-06-20T12:45:43Z</time>
      </trkpt>
      <trkpt lat="42.85322" lon="-0.09798">
        <ele>1372.42</ele>
        <time>2014-06-20T12:45:57Z</time>
      </trkpt>
      <trkpt lat="42.85322" lon="-0.098">
        <ele>1372.42</ele>
        <time>2014-06-20T12:46:12Z</time>
      </trkpt>
      <trkpt lat="42.85322" lon="-0.098">
        <ele>1372.9</ele>
        <time>2014-06-20T12:46:35Z</time>
      </trkpt>
      <trkpt lat="42.85323" lon="-0.098">
        <ele>1372.42</ele>
        <time>2014-06-20T12:46:54Z</time>
      </trkpt>
      <trkpt lat="42.85323" lon="-0.098">
        <ele>1372.42</ele>
        <time>2014-06-20T12:47:12Z</time>
      </trkpt>
      <trkpt lat="42.85322" lon="-0.09799">
        <ele>1372.42</ele>
        <time>2014-06-20T12:47:30Z</time>
      </trkpt>
      <trkpt lat="42.85323" lon="-0.09799">
        <ele>1371.94</ele>
        <time>2014-06-20T12:47:44Z</time>
      </trkpt>
      <trkpt lat="42.85323" lon="-0.09798">
        <ele>1371.94</ele>
        <time>2014-06-20T12:47:59Z</time>
      </trkpt>
      <trkpt lat="42.85324" lon="-0.09798">
        <ele>1371.46</ele>
        <time>2014-06-20T12:48:22Z</time>
      </trkpt>
      <trkpt lat="42.85324" lon="-0.09798">
        <ele>1371.94</ele>
        <time>2014-06-20T12:48:41Z</time>
      </trkpt>
      <trkpt lat="42.85324" lon="-0.09798">
        <ele>1371.46</ele>
        <time>2014-06-20T12:49:07Z</time>
      </trkpt>
      <trkpt lat="42.85325" lon="-0.09798">
        <ele>1371.94</ele>
        <time>2014-06-20T12:49:28Z</time>
      </trkpt>
      <trkpt lat="42.85324" lon="-0.09799">
        <ele>1371.94</ele>
        <time>2014-06-20T12:49:39Z</time>
      </trkpt>
      <trkpt lat="42.85324" lon="-0.09797">
        <ele>1371.46</ele>
        <time>2014-06-20T12:49:53Z</time>
      </trkpt>
      <trkpt lat="42.85324" lon="-0.09796">
        <ele>1371.46</ele>
        <time>2014-06-20T12:50:10Z</time>
      </trkpt>
      <trkpt lat="42.85324" lon="-0.09796">
        <ele>1368.09</ele>
        <time>2014-06-20T12:50:30Z</time>
      </trkpt>
      <trkpt lat="42.85324" lon="-0.09796">
        <ele>1372.42</ele>
        <time>2014-06-20T12:50:32Z</time>
      </trkpt>
      <trkpt lat="42.85324" lon="-0.09796">
        <ele>1367.61</ele>
        <time>2014-06-20T12:50:33Z</time>
      </trkpt>
      <trkpt lat="42.85324" lon="-0.09796">
        <ele>1371.94</ele>
        <time>2014-06-20T12:50:34Z</time>
      </trkpt>
      <trkpt lat="42.85324" lon="-0.09796">
        <ele>1375.78</ele>
        <time>2014-06-20T12:50:37Z</time>
      </trkpt>
      <trkpt lat="42.85324" lon="-0.09796">
        <ele>1371.94</ele>
        <time>2014-06-20T12:50:38Z</time>
      </trkpt>
      <trkpt lat="42.85324" lon="-0.09796">
        <ele>1369.05</ele>
        <time>2014-06-20T12:50:41Z</time>
      </trkpt>
      <trkpt lat="42.85324" lon="-0.09796">
        <ele>1374.82</ele>
        <time>2014-06-20T12:50:42Z</time>
      </trkpt>
      <trkpt lat="42.85324" lon="-0.09796">
        <ele>1370.98</ele>
        <time>2014-06-20T12:50:44Z</time>
      </trkpt>
      <trkpt lat="42.85324" lon="-0.09796">
        <ele>1371.94</ele>
        <time>2014-06-20T12:50:45Z</time>
      </trkpt>
      <trkpt lat="42.85324" lon="-0.09796">
        <ele>1367.13</ele>
        <time>2014-06-20T12:50:46Z</time>
      </trkpt>
      <trkpt lat="42.85324" lon="-0.09796">
        <ele>1373.38</ele>
        <time>2014-06-20T12:50:47Z</time>
      </trkpt>
      <trkpt lat="42.85324" lon="-0.09796">
        <ele>1370.5</ele>
        <time>2014-06-20T12:50:53Z</time>
      </trkpt>
      <trkpt lat="42.85324" lon="-0.09796">
        <ele>1373.38</ele>
        <time>2014-06-20T12:50:54Z</time>
      </trkpt>
      <trkpt lat="42.85324" lon="-0.09796">
        <ele>1366.65</ele>
        <time>2014-06-20T12:50:56Z</time>
      </trkpt>
      <trkpt lat="42.85324" lon="-0.09796">
        <ele>1366.65</ele>
        <time>2014-06-20T12:50:57Z</time>
      </trkpt>
      <trkpt lat="42.85324" lon="-0.09796">
        <ele>1372.42</ele>
        <time>2014-06-20T12:50:58Z</time>
      </trkpt>
      <trkpt lat="42.85324" lon="-0.09796">
        <ele>1382.51</ele>
        <time>2014-06-20T12:50:59Z</time>
      </trkpt>
      <trkpt lat="42.85324" lon="-0.09796">
        <ele>1371.46</ele>
        <time>2014-06-20T12:51:00Z</time>
      </trkpt>
      <trkpt lat="42.85324" lon="-0.09796">
        <ele>1370.98</ele>
        <time>2014-06-20T12:51:07Z</time>
      </trkpt>
      <trkpt lat="42.85324" lon="-0.09796">
        <ele>1370.5</ele>
        <time>2014-06-20T12:51:20Z</time>
      </trkpt>
      <trkpt lat="42.85324" lon="-0.09796">
        <ele>1378.19</ele>
        <time>2014-06-20T12:51:29Z</time>
      </trkpt>
      <trkpt lat="42.85324" lon="-0.09796">
        <ele>1371.46</ele>
        <time>2014-06-20T12:51:30Z</time>
      </trkpt>
    </trkseg>
  </trk>
</gpx>